<?xml version="1.0" encoding="UTF-8" standalone="no" ?>
<gpx xmlns="http://www.topografix.com/GPX/1/1" xmlns:xsi="http://www.w3.org/2001/XMLSchema-instance" xsi:schemaLocation="http://www.topografix.com/GPX/1/1 http://www.topografix.com/GPX/1/1/gpx.xsd" version="1.1" creator="VisuGPX - https://www.visugpx.com">
  <metadata>
    <name>Les Bourdettes 9km</name>
  </metadata>
  <wpt lat="46.30878" lon="-0.69449">
    <ele>3.3</ele>
  </wpt>
  <trk>
    <name><![CDATA[Les Bourdettes 9km_1]]></name>
    <trkseg>
      <trkpt lat="46.30795" lon="-0.71798">
        <ele>56</ele>
        <time>2011-09-20T13:57:25Z</time>
      </trkpt>
      <trkpt lat="46.30793" lon="-0.71792">
        <ele>54</ele>
        <time>2011-09-20T13:57:30Z</time>
      </trkpt>
      <trkpt lat="46.30794" lon="-0.71792">
        <ele>54</ele>
        <time>2011-09-20T13:57:35Z</time>
      </trkpt>
      <trkpt lat="46.30795" lon="-0.71792">
        <ele>53</ele>
        <time>2011-09-20T13:57:40Z</time>
      </trkpt>
      <trkpt lat="46.30793" lon="-0.71791">
        <ele>54</ele>
        <time>2011-09-20T13:57:45Z</time>
      </trkpt>
      <trkpt lat="46.30791" lon="-0.71787">
        <ele>54</ele>
        <time>2011-09-20T13:57:50Z</time>
      </trkpt>
      <trkpt lat="46.30791" lon="-0.71782">
        <ele>52</ele>
        <time>2011-09-20T13:57:55Z</time>
      </trkpt>
      <trkpt lat="46.30788" lon="-0.71776">
        <ele>52</ele>
        <time>2011-09-20T13:58:00Z</time>
      </trkpt>
      <trkpt lat="46.30785" lon="-0.71766">
        <ele>52</ele>
        <time>2011-09-20T13:58:05Z</time>
      </trkpt>
      <trkpt lat="46.30785" lon="-0.71763">
        <ele>52</ele>
        <time>2011-09-20T13:58:10Z</time>
      </trkpt>
      <trkpt lat="46.30783" lon="-0.71754">
        <ele>52</ele>
        <time>2011-09-20T13:58:15Z</time>
      </trkpt>
      <trkpt lat="46.30782" lon="-0.71745">
        <ele>53</ele>
        <time>2011-09-20T13:58:20Z</time>
      </trkpt>
      <trkpt lat="46.30779" lon="-0.71739">
        <ele>51</ele>
        <time>2011-09-20T13:58:25Z</time>
      </trkpt>
      <trkpt lat="46.30777" lon="-0.71731">
        <ele>51</ele>
        <time>2011-09-20T13:58:30Z</time>
      </trkpt>
      <trkpt lat="46.30775" lon="-0.71723">
        <ele>51</ele>
        <time>2011-09-20T13:58:35Z</time>
      </trkpt>
      <trkpt lat="46.30774" lon="-0.71717">
        <ele>52</ele>
        <time>2011-09-20T13:58:40Z</time>
      </trkpt>
      <trkpt lat="46.30771" lon="-0.71711">
        <ele>52</ele>
        <time>2011-09-20T13:58:45Z</time>
      </trkpt>
      <trkpt lat="46.30771" lon="-0.71702">
        <ele>51</ele>
        <time>2011-09-20T13:58:50Z</time>
      </trkpt>
      <trkpt lat="46.30769" lon="-0.71694">
        <ele>48</ele>
        <time>2011-09-20T13:58:55Z</time>
      </trkpt>
      <trkpt lat="46.30766" lon="-0.71684">
        <ele>47</ele>
        <time>2011-09-20T13:59:00Z</time>
      </trkpt>
      <trkpt lat="46.30763" lon="-0.71679">
        <ele>46</ele>
        <time>2011-09-20T13:59:05Z</time>
      </trkpt>
      <trkpt lat="46.3076" lon="-0.71671">
        <ele>48</ele>
        <time>2011-09-20T13:59:10Z</time>
      </trkpt>
      <trkpt lat="46.30757" lon="-0.71664">
        <ele>49</ele>
        <time>2011-09-20T13:59:15Z</time>
      </trkpt>
      <trkpt lat="46.30755" lon="-0.71656">
        <ele>50</ele>
        <time>2011-09-20T13:59:20Z</time>
      </trkpt>
      <trkpt lat="46.30752" lon="-0.71649">
        <ele>51</ele>
        <time>2011-09-20T13:59:25Z</time>
      </trkpt>
      <trkpt lat="46.3075" lon="-0.71641">
        <ele>52</ele>
        <time>2011-09-20T13:59:30Z</time>
      </trkpt>
      <trkpt lat="46.30747" lon="-0.71634">
        <ele>52</ele>
        <time>2011-09-20T13:59:35Z</time>
      </trkpt>
      <trkpt lat="46.30745" lon="-0.71624">
        <ele>52</ele>
        <time>2011-09-20T13:59:40Z</time>
      </trkpt>
      <trkpt lat="46.30743" lon="-0.71615">
        <ele>53</ele>
        <time>2011-09-20T13:59:45Z</time>
      </trkpt>
      <trkpt lat="46.30741" lon="-0.71609">
        <ele>55</ele>
        <time>2011-09-20T13:59:50Z</time>
      </trkpt>
      <trkpt lat="46.30737" lon="-0.71602">
        <ele>53</ele>
        <time>2011-09-20T13:59:55Z</time>
      </trkpt>
      <trkpt lat="46.30734" lon="-0.71594">
        <ele>54</ele>
        <time>2011-09-20T14:00:00Z</time>
      </trkpt>
      <trkpt lat="46.30731" lon="-0.71584">
        <ele>52</ele>
        <time>2011-09-20T14:00:05Z</time>
      </trkpt>
      <trkpt lat="46.30729" lon="-0.71574">
        <ele>52</ele>
        <time>2011-09-20T14:00:10Z</time>
      </trkpt>
      <trkpt lat="46.30725" lon="-0.7157">
        <ele>55</ele>
        <time>2011-09-20T14:00:15Z</time>
      </trkpt>
      <trkpt lat="46.30724" lon="-0.71561">
        <ele>52</ele>
        <time>2011-09-20T14:00:20Z</time>
      </trkpt>
      <trkpt lat="46.3072" lon="-0.71556">
        <ele>52</ele>
        <time>2011-09-20T14:00:25Z</time>
      </trkpt>
      <trkpt lat="46.30717" lon="-0.71548">
        <ele>52</ele>
        <time>2011-09-20T14:00:30Z</time>
      </trkpt>
      <trkpt lat="46.30714" lon="-0.7154">
        <ele>52</ele>
        <time>2011-09-20T14:00:35Z</time>
      </trkpt>
      <trkpt lat="46.30712" lon="-0.71532">
        <ele>52</ele>
        <time>2011-09-20T14:00:40Z</time>
      </trkpt>
      <trkpt lat="46.3071" lon="-0.71523">
        <ele>49</ele>
        <time>2011-09-20T14:00:45Z</time>
      </trkpt>
      <trkpt lat="46.30708" lon="-0.71517">
        <ele>52</ele>
        <time>2011-09-20T14:00:50Z</time>
      </trkpt>
      <trkpt lat="46.30708" lon="-0.71511">
        <ele>53</ele>
        <time>2011-09-20T14:00:55Z</time>
      </trkpt>
      <trkpt lat="46.30705" lon="-0.71503">
        <ele>52</ele>
        <time>2011-09-20T14:01:00Z</time>
      </trkpt>
      <trkpt lat="46.30704" lon="-0.71494">
        <ele>54</ele>
        <time>2011-09-20T14:01:05Z</time>
      </trkpt>
      <trkpt lat="46.30704" lon="-0.71485">
        <ele>56</ele>
        <time>2011-09-20T14:01:10Z</time>
      </trkpt>
      <trkpt lat="46.30703" lon="-0.71478">
        <ele>54</ele>
        <time>2011-09-20T14:01:15Z</time>
      </trkpt>
      <trkpt lat="46.307" lon="-0.7147">
        <ele>53</ele>
        <time>2011-09-20T14:01:20Z</time>
      </trkpt>
      <trkpt lat="46.30698" lon="-0.71462">
        <ele>52</ele>
        <time>2011-09-20T14:01:25Z</time>
      </trkpt>
      <trkpt lat="46.30697" lon="-0.71453">
        <ele>49</ele>
        <time>2011-09-20T14:01:30Z</time>
      </trkpt>
      <trkpt lat="46.30694" lon="-0.71448">
        <ele>50</ele>
        <time>2011-09-20T14:01:35Z</time>
      </trkpt>
      <trkpt lat="46.30692" lon="-0.7144">
        <ele>52</ele>
        <time>2011-09-20T14:01:40Z</time>
      </trkpt>
      <trkpt lat="46.30691" lon="-0.71432">
        <ele>53</ele>
        <time>2011-09-20T14:01:45Z</time>
      </trkpt>
      <trkpt lat="46.3069" lon="-0.71426">
        <ele>55</ele>
        <time>2011-09-20T14:01:50Z</time>
      </trkpt>
      <trkpt lat="46.30689" lon="-0.71416">
        <ele>55</ele>
        <time>2011-09-20T14:01:55Z</time>
      </trkpt>
      <trkpt lat="46.30687" lon="-0.71408">
        <ele>56</ele>
        <time>2011-09-20T14:02:00Z</time>
      </trkpt>
      <trkpt lat="46.30684" lon="-0.71399">
        <ele>56</ele>
        <time>2011-09-20T14:02:05Z</time>
      </trkpt>
      <trkpt lat="46.3068" lon="-0.71392">
        <ele>55</ele>
        <time>2011-09-20T14:02:10Z</time>
      </trkpt>
      <trkpt lat="46.30675" lon="-0.71385">
        <ele>54</ele>
        <time>2011-09-20T14:02:15Z</time>
      </trkpt>
      <trkpt lat="46.30672" lon="-0.71379">
        <ele>54</ele>
        <time>2011-09-20T14:02:20Z</time>
      </trkpt>
      <trkpt lat="46.30668" lon="-0.7137">
        <ele>56</ele>
        <time>2011-09-20T14:02:25Z</time>
      </trkpt>
      <trkpt lat="46.30666" lon="-0.71362">
        <ele>57</ele>
        <time>2011-09-20T14:02:30Z</time>
      </trkpt>
      <trkpt lat="46.30662" lon="-0.71354">
        <ele>58</ele>
        <time>2011-09-20T14:02:35Z</time>
      </trkpt>
      <trkpt lat="46.30657" lon="-0.71349">
        <ele>58</ele>
        <time>2011-09-20T14:02:40Z</time>
      </trkpt>
      <trkpt lat="46.30651" lon="-0.71342">
        <ele>58</ele>
        <time>2011-09-20T14:02:45Z</time>
      </trkpt>
      <trkpt lat="46.30647" lon="-0.71337">
        <ele>61</ele>
        <time>2011-09-20T14:02:50Z</time>
      </trkpt>
      <trkpt lat="46.3064" lon="-0.71333">
        <ele>60</ele>
        <time>2011-09-20T14:02:55Z</time>
      </trkpt>
      <trkpt lat="46.30635" lon="-0.71327">
        <ele>60</ele>
        <time>2011-09-20T14:03:00Z</time>
      </trkpt>
      <trkpt lat="46.30628" lon="-0.71322">
        <ele>60</ele>
        <time>2011-09-20T14:03:05Z</time>
      </trkpt>
      <trkpt lat="46.30624" lon="-0.71317">
        <ele>59</ele>
        <time>2011-09-20T14:03:10Z</time>
      </trkpt>
      <trkpt lat="46.30619" lon="-0.71312">
        <ele>58</ele>
        <time>2011-09-20T14:03:15Z</time>
      </trkpt>
      <trkpt lat="46.30612" lon="-0.71306">
        <ele>58</ele>
        <time>2011-09-20T14:03:20Z</time>
      </trkpt>
      <trkpt lat="46.30607" lon="-0.71303">
        <ele>57</ele>
        <time>2011-09-20T14:03:25Z</time>
      </trkpt>
      <trkpt lat="46.30602" lon="-0.71297">
        <ele>58</ele>
        <time>2011-09-20T14:03:30Z</time>
      </trkpt>
      <trkpt lat="46.30595" lon="-0.71294">
        <ele>57</ele>
        <time>2011-09-20T14:03:35Z</time>
      </trkpt>
      <trkpt lat="46.30589" lon="-0.71289">
        <ele>58</ele>
        <time>2011-09-20T14:03:40Z</time>
      </trkpt>
      <trkpt lat="46.30582" lon="-0.71287">
        <ele>57</ele>
        <time>2011-09-20T14:03:45Z</time>
      </trkpt>
      <trkpt lat="46.30578" lon="-0.71285">
        <ele>58</ele>
        <time>2011-09-20T14:03:50Z</time>
      </trkpt>
      <trkpt lat="46.30574" lon="-0.71279">
        <ele>59</ele>
        <time>2011-09-20T14:03:55Z</time>
      </trkpt>
      <trkpt lat="46.30572" lon="-0.71277">
        <ele>60</ele>
        <time>2011-09-20T14:04:00Z</time>
      </trkpt>
      <trkpt lat="46.30567" lon="-0.71272">
        <ele>58</ele>
        <time>2011-09-20T14:04:05Z</time>
      </trkpt>
      <trkpt lat="46.3056" lon="-0.71265">
        <ele>59</ele>
        <time>2011-09-20T14:04:10Z</time>
      </trkpt>
      <trkpt lat="46.30555" lon="-0.71258">
        <ele>60</ele>
        <time>2011-09-20T14:04:15Z</time>
      </trkpt>
      <trkpt lat="46.3055" lon="-0.71254">
        <ele>59</ele>
        <time>2011-09-20T14:04:20Z</time>
      </trkpt>
      <trkpt lat="46.30543" lon="-0.71245">
        <ele>62</ele>
        <time>2011-09-20T14:04:25Z</time>
      </trkpt>
      <trkpt lat="46.30539" lon="-0.71239">
        <ele>61</ele>
        <time>2011-09-20T14:04:30Z</time>
      </trkpt>
      <trkpt lat="46.30536" lon="-0.71241">
        <ele>61</ele>
        <time>2011-09-20T14:04:35Z</time>
      </trkpt>
      <trkpt lat="46.30529" lon="-0.71238">
        <ele>60</ele>
        <time>2011-09-20T14:04:40Z</time>
      </trkpt>
      <trkpt lat="46.30522" lon="-0.71235">
        <ele>60</ele>
        <time>2011-09-20T14:04:45Z</time>
      </trkpt>
      <trkpt lat="46.30516" lon="-0.7123">
        <ele>56</ele>
        <time>2011-09-20T14:04:50Z</time>
      </trkpt>
      <trkpt lat="46.30511" lon="-0.71224">
        <ele>53</ele>
        <time>2011-09-20T14:04:55Z</time>
      </trkpt>
      <trkpt lat="46.30507" lon="-0.7122">
        <ele>53</ele>
        <time>2011-09-20T14:05:00Z</time>
      </trkpt>
      <trkpt lat="46.30502" lon="-0.71216">
        <ele>55</ele>
        <time>2011-09-20T14:05:05Z</time>
      </trkpt>
      <trkpt lat="46.30498" lon="-0.71213">
        <ele>54</ele>
        <time>2011-09-20T14:05:10Z</time>
      </trkpt>
      <trkpt lat="46.30493" lon="-0.71207">
        <ele>54</ele>
        <time>2011-09-20T14:05:15Z</time>
      </trkpt>
      <trkpt lat="46.30488" lon="-0.71201">
        <ele>54</ele>
        <time>2011-09-20T14:05:20Z</time>
      </trkpt>
      <trkpt lat="46.30485" lon="-0.71198">
        <ele>53</ele>
        <time>2011-09-20T14:05:25Z</time>
      </trkpt>
      <trkpt lat="46.3048" lon="-0.71194">
        <ele>55</ele>
        <time>2011-09-20T14:05:30Z</time>
      </trkpt>
      <trkpt lat="46.30475" lon="-0.71188">
        <ele>55</ele>
        <time>2011-09-20T14:05:35Z</time>
      </trkpt>
      <trkpt lat="46.30471" lon="-0.71182">
        <ele>54</ele>
        <time>2011-09-20T14:05:40Z</time>
      </trkpt>
      <trkpt lat="46.30466" lon="-0.71177">
        <ele>55</ele>
        <time>2011-09-20T14:05:45Z</time>
      </trkpt>
      <trkpt lat="46.30463" lon="-0.7117">
        <ele>55</ele>
        <time>2011-09-20T14:05:50Z</time>
      </trkpt>
      <trkpt lat="46.30457" lon="-0.71165">
        <ele>54</ele>
        <time>2011-09-20T14:05:55Z</time>
      </trkpt>
      <trkpt lat="46.30453" lon="-0.71159">
        <ele>52</ele>
        <time>2011-09-20T14:06:00Z</time>
      </trkpt>
      <trkpt lat="46.30447" lon="-0.71155">
        <ele>54</ele>
        <time>2011-09-20T14:06:05Z</time>
      </trkpt>
      <trkpt lat="46.30442" lon="-0.71151">
        <ele>54</ele>
        <time>2011-09-20T14:06:10Z</time>
      </trkpt>
      <trkpt lat="46.3044" lon="-0.71145">
        <ele>54</ele>
        <time>2011-09-20T14:06:15Z</time>
      </trkpt>
      <trkpt lat="46.30437" lon="-0.71136">
        <ele>53</ele>
        <time>2011-09-20T14:06:20Z</time>
      </trkpt>
      <trkpt lat="46.30436" lon="-0.71128">
        <ele>53</ele>
        <time>2011-09-20T14:06:25Z</time>
      </trkpt>
      <trkpt lat="46.30434" lon="-0.71119">
        <ele>56</ele>
        <time>2011-09-20T14:06:30Z</time>
      </trkpt>
      <trkpt lat="46.30433" lon="-0.7111">
        <ele>54</ele>
        <time>2011-09-20T14:06:35Z</time>
      </trkpt>
      <trkpt lat="46.3043" lon="-0.71102">
        <ele>54</ele>
        <time>2011-09-20T14:06:40Z</time>
      </trkpt>
      <trkpt lat="46.3043" lon="-0.71092">
        <ele>55</ele>
        <time>2011-09-20T14:06:45Z</time>
      </trkpt>
      <trkpt lat="46.30429" lon="-0.71083">
        <ele>56</ele>
        <time>2011-09-20T14:06:50Z</time>
      </trkpt>
      <trkpt lat="46.30429" lon="-0.71073">
        <ele>57</ele>
        <time>2011-09-20T14:06:55Z</time>
      </trkpt>
      <trkpt lat="46.30428" lon="-0.71065">
        <ele>57</ele>
        <time>2011-09-20T14:07:00Z</time>
      </trkpt>
      <trkpt lat="46.30426" lon="-0.71058">
        <ele>58</ele>
        <time>2011-09-20T14:07:05Z</time>
      </trkpt>
      <trkpt lat="46.30423" lon="-0.7105">
        <ele>59</ele>
        <time>2011-09-20T14:07:10Z</time>
      </trkpt>
      <trkpt lat="46.30422" lon="-0.71042">
        <ele>58</ele>
        <time>2011-09-20T14:07:15Z</time>
      </trkpt>
      <trkpt lat="46.3042" lon="-0.71033">
        <ele>59</ele>
        <time>2011-09-20T14:07:20Z</time>
      </trkpt>
      <trkpt lat="46.30419" lon="-0.71023">
        <ele>58</ele>
        <time>2011-09-20T14:07:25Z</time>
      </trkpt>
      <trkpt lat="46.30421" lon="-0.71015">
        <ele>57</ele>
        <time>2011-09-20T14:07:30Z</time>
      </trkpt>
      <trkpt lat="46.30419" lon="-0.71005">
        <ele>58</ele>
        <time>2011-09-20T14:07:35Z</time>
      </trkpt>
      <trkpt lat="46.30419" lon="-0.70994">
        <ele>59</ele>
        <time>2011-09-20T14:07:40Z</time>
      </trkpt>
      <trkpt lat="46.30414" lon="-0.70986">
        <ele>59</ele>
        <time>2011-09-20T14:07:45Z</time>
      </trkpt>
      <trkpt lat="46.30413" lon="-0.7098">
        <ele>57</ele>
        <time>2011-09-20T14:07:50Z</time>
      </trkpt>
      <trkpt lat="46.30412" lon="-0.70971">
        <ele>56</ele>
        <time>2011-09-20T14:07:55Z</time>
      </trkpt>
      <trkpt lat="46.30411" lon="-0.70963">
        <ele>56</ele>
        <time>2011-09-20T14:08:00Z</time>
      </trkpt>
      <trkpt lat="46.3041" lon="-0.70954">
        <ele>56</ele>
        <time>2011-09-20T14:08:05Z</time>
      </trkpt>
      <trkpt lat="46.30408" lon="-0.70945">
        <ele>57</ele>
        <time>2011-09-20T14:08:10Z</time>
      </trkpt>
      <trkpt lat="46.30408" lon="-0.70937">
        <ele>58</ele>
        <time>2011-09-20T14:08:15Z</time>
      </trkpt>
      <trkpt lat="46.30407" lon="-0.70927">
        <ele>59</ele>
        <time>2011-09-20T14:08:20Z</time>
      </trkpt>
      <trkpt lat="46.30407" lon="-0.7092">
        <ele>60</ele>
        <time>2011-09-20T14:08:25Z</time>
      </trkpt>
      <trkpt lat="46.30407" lon="-0.70911">
        <ele>60</ele>
        <time>2011-09-20T14:08:30Z</time>
      </trkpt>
      <trkpt lat="46.30407" lon="-0.70902">
        <ele>59</ele>
        <time>2011-09-20T14:08:35Z</time>
      </trkpt>
      <trkpt lat="46.30409" lon="-0.70893">
        <ele>58</ele>
        <time>2011-09-20T14:08:40Z</time>
      </trkpt>
      <trkpt lat="46.30406" lon="-0.70883">
        <ele>59</ele>
        <time>2011-09-20T14:08:45Z</time>
      </trkpt>
      <trkpt lat="46.30407" lon="-0.70871">
        <ele>60</ele>
        <time>2011-09-20T14:08:50Z</time>
      </trkpt>
      <trkpt lat="46.30406" lon="-0.70863">
        <ele>59</ele>
        <time>2011-09-20T14:08:55Z</time>
      </trkpt>
      <trkpt lat="46.30408" lon="-0.70853">
        <ele>56</ele>
        <time>2011-09-20T14:09:00Z</time>
      </trkpt>
      <trkpt lat="46.30406" lon="-0.70847">
        <ele>56</ele>
        <time>2011-09-20T14:09:05Z</time>
      </trkpt>
      <trkpt lat="46.30405" lon="-0.70838">
        <ele>55</ele>
        <time>2011-09-20T14:09:10Z</time>
      </trkpt>
      <trkpt lat="46.30404" lon="-0.7083">
        <ele>54</ele>
        <time>2011-09-20T14:09:15Z</time>
      </trkpt>
      <trkpt lat="46.30405" lon="-0.70821">
        <ele>54</ele>
        <time>2011-09-20T14:09:20Z</time>
      </trkpt>
      <trkpt lat="46.30403" lon="-0.70815">
        <ele>54</ele>
        <time>2011-09-20T14:09:25Z</time>
      </trkpt>
      <trkpt lat="46.30401" lon="-0.70807">
        <ele>54</ele>
        <time>2011-09-20T14:09:30Z</time>
      </trkpt>
      <trkpt lat="46.30399" lon="-0.70799">
        <ele>54</ele>
        <time>2011-09-20T14:09:35Z</time>
      </trkpt>
      <trkpt lat="46.30397" lon="-0.7079">
        <ele>53</ele>
        <time>2011-09-20T14:09:40Z</time>
      </trkpt>
      <trkpt lat="46.30397" lon="-0.70782">
        <ele>53</ele>
        <time>2011-09-20T14:09:45Z</time>
      </trkpt>
      <trkpt lat="46.30396" lon="-0.70774">
        <ele>55</ele>
        <time>2011-09-20T14:09:50Z</time>
      </trkpt>
      <trkpt lat="46.30395" lon="-0.70766">
        <ele>55</ele>
        <time>2011-09-20T14:09:55Z</time>
      </trkpt>
      <trkpt lat="46.30396" lon="-0.70758">
        <ele>53</ele>
        <time>2011-09-20T14:10:00Z</time>
      </trkpt>
      <trkpt lat="46.30396" lon="-0.7075">
        <ele>52</ele>
        <time>2011-09-20T14:10:05Z</time>
      </trkpt>
      <trkpt lat="46.30396" lon="-0.7074">
        <ele>51</ele>
        <time>2011-09-20T14:10:10Z</time>
      </trkpt>
      <trkpt lat="46.30395" lon="-0.70733">
        <ele>50</ele>
        <time>2011-09-20T14:10:15Z</time>
      </trkpt>
      <trkpt lat="46.30396" lon="-0.70724">
        <ele>48</ele>
        <time>2011-09-20T14:10:20Z</time>
      </trkpt>
      <trkpt lat="46.30397" lon="-0.70716">
        <ele>47</ele>
        <time>2011-09-20T14:10:25Z</time>
      </trkpt>
      <trkpt lat="46.30398" lon="-0.70708">
        <ele>46</ele>
        <time>2011-09-20T14:10:30Z</time>
      </trkpt>
      <trkpt lat="46.30396" lon="-0.70699">
        <ele>48</ele>
        <time>2011-09-20T14:10:35Z</time>
      </trkpt>
      <trkpt lat="46.30398" lon="-0.7069">
        <ele>46</ele>
        <time>2011-09-20T14:10:40Z</time>
      </trkpt>
      <trkpt lat="46.30398" lon="-0.70679">
        <ele>46</ele>
        <time>2011-09-20T14:10:45Z</time>
      </trkpt>
      <trkpt lat="46.304" lon="-0.70674">
        <ele>45</ele>
        <time>2011-09-20T14:10:50Z</time>
      </trkpt>
      <trkpt lat="46.304" lon="-0.70665">
        <ele>46</ele>
        <time>2011-09-20T14:10:55Z</time>
      </trkpt>
      <trkpt lat="46.30401" lon="-0.70657">
        <ele>45</ele>
        <time>2011-09-20T14:11:00Z</time>
      </trkpt>
      <trkpt lat="46.30401" lon="-0.70646">
        <ele>44</ele>
        <time>2011-09-20T14:11:05Z</time>
      </trkpt>
      <trkpt lat="46.304" lon="-0.70638">
        <ele>45</ele>
        <time>2011-09-20T14:11:10Z</time>
      </trkpt>
      <trkpt lat="46.30399" lon="-0.7063">
        <ele>44</ele>
        <time>2011-09-20T14:11:15Z</time>
      </trkpt>
      <trkpt lat="46.30399" lon="-0.70623">
        <ele>43</ele>
        <time>2011-09-20T14:11:20Z</time>
      </trkpt>
      <trkpt lat="46.304" lon="-0.70613">
        <ele>44</ele>
        <time>2011-09-20T14:11:25Z</time>
      </trkpt>
      <trkpt lat="46.30404" lon="-0.70604">
        <ele>43</ele>
        <time>2011-09-20T14:11:30Z</time>
      </trkpt>
      <trkpt lat="46.30402" lon="-0.70596">
        <ele>42</ele>
        <time>2011-09-20T14:11:35Z</time>
      </trkpt>
      <trkpt lat="46.304" lon="-0.70587">
        <ele>42</ele>
        <time>2011-09-20T14:11:40Z</time>
      </trkpt>
      <trkpt lat="46.30401" lon="-0.70579">
        <ele>44</ele>
        <time>2011-09-20T14:11:45Z</time>
      </trkpt>
      <trkpt lat="46.30403" lon="-0.70572">
        <ele>45</ele>
        <time>2011-09-20T14:11:50Z</time>
      </trkpt>
      <trkpt lat="46.30404" lon="-0.70568">
        <ele>45</ele>
        <time>2011-09-20T14:11:55Z</time>
      </trkpt>
      <trkpt lat="46.30404" lon="-0.70566">
        <ele>46</ele>
        <time>2011-09-20T14:12:00Z</time>
      </trkpt>
      <trkpt lat="46.30406" lon="-0.70568">
        <ele>46</ele>
        <time>2011-09-20T14:12:05Z</time>
      </trkpt>
      <trkpt lat="46.30406" lon="-0.70568">
        <ele>48</ele>
        <time>2011-09-20T14:12:10Z</time>
      </trkpt>
      <trkpt lat="46.30409" lon="-0.70567">
        <ele>48</ele>
        <time>2011-09-20T14:12:15Z</time>
      </trkpt>
      <trkpt lat="46.30411" lon="-0.70562">
        <ele>49</ele>
        <time>2011-09-20T14:12:20Z</time>
      </trkpt>
      <trkpt lat="46.30413" lon="-0.70555">
        <ele>49</ele>
        <time>2011-09-20T14:12:25Z</time>
      </trkpt>
      <trkpt lat="46.30415" lon="-0.70546">
        <ele>50</ele>
        <time>2011-09-20T14:12:30Z</time>
      </trkpt>
      <trkpt lat="46.30419" lon="-0.70538">
        <ele>49</ele>
        <time>2011-09-20T14:12:35Z</time>
      </trkpt>
      <trkpt lat="46.30422" lon="-0.70529">
        <ele>50</ele>
        <time>2011-09-20T14:12:40Z</time>
      </trkpt>
      <trkpt lat="46.30426" lon="-0.70523">
        <ele>50</ele>
        <time>2011-09-20T14:12:45Z</time>
      </trkpt>
      <trkpt lat="46.30428" lon="-0.70516">
        <ele>49</ele>
        <time>2011-09-20T14:12:50Z</time>
      </trkpt>
      <trkpt lat="46.30431" lon="-0.70508">
        <ele>49</ele>
        <time>2011-09-20T14:12:55Z</time>
      </trkpt>
      <trkpt lat="46.30434" lon="-0.70499">
        <ele>49</ele>
        <time>2011-09-20T14:13:00Z</time>
      </trkpt>
      <trkpt lat="46.30436" lon="-0.70492">
        <ele>50</ele>
        <time>2011-09-20T14:13:05Z</time>
      </trkpt>
      <trkpt lat="46.30438" lon="-0.70484">
        <ele>50</ele>
        <time>2011-09-20T14:13:10Z</time>
      </trkpt>
      <trkpt lat="46.30441" lon="-0.70476">
        <ele>52</ele>
        <time>2011-09-20T14:13:15Z</time>
      </trkpt>
      <trkpt lat="46.30443" lon="-0.70468">
        <ele>52</ele>
        <time>2011-09-20T14:13:20Z</time>
      </trkpt>
      <trkpt lat="46.30444" lon="-0.70458">
        <ele>50</ele>
        <time>2011-09-20T14:13:25Z</time>
      </trkpt>
      <trkpt lat="46.30448" lon="-0.70449">
        <ele>51</ele>
        <time>2011-09-20T14:13:30Z</time>
      </trkpt>
      <trkpt lat="46.3045" lon="-0.70442">
        <ele>51</ele>
        <time>2011-09-20T14:13:35Z</time>
      </trkpt>
      <trkpt lat="46.30453" lon="-0.70434">
        <ele>51</ele>
        <time>2011-09-20T14:13:40Z</time>
      </trkpt>
      <trkpt lat="46.30456" lon="-0.70426">
        <ele>51</ele>
        <time>2011-09-20T14:13:45Z</time>
      </trkpt>
      <trkpt lat="46.30459" lon="-0.70418">
        <ele>51</ele>
        <time>2011-09-20T14:13:50Z</time>
      </trkpt>
      <trkpt lat="46.30461" lon="-0.70412">
        <ele>51</ele>
        <time>2011-09-20T14:13:55Z</time>
      </trkpt>
      <trkpt lat="46.30466" lon="-0.70406">
        <ele>52</ele>
        <time>2011-09-20T14:14:00Z</time>
      </trkpt>
      <trkpt lat="46.3047" lon="-0.704">
        <ele>52</ele>
        <time>2011-09-20T14:14:05Z</time>
      </trkpt>
      <trkpt lat="46.30473" lon="-0.70393">
        <ele>51</ele>
        <time>2011-09-20T14:14:10Z</time>
      </trkpt>
      <trkpt lat="46.30478" lon="-0.70387">
        <ele>50</ele>
        <time>2011-09-20T14:14:15Z</time>
      </trkpt>
      <trkpt lat="46.30482" lon="-0.70381">
        <ele>51</ele>
        <time>2011-09-20T14:14:20Z</time>
      </trkpt>
      <trkpt lat="46.30487" lon="-0.70374">
        <ele>51</ele>
        <time>2011-09-20T14:14:25Z</time>
      </trkpt>
      <trkpt lat="46.30489" lon="-0.70365">
        <ele>52</ele>
        <time>2011-09-20T14:14:30Z</time>
      </trkpt>
      <trkpt lat="46.30492" lon="-0.70358">
        <ele>53</ele>
        <time>2011-09-20T14:14:35Z</time>
      </trkpt>
      <trkpt lat="46.30495" lon="-0.70351">
        <ele>54</ele>
        <time>2011-09-20T14:14:40Z</time>
      </trkpt>
      <trkpt lat="46.30499" lon="-0.70345">
        <ele>54</ele>
        <time>2011-09-20T14:14:45Z</time>
      </trkpt>
      <trkpt lat="46.30501" lon="-0.70337">
        <ele>54</ele>
        <time>2011-09-20T14:14:50Z</time>
      </trkpt>
      <trkpt lat="46.30504" lon="-0.7033">
        <ele>54</ele>
        <time>2011-09-20T14:14:55Z</time>
      </trkpt>
      <trkpt lat="46.30507" lon="-0.70323">
        <ele>54</ele>
        <time>2011-09-20T14:15:00Z</time>
      </trkpt>
      <trkpt lat="46.30509" lon="-0.70315">
        <ele>53</ele>
        <time>2011-09-20T14:15:05Z</time>
      </trkpt>
      <trkpt lat="46.30512" lon="-0.70307">
        <ele>53</ele>
        <time>2011-09-20T14:15:10Z</time>
      </trkpt>
      <trkpt lat="46.30515" lon="-0.70299">
        <ele>53</ele>
        <time>2011-09-20T14:15:15Z</time>
      </trkpt>
      <trkpt lat="46.30518" lon="-0.70293">
        <ele>53</ele>
        <time>2011-09-20T14:15:20Z</time>
      </trkpt>
      <trkpt lat="46.30521" lon="-0.70284">
        <ele>53</ele>
        <time>2011-09-20T14:15:25Z</time>
      </trkpt>
      <trkpt lat="46.30524" lon="-0.70277">
        <ele>54</ele>
        <time>2011-09-20T14:15:30Z</time>
      </trkpt>
      <trkpt lat="46.30527" lon="-0.70269">
        <ele>54</ele>
        <time>2011-09-20T14:15:35Z</time>
      </trkpt>
      <trkpt lat="46.30531" lon="-0.70263">
        <ele>54</ele>
        <time>2011-09-20T14:15:40Z</time>
      </trkpt>
      <trkpt lat="46.30535" lon="-0.70255">
        <ele>54</ele>
        <time>2011-09-20T14:15:45Z</time>
      </trkpt>
      <trkpt lat="46.30537" lon="-0.70249">
        <ele>52</ele>
        <time>2011-09-20T14:15:50Z</time>
      </trkpt>
      <trkpt lat="46.3054" lon="-0.70242">
        <ele>52</ele>
        <time>2011-09-20T14:15:55Z</time>
      </trkpt>
      <trkpt lat="46.30542" lon="-0.70234">
        <ele>51</ele>
        <time>2011-09-20T14:16:00Z</time>
      </trkpt>
      <trkpt lat="46.30546" lon="-0.70227">
        <ele>51</ele>
        <time>2011-09-20T14:16:05Z</time>
      </trkpt>
      <trkpt lat="46.30548" lon="-0.7022">
        <ele>52</ele>
        <time>2011-09-20T14:16:10Z</time>
      </trkpt>
      <trkpt lat="46.30551" lon="-0.70211">
        <ele>52</ele>
        <time>2011-09-20T14:16:15Z</time>
      </trkpt>
      <trkpt lat="46.30551" lon="-0.70201">
        <ele>53</ele>
        <time>2011-09-20T14:16:20Z</time>
      </trkpt>
      <trkpt lat="46.30553" lon="-0.70192">
        <ele>52</ele>
        <time>2011-09-20T14:16:25Z</time>
      </trkpt>
      <trkpt lat="46.30552" lon="-0.70181">
        <ele>52</ele>
        <time>2011-09-20T14:16:30Z</time>
      </trkpt>
      <trkpt lat="46.30553" lon="-0.70172">
        <ele>54</ele>
        <time>2011-09-20T14:16:35Z</time>
      </trkpt>
      <trkpt lat="46.30557" lon="-0.70165">
        <ele>55</ele>
        <time>2011-09-20T14:16:40Z</time>
      </trkpt>
      <trkpt lat="46.30556" lon="-0.70156">
        <ele>55</ele>
        <time>2011-09-20T14:16:45Z</time>
      </trkpt>
      <trkpt lat="46.30557" lon="-0.70147">
        <ele>55</ele>
        <time>2011-09-20T14:16:50Z</time>
      </trkpt>
      <trkpt lat="46.30558" lon="-0.7014">
        <ele>54</ele>
        <time>2011-09-20T14:16:55Z</time>
      </trkpt>
      <trkpt lat="46.30559" lon="-0.7013">
        <ele>53</ele>
        <time>2011-09-20T14:17:00Z</time>
      </trkpt>
      <trkpt lat="46.3056" lon="-0.70122">
        <ele>53</ele>
        <time>2011-09-20T14:17:05Z</time>
      </trkpt>
      <trkpt lat="46.30562" lon="-0.70114">
        <ele>52</ele>
        <time>2011-09-20T14:17:10Z</time>
      </trkpt>
      <trkpt lat="46.30562" lon="-0.70105">
        <ele>54</ele>
        <time>2011-09-20T14:17:15Z</time>
      </trkpt>
      <trkpt lat="46.30562" lon="-0.70097">
        <ele>53</ele>
        <time>2011-09-20T14:17:20Z</time>
      </trkpt>
      <trkpt lat="46.30565" lon="-0.7009">
        <ele>52</ele>
        <time>2011-09-20T14:17:25Z</time>
      </trkpt>
      <trkpt lat="46.30567" lon="-0.70081">
        <ele>51</ele>
        <time>2011-09-20T14:17:30Z</time>
      </trkpt>
      <trkpt lat="46.30567" lon="-0.70073">
        <ele>52</ele>
        <time>2011-09-20T14:17:35Z</time>
      </trkpt>
      <trkpt lat="46.30568" lon="-0.70065">
        <ele>50</ele>
        <time>2011-09-20T14:17:40Z</time>
      </trkpt>
      <trkpt lat="46.30569" lon="-0.70056">
        <ele>49</ele>
        <time>2011-09-20T14:17:45Z</time>
      </trkpt>
      <trkpt lat="46.30571" lon="-0.70046">
        <ele>50</ele>
        <time>2011-09-20T14:17:50Z</time>
      </trkpt>
      <trkpt lat="46.30573" lon="-0.70037">
        <ele>48</ele>
        <time>2011-09-20T14:17:55Z</time>
      </trkpt>
      <trkpt lat="46.30574" lon="-0.70029">
        <ele>48</ele>
        <time>2011-09-20T14:18:00Z</time>
      </trkpt>
      <trkpt lat="46.30576" lon="-0.7002">
        <ele>47</ele>
        <time>2011-09-20T14:18:05Z</time>
      </trkpt>
      <trkpt lat="46.30576" lon="-0.70012">
        <ele>47</ele>
        <time>2011-09-20T14:18:10Z</time>
      </trkpt>
      <trkpt lat="46.30577" lon="-0.70002">
        <ele>46</ele>
        <time>2011-09-20T14:18:15Z</time>
      </trkpt>
      <trkpt lat="46.3058" lon="-0.69994">
        <ele>48</ele>
        <time>2011-09-20T14:18:20Z</time>
      </trkpt>
      <trkpt lat="46.30581" lon="-0.69986">
        <ele>49</ele>
        <time>2011-09-20T14:18:25Z</time>
      </trkpt>
      <trkpt lat="46.30583" lon="-0.69978">
        <ele>49</ele>
        <time>2011-09-20T14:18:30Z</time>
      </trkpt>
      <trkpt lat="46.30584" lon="-0.69972">
        <ele>49</ele>
        <time>2011-09-20T14:18:35Z</time>
      </trkpt>
      <trkpt lat="46.30586" lon="-0.69963">
        <ele>48</ele>
        <time>2011-09-20T14:18:40Z</time>
      </trkpt>
      <trkpt lat="46.30587" lon="-0.69954">
        <ele>50</ele>
        <time>2011-09-20T14:18:45Z</time>
      </trkpt>
      <trkpt lat="46.30589" lon="-0.69946">
        <ele>50</ele>
        <time>2011-09-20T14:18:50Z</time>
      </trkpt>
      <trkpt lat="46.30591" lon="-0.69937">
        <ele>51</ele>
        <time>2011-09-20T14:18:55Z</time>
      </trkpt>
      <trkpt lat="46.30591" lon="-0.69929">
        <ele>51</ele>
        <time>2011-09-20T14:19:00Z</time>
      </trkpt>
      <trkpt lat="46.30594" lon="-0.69923">
        <ele>50</ele>
        <time>2011-09-20T14:19:05Z</time>
      </trkpt>
      <trkpt lat="46.30596" lon="-0.69914">
        <ele>48</ele>
        <time>2011-09-20T14:19:10Z</time>
      </trkpt>
      <trkpt lat="46.30597" lon="-0.69906">
        <ele>49</ele>
        <time>2011-09-20T14:19:15Z</time>
      </trkpt>
      <trkpt lat="46.30598" lon="-0.69898">
        <ele>47</ele>
        <time>2011-09-20T14:19:20Z</time>
      </trkpt>
      <trkpt lat="46.30598" lon="-0.6989">
        <ele>46</ele>
        <time>2011-09-20T14:19:25Z</time>
      </trkpt>
      <trkpt lat="46.306" lon="-0.69882">
        <ele>44</ele>
        <time>2011-09-20T14:19:30Z</time>
      </trkpt>
      <trkpt lat="46.30601" lon="-0.69873">
        <ele>47</ele>
        <time>2011-09-20T14:19:35Z</time>
      </trkpt>
      <trkpt lat="46.30601" lon="-0.69863">
        <ele>49</ele>
        <time>2011-09-20T14:19:40Z</time>
      </trkpt>
      <trkpt lat="46.30602" lon="-0.69854">
        <ele>49</ele>
        <time>2011-09-20T14:19:45Z</time>
      </trkpt>
      <trkpt lat="46.30605" lon="-0.69846">
        <ele>47</ele>
        <time>2011-09-20T14:19:50Z</time>
      </trkpt>
      <trkpt lat="46.30606" lon="-0.69838">
        <ele>46</ele>
        <time>2011-09-20T14:19:55Z</time>
      </trkpt>
      <trkpt lat="46.30606" lon="-0.69829">
        <ele>47</ele>
        <time>2011-09-20T14:20:00Z</time>
      </trkpt>
      <trkpt lat="46.30609" lon="-0.69821">
        <ele>46</ele>
        <time>2011-09-20T14:20:05Z</time>
      </trkpt>
      <trkpt lat="46.3061" lon="-0.69813">
        <ele>47</ele>
        <time>2011-09-20T14:20:10Z</time>
      </trkpt>
      <trkpt lat="46.30612" lon="-0.69806">
        <ele>45</ele>
        <time>2011-09-20T14:20:15Z</time>
      </trkpt>
      <trkpt lat="46.30613" lon="-0.69795">
        <ele>45</ele>
        <time>2011-09-20T14:20:20Z</time>
      </trkpt>
      <trkpt lat="46.30615" lon="-0.69788">
        <ele>46</ele>
        <time>2011-09-20T14:20:25Z</time>
      </trkpt>
      <trkpt lat="46.30617" lon="-0.69781">
        <ele>46</ele>
        <time>2011-09-20T14:20:30Z</time>
      </trkpt>
      <trkpt lat="46.30619" lon="-0.69772">
        <ele>46</ele>
        <time>2011-09-20T14:20:35Z</time>
      </trkpt>
      <trkpt lat="46.3062" lon="-0.69765">
        <ele>48</ele>
        <time>2011-09-20T14:20:40Z</time>
      </trkpt>
      <trkpt lat="46.30624" lon="-0.69759">
        <ele>48</ele>
        <time>2011-09-20T14:20:45Z</time>
      </trkpt>
      <trkpt lat="46.30627" lon="-0.69751">
        <ele>50</ele>
        <time>2011-09-20T14:20:50Z</time>
      </trkpt>
      <trkpt lat="46.30631" lon="-0.69744">
        <ele>50</ele>
        <time>2011-09-20T14:20:55Z</time>
      </trkpt>
      <trkpt lat="46.30635" lon="-0.69739">
        <ele>50</ele>
        <time>2011-09-20T14:21:00Z</time>
      </trkpt>
      <trkpt lat="46.30639" lon="-0.69734">
        <ele>51</ele>
        <time>2011-09-20T14:21:05Z</time>
      </trkpt>
      <trkpt lat="46.30644" lon="-0.69729">
        <ele>51</ele>
        <time>2011-09-20T14:21:10Z</time>
      </trkpt>
      <trkpt lat="46.30648" lon="-0.69722">
        <ele>52</ele>
        <time>2011-09-20T14:21:15Z</time>
      </trkpt>
      <trkpt lat="46.30651" lon="-0.69717">
        <ele>52</ele>
        <time>2011-09-20T14:21:20Z</time>
      </trkpt>
      <trkpt lat="46.30655" lon="-0.69711">
        <ele>52</ele>
        <time>2011-09-20T14:21:25Z</time>
      </trkpt>
      <trkpt lat="46.30662" lon="-0.69708">
        <ele>52</ele>
        <time>2011-09-20T14:21:30Z</time>
      </trkpt>
      <trkpt lat="46.30665" lon="-0.69703">
        <ele>51</ele>
        <time>2011-09-20T14:21:35Z</time>
      </trkpt>
      <trkpt lat="46.30672" lon="-0.697">
        <ele>50</ele>
        <time>2011-09-20T14:21:40Z</time>
      </trkpt>
      <trkpt lat="46.30677" lon="-0.69697">
        <ele>50</ele>
        <time>2011-09-20T14:21:45Z</time>
      </trkpt>
      <trkpt lat="46.30682" lon="-0.69692">
        <ele>54</ele>
        <time>2011-09-20T14:21:50Z</time>
      </trkpt>
      <trkpt lat="46.30687" lon="-0.69687">
        <ele>55</ele>
        <time>2011-09-20T14:21:55Z</time>
      </trkpt>
      <trkpt lat="46.30692" lon="-0.69683">
        <ele>55</ele>
        <time>2011-09-20T14:22:00Z</time>
      </trkpt>
      <trkpt lat="46.30697" lon="-0.69678">
        <ele>56</ele>
        <time>2011-09-20T14:22:05Z</time>
      </trkpt>
      <trkpt lat="46.30701" lon="-0.69673">
        <ele>59</ele>
        <time>2011-09-20T14:22:10Z</time>
      </trkpt>
      <trkpt lat="46.30706" lon="-0.69668">
        <ele>57</ele>
        <time>2011-09-20T14:22:15Z</time>
      </trkpt>
      <trkpt lat="46.30712" lon="-0.69664">
        <ele>58</ele>
        <time>2011-09-20T14:22:20Z</time>
      </trkpt>
      <trkpt lat="46.30714" lon="-0.69658">
        <ele>54</ele>
        <time>2011-09-20T14:22:25Z</time>
      </trkpt>
      <trkpt lat="46.3072" lon="-0.69653">
        <ele>54</ele>
        <time>2011-09-20T14:22:30Z</time>
      </trkpt>
      <trkpt lat="46.30726" lon="-0.69648">
        <ele>54</ele>
        <time>2011-09-20T14:22:35Z</time>
      </trkpt>
      <trkpt lat="46.3073" lon="-0.69643">
        <ele>54</ele>
        <time>2011-09-20T14:22:40Z</time>
      </trkpt>
      <trkpt lat="46.30734" lon="-0.69638">
        <ele>53</ele>
        <time>2011-09-20T14:22:45Z</time>
      </trkpt>
      <trkpt lat="46.30739" lon="-0.69632">
        <ele>54</ele>
        <time>2011-09-20T14:22:50Z</time>
      </trkpt>
      <trkpt lat="46.30743" lon="-0.69626">
        <ele>55</ele>
        <time>2011-09-20T14:22:55Z</time>
      </trkpt>
      <trkpt lat="46.30747" lon="-0.6962">
        <ele>54</ele>
        <time>2011-09-20T14:23:00Z</time>
      </trkpt>
      <trkpt lat="46.30751" lon="-0.69614">
        <ele>55</ele>
        <time>2011-09-20T14:23:05Z</time>
      </trkpt>
      <trkpt lat="46.30757" lon="-0.69609">
        <ele>53</ele>
        <time>2011-09-20T14:23:10Z</time>
      </trkpt>
      <trkpt lat="46.30761" lon="-0.69601">
        <ele>53</ele>
        <time>2011-09-20T14:23:15Z</time>
      </trkpt>
      <trkpt lat="46.30765" lon="-0.69596">
        <ele>52</ele>
        <time>2011-09-20T14:23:20Z</time>
      </trkpt>
      <trkpt lat="46.30771" lon="-0.69591">
        <ele>52</ele>
        <time>2011-09-20T14:23:25Z</time>
      </trkpt>
      <trkpt lat="46.30775" lon="-0.69585">
        <ele>52</ele>
        <time>2011-09-20T14:23:30Z</time>
      </trkpt>
      <trkpt lat="46.3078" lon="-0.69578">
        <ele>53</ele>
        <time>2011-09-20T14:23:35Z</time>
      </trkpt>
      <trkpt lat="46.30783" lon="-0.69573">
        <ele>53</ele>
        <time>2011-09-20T14:23:40Z</time>
      </trkpt>
      <trkpt lat="46.30788" lon="-0.69565">
        <ele>52</ele>
        <time>2011-09-20T14:23:45Z</time>
      </trkpt>
      <trkpt lat="46.30794" lon="-0.69559">
        <ele>52</ele>
        <time>2011-09-20T14:23:50Z</time>
      </trkpt>
      <trkpt lat="46.308" lon="-0.69556">
        <ele>52</ele>
        <time>2011-09-20T14:23:55Z</time>
      </trkpt>
      <trkpt lat="46.30803" lon="-0.6955">
        <ele>49</ele>
        <time>2011-09-20T14:24:00Z</time>
      </trkpt>
      <trkpt lat="46.3081" lon="-0.69546">
        <ele>51</ele>
        <time>2011-09-20T14:24:05Z</time>
      </trkpt>
      <trkpt lat="46.30813" lon="-0.69538">
        <ele>53</ele>
        <time>2011-09-20T14:24:10Z</time>
      </trkpt>
      <trkpt lat="46.30817" lon="-0.6953">
        <ele>54</ele>
        <time>2011-09-20T14:24:15Z</time>
      </trkpt>
      <trkpt lat="46.3082" lon="-0.69523">
        <ele>55</ele>
        <time>2011-09-20T14:24:20Z</time>
      </trkpt>
      <trkpt lat="46.30825" lon="-0.69517">
        <ele>56</ele>
        <time>2011-09-20T14:24:25Z</time>
      </trkpt>
      <trkpt lat="46.30828" lon="-0.69511">
        <ele>53</ele>
        <time>2011-09-20T14:24:30Z</time>
      </trkpt>
      <trkpt lat="46.30832" lon="-0.69504">
        <ele>53</ele>
        <time>2011-09-20T14:24:35Z</time>
      </trkpt>
      <trkpt lat="46.30835" lon="-0.69497">
        <ele>50</ele>
        <time>2011-09-20T14:24:40Z</time>
      </trkpt>
      <trkpt lat="46.3084" lon="-0.69489">
        <ele>51</ele>
        <time>2011-09-20T14:24:45Z</time>
      </trkpt>
      <trkpt lat="46.30844" lon="-0.69483">
        <ele>53</ele>
        <time>2011-09-20T14:24:50Z</time>
      </trkpt>
      <trkpt lat="46.30847" lon="-0.69478">
        <ele>54</ele>
        <time>2011-09-20T14:24:55Z</time>
      </trkpt>
      <trkpt lat="46.30854" lon="-0.69475">
        <ele>55</ele>
        <time>2011-09-20T14:25:00Z</time>
      </trkpt>
      <trkpt lat="46.30857" lon="-0.69471">
        <ele>55</ele>
        <time>2011-09-20T14:25:05Z</time>
      </trkpt>
      <trkpt lat="46.30863" lon="-0.69465">
        <ele>56</ele>
        <time>2011-09-20T14:25:10Z</time>
      </trkpt>
      <trkpt lat="46.30867" lon="-0.69458">
        <ele>58</ele>
        <time>2011-09-20T14:25:15Z</time>
      </trkpt>
      <trkpt lat="46.3087" lon="-0.69452">
        <ele>56</ele>
        <time>2011-09-20T14:25:20Z</time>
      </trkpt>
      <trkpt lat="46.30875" lon="-0.69448">
        <ele>56</ele>
        <time>2011-09-20T14:25:25Z</time>
      </trkpt>
      <trkpt lat="46.30879" lon="-0.69449">
        <ele>56</ele>
        <time>2011-09-20T14:25:30Z</time>
      </trkpt>
      <trkpt lat="46.3088" lon="-0.6945">
        <ele>55</ele>
        <time>2011-09-20T14:25:35Z</time>
      </trkpt>
      <trkpt lat="46.30878" lon="-0.69452">
        <ele>56</ele>
        <time>2011-09-20T14:25:40Z</time>
      </trkpt>
      <trkpt lat="46.30877" lon="-0.69452">
        <ele>55</ele>
        <time>2011-09-20T14:25:45Z</time>
      </trkpt>
      <trkpt lat="46.30877" lon="-0.69451">
        <ele>55</ele>
        <time>2011-09-20T14:26:10Z</time>
      </trkpt>
      <trkpt lat="46.30877" lon="-0.69453">
        <ele>57</ele>
        <time>2011-09-20T14:27:20Z</time>
      </trkpt>
      <trkpt lat="46.30877" lon="-0.69455">
        <ele>58</ele>
        <time>2011-09-20T14:27:25Z</time>
      </trkpt>
      <trkpt lat="46.30878" lon="-0.69457">
        <ele>58</ele>
        <time>2011-09-20T14:27:30Z</time>
      </trkpt>
      <trkpt lat="46.30878" lon="-0.69456">
        <ele>57</ele>
        <time>2011-09-20T14:27:35Z</time>
      </trkpt>
      <trkpt lat="46.30878" lon="-0.69457">
        <ele>58</ele>
        <time>2011-09-20T14:27:40Z</time>
      </trkpt>
      <trkpt lat="46.30879" lon="-0.69458">
        <ele>59</ele>
        <time>2011-09-20T14:27:45Z</time>
      </trkpt>
      <trkpt lat="46.30878" lon="-0.69455">
        <ele>57</ele>
        <time>2011-09-20T14:27:55Z</time>
      </trkpt>
      <trkpt lat="46.30878" lon="-0.69453">
        <ele>57</ele>
        <time>2011-09-20T14:28:00Z</time>
      </trkpt>
      <trkpt lat="46.30879" lon="-0.69453">
        <ele>57</ele>
        <time>2011-09-20T14:28:05Z</time>
      </trkpt>
      <trkpt lat="46.30878" lon="-0.69452">
        <ele>56</ele>
        <time>2011-09-20T14:29:05Z</time>
      </trkpt>
      <trkpt lat="46.30877" lon="-0.69453">
        <ele>55</ele>
        <time>2011-09-20T14:29:10Z</time>
      </trkpt>
      <trkpt lat="46.30878" lon="-0.69455">
        <ele>55</ele>
        <time>2011-09-20T14:29:15Z</time>
      </trkpt>
      <trkpt lat="46.3088" lon="-0.69456">
        <ele>57</ele>
        <time>2011-09-20T14:29:20Z</time>
      </trkpt>
      <trkpt lat="46.30881" lon="-0.69456">
        <ele>58</ele>
        <time>2011-09-20T14:29:25Z</time>
      </trkpt>
      <trkpt lat="46.30878" lon="-0.69457">
        <ele>56</ele>
        <time>2011-09-20T14:29:30Z</time>
      </trkpt>
      <trkpt lat="46.30875" lon="-0.69457">
        <ele>54</ele>
        <time>2011-09-20T14:29:35Z</time>
      </trkpt>
      <trkpt lat="46.30874" lon="-0.69457">
        <ele>54</ele>
        <time>2011-09-20T14:29:40Z</time>
      </trkpt>
      <trkpt lat="46.30879" lon="-0.69457">
        <ele>51</ele>
        <time>2011-09-20T14:29:55Z</time>
      </trkpt>
      <trkpt lat="46.30877" lon="-0.69454">
        <ele>46</ele>
        <time>2011-09-20T14:30:00Z</time>
      </trkpt>
      <trkpt lat="46.30876" lon="-0.69452">
        <ele>45</ele>
        <time>2011-09-20T14:30:05Z</time>
      </trkpt>
      <trkpt lat="46.30876" lon="-0.69452">
        <ele>45</ele>
        <time>2011-09-20T14:30:10Z</time>
      </trkpt>
      <trkpt lat="46.30876" lon="-0.69451">
        <ele>44</ele>
        <time>2011-09-20T14:30:35Z</time>
      </trkpt>
      <trkpt lat="46.30876" lon="-0.6945">
        <ele>46</ele>
        <time>2011-09-20T14:30:40Z</time>
      </trkpt>
      <trkpt lat="46.30876" lon="-0.69449">
        <ele>46</ele>
        <time>2011-09-20T14:30:45Z</time>
      </trkpt>
      <trkpt lat="46.30878" lon="-0.69454">
        <ele>45</ele>
        <time>2011-09-20T14:30:50Z</time>
      </trkpt>
      <trkpt lat="46.30885" lon="-0.6946">
        <ele>41</ele>
        <time>2011-09-20T14:30:55Z</time>
      </trkpt>
      <trkpt lat="46.30885" lon="-0.69461">
        <ele>40</ele>
        <time>2011-09-20T14:31:00Z</time>
      </trkpt>
      <trkpt lat="46.30884" lon="-0.6946">
        <ele>39</ele>
        <time>2011-09-20T14:31:05Z</time>
      </trkpt>
      <trkpt lat="46.30883" lon="-0.6946">
        <ele>39</ele>
        <time>2011-09-20T14:31:10Z</time>
      </trkpt>
      <trkpt lat="46.30884" lon="-0.6946">
        <ele>40</ele>
        <time>2011-09-20T14:31:30Z</time>
      </trkpt>
      <trkpt lat="46.30883" lon="-0.69463">
        <ele>40</ele>
        <time>2011-09-20T14:31:35Z</time>
      </trkpt>
      <trkpt lat="46.30881" lon="-0.69465">
        <ele>41</ele>
        <time>2011-09-20T14:31:40Z</time>
      </trkpt>
      <trkpt lat="46.30881" lon="-0.69464">
        <ele>41</ele>
        <time>2011-09-20T14:31:50Z</time>
      </trkpt>
      <trkpt lat="46.3088" lon="-0.69462">
        <ele>44</ele>
        <time>2011-09-20T14:31:55Z</time>
      </trkpt>
      <trkpt lat="46.30881" lon="-0.69463">
        <ele>44</ele>
        <time>2011-09-20T14:32:00Z</time>
      </trkpt>
      <trkpt lat="46.30882" lon="-0.69456">
        <ele>48</ele>
        <time>2011-09-20T14:32:05Z</time>
      </trkpt>
      <trkpt lat="46.30878" lon="-0.69451">
        <ele>49</ele>
        <time>2011-09-20T14:32:10Z</time>
      </trkpt>
      <trkpt lat="46.30881" lon="-0.69445">
        <ele>52</ele>
        <time>2011-09-20T14:32:15Z</time>
      </trkpt>
      <trkpt lat="46.30882" lon="-0.69439">
        <ele>53</ele>
        <time>2011-09-20T14:32:20Z</time>
      </trkpt>
      <trkpt lat="46.30885" lon="-0.69436">
        <ele>55</ele>
        <time>2011-09-20T14:32:25Z</time>
      </trkpt>
      <trkpt lat="46.30886" lon="-0.69432">
        <ele>53</ele>
        <time>2011-09-20T14:32:30Z</time>
      </trkpt>
      <trkpt lat="46.30888" lon="-0.69429">
        <ele>54</ele>
        <time>2011-09-20T14:32:35Z</time>
      </trkpt>
      <trkpt lat="46.30889" lon="-0.6943">
        <ele>55</ele>
        <time>2011-09-20T14:32:40Z</time>
      </trkpt>
      <trkpt lat="46.30888" lon="-0.69429">
        <ele>55</ele>
        <time>2011-09-20T14:32:45Z</time>
      </trkpt>
      <trkpt lat="46.30889" lon="-0.69427">
        <ele>56</ele>
        <time>2011-09-20T14:33:00Z</time>
      </trkpt>
      <trkpt lat="46.30889" lon="-0.69425">
        <ele>56</ele>
        <time>2011-09-20T14:33:05Z</time>
      </trkpt>
      <trkpt lat="46.30888" lon="-0.69426">
        <ele>56</ele>
        <time>2011-09-20T14:33:10Z</time>
      </trkpt>
      <trkpt lat="46.30889" lon="-0.69425">
        <ele>56</ele>
        <time>2011-09-20T14:33:15Z</time>
      </trkpt>
      <trkpt lat="46.30889" lon="-0.69425">
        <ele>55</ele>
        <time>2011-09-20T14:33:20Z</time>
      </trkpt>
      <trkpt lat="46.30889" lon="-0.69424">
        <ele>55</ele>
        <time>2011-09-20T14:33:25Z</time>
      </trkpt>
      <trkpt lat="46.30889" lon="-0.69424">
        <ele>55</ele>
        <time>2011-09-20T14:33:35Z</time>
      </trkpt>
      <trkpt lat="46.30886" lon="-0.69423">
        <ele>55</ele>
        <time>2011-09-20T14:33:45Z</time>
      </trkpt>
      <trkpt lat="46.30886" lon="-0.69423">
        <ele>55</ele>
        <time>2011-09-20T14:33:50Z</time>
      </trkpt>
      <trkpt lat="46.30885" lon="-0.69421">
        <ele>54</ele>
        <time>2011-09-20T14:33:55Z</time>
      </trkpt>
      <trkpt lat="46.30882" lon="-0.69423">
        <ele>53</ele>
        <time>2011-09-20T14:34:10Z</time>
      </trkpt>
      <trkpt lat="46.30882" lon="-0.69426">
        <ele>52</ele>
        <time>2011-09-20T14:34:15Z</time>
      </trkpt>
      <trkpt lat="46.30881" lon="-0.69425">
        <ele>54</ele>
        <time>2011-09-20T14:34:20Z</time>
      </trkpt>
      <trkpt lat="46.3088" lon="-0.69425">
        <ele>54</ele>
        <time>2011-09-20T14:34:25Z</time>
      </trkpt>
      <trkpt lat="46.30879" lon="-0.69425">
        <ele>54</ele>
        <time>2011-09-20T14:34:30Z</time>
      </trkpt>
      <trkpt lat="46.30879" lon="-0.69425">
        <ele>54</ele>
        <time>2011-09-20T14:35:15Z</time>
      </trkpt>
      <trkpt lat="46.30879" lon="-0.69425">
        <ele>54</ele>
        <time>2011-09-20T14:35:20Z</time>
      </trkpt>
      <trkpt lat="46.3088" lon="-0.69425">
        <ele>51</ele>
        <time>2011-09-20T14:35:25Z</time>
      </trkpt>
      <trkpt lat="46.30881" lon="-0.69424">
        <ele>51</ele>
        <time>2011-09-20T14:35:30Z</time>
      </trkpt>
      <trkpt lat="46.30881" lon="-0.69423">
        <ele>50</ele>
        <time>2011-09-20T14:35:35Z</time>
      </trkpt>
      <trkpt lat="46.30881" lon="-0.69424">
        <ele>52</ele>
        <time>2011-09-20T14:36:00Z</time>
      </trkpt>
      <trkpt lat="46.30882" lon="-0.69422">
        <ele>52</ele>
        <time>2011-09-20T14:36:20Z</time>
      </trkpt>
      <trkpt lat="46.30884" lon="-0.6942">
        <ele>53</ele>
        <time>2011-09-20T14:36:25Z</time>
      </trkpt>
      <trkpt lat="46.30884" lon="-0.69421">
        <ele>52</ele>
        <time>2011-09-20T14:36:30Z</time>
      </trkpt>
      <trkpt lat="46.30884" lon="-0.69423">
        <ele>52</ele>
        <time>2011-09-20T14:36:35Z</time>
      </trkpt>
      <trkpt lat="46.30881" lon="-0.69423">
        <ele>53</ele>
        <time>2011-09-20T14:36:40Z</time>
      </trkpt>
      <trkpt lat="46.3088" lon="-0.69423">
        <ele>52</ele>
        <time>2011-09-20T14:36:45Z</time>
      </trkpt>
      <trkpt lat="46.30882" lon="-0.69423">
        <ele>54</ele>
        <time>2011-09-20T14:36:50Z</time>
      </trkpt>
      <trkpt lat="46.30881" lon="-0.69421">
        <ele>54</ele>
        <time>2011-09-20T14:36:55Z</time>
      </trkpt>
      <trkpt lat="46.30884" lon="-0.69423">
        <ele>55</ele>
        <time>2011-09-20T14:37:00Z</time>
      </trkpt>
      <trkpt lat="46.30888" lon="-0.69425">
        <ele>58</ele>
        <time>2011-09-20T14:37:05Z</time>
      </trkpt>
      <trkpt lat="46.30889" lon="-0.69424">
        <ele>58</ele>
        <time>2011-09-20T14:37:10Z</time>
      </trkpt>
      <trkpt lat="46.30887" lon="-0.69422">
        <ele>54</ele>
        <time>2011-09-20T14:37:15Z</time>
      </trkpt>
      <trkpt lat="46.30887" lon="-0.69423">
        <ele>53</ele>
        <time>2011-09-20T14:37:20Z</time>
      </trkpt>
      <trkpt lat="46.30885" lon="-0.69423">
        <ele>53</ele>
        <time>2011-09-20T14:37:30Z</time>
      </trkpt>
      <trkpt lat="46.30881" lon="-0.69421">
        <ele>54</ele>
        <time>2011-09-20T14:37:35Z</time>
      </trkpt>
      <trkpt lat="46.30881" lon="-0.69421">
        <ele>53</ele>
        <time>2011-09-20T14:37:40Z</time>
      </trkpt>
      <trkpt lat="46.30882" lon="-0.69421">
        <ele>54</ele>
        <time>2011-09-20T14:37:45Z</time>
      </trkpt>
      <trkpt lat="46.30881" lon="-0.69421">
        <ele>54</ele>
        <time>2011-09-20T14:38:10Z</time>
      </trkpt>
      <trkpt lat="46.30879" lon="-0.69424">
        <ele>52</ele>
        <time>2011-09-20T14:38:15Z</time>
      </trkpt>
      <trkpt lat="46.30881" lon="-0.69423">
        <ele>53</ele>
        <time>2011-09-20T14:38:20Z</time>
      </trkpt>
      <trkpt lat="46.30881" lon="-0.69424">
        <ele>53</ele>
        <time>2011-09-20T14:38:25Z</time>
      </trkpt>
      <trkpt lat="46.30882" lon="-0.69424">
        <ele>54</ele>
        <time>2011-09-20T14:38:35Z</time>
      </trkpt>
      <trkpt lat="46.30882" lon="-0.69425">
        <ele>55</ele>
        <time>2011-09-20T14:38:40Z</time>
      </trkpt>
      <trkpt lat="46.30882" lon="-0.69424">
        <ele>54</ele>
        <time>2011-09-20T14:38:45Z</time>
      </trkpt>
      <trkpt lat="46.30877" lon="-0.69426">
        <ele>53</ele>
        <time>2011-09-20T14:38:50Z</time>
      </trkpt>
      <trkpt lat="46.30883" lon="-0.69425">
        <ele>54</ele>
        <time>2011-09-20T14:39:05Z</time>
      </trkpt>
      <trkpt lat="46.30884" lon="-0.69421">
        <ele>54</ele>
        <time>2011-09-20T14:39:10Z</time>
      </trkpt>
      <trkpt lat="46.3089" lon="-0.69418">
        <ele>56</ele>
        <time>2011-09-20T14:39:15Z</time>
      </trkpt>
      <trkpt lat="46.3089" lon="-0.69416">
        <ele>57</ele>
        <time>2011-09-20T14:39:20Z</time>
      </trkpt>
      <trkpt lat="46.3089" lon="-0.69414">
        <ele>57</ele>
        <time>2011-09-20T14:39:25Z</time>
      </trkpt>
      <trkpt lat="46.30891" lon="-0.69408">
        <ele>57</ele>
        <time>2011-09-20T14:39:30Z</time>
      </trkpt>
      <trkpt lat="46.30891" lon="-0.69407">
        <ele>56</ele>
        <time>2011-09-20T14:39:35Z</time>
      </trkpt>
      <trkpt lat="46.30896" lon="-0.69406">
        <ele>55</ele>
        <time>2011-09-20T14:39:45Z</time>
      </trkpt>
      <trkpt lat="46.309" lon="-0.69403">
        <ele>55</ele>
        <time>2011-09-20T14:39:50Z</time>
      </trkpt>
      <trkpt lat="46.30906" lon="-0.69399">
        <ele>55</ele>
        <time>2011-09-20T14:39:55Z</time>
      </trkpt>
      <trkpt lat="46.30912" lon="-0.69396">
        <ele>58</ele>
        <time>2011-09-20T14:40:00Z</time>
      </trkpt>
      <trkpt lat="46.30913" lon="-0.69388">
        <ele>59</ele>
        <time>2011-09-20T14:40:05Z</time>
      </trkpt>
      <trkpt lat="46.30916" lon="-0.69383">
        <ele>60</ele>
        <time>2011-09-20T14:40:10Z</time>
      </trkpt>
      <trkpt lat="46.3092" lon="-0.6938">
        <ele>61</ele>
        <time>2011-09-20T14:40:15Z</time>
      </trkpt>
      <trkpt lat="46.3092" lon="-0.69373">
        <ele>60</ele>
        <time>2011-09-20T14:40:20Z</time>
      </trkpt>
      <trkpt lat="46.30923" lon="-0.69367">
        <ele>60</ele>
        <time>2011-09-20T14:40:25Z</time>
      </trkpt>
      <trkpt lat="46.30926" lon="-0.69362">
        <ele>59</ele>
        <time>2011-09-20T14:40:30Z</time>
      </trkpt>
      <trkpt lat="46.3093" lon="-0.69358">
        <ele>58</ele>
        <time>2011-09-20T14:40:35Z</time>
      </trkpt>
      <trkpt lat="46.30931" lon="-0.69349">
        <ele>58</ele>
        <time>2011-09-20T14:40:40Z</time>
      </trkpt>
      <trkpt lat="46.30931" lon="-0.69342">
        <ele>57</ele>
        <time>2011-09-20T14:40:45Z</time>
      </trkpt>
      <trkpt lat="46.30931" lon="-0.69334">
        <ele>57</ele>
        <time>2011-09-20T14:40:50Z</time>
      </trkpt>
      <trkpt lat="46.30933" lon="-0.69328">
        <ele>58</ele>
        <time>2011-09-20T14:40:55Z</time>
      </trkpt>
      <trkpt lat="46.30933" lon="-0.69322">
        <ele>58</ele>
        <time>2011-09-20T14:41:00Z</time>
      </trkpt>
      <trkpt lat="46.30934" lon="-0.69314">
        <ele>57</ele>
        <time>2011-09-20T14:41:05Z</time>
      </trkpt>
      <trkpt lat="46.30937" lon="-0.69306">
        <ele>57</ele>
        <time>2011-09-20T14:41:10Z</time>
      </trkpt>
      <trkpt lat="46.30938" lon="-0.69299">
        <ele>56</ele>
        <time>2011-09-20T14:41:15Z</time>
      </trkpt>
      <trkpt lat="46.3094" lon="-0.6929">
        <ele>54</ele>
        <time>2011-09-20T14:41:20Z</time>
      </trkpt>
      <trkpt lat="46.3094" lon="-0.69282">
        <ele>54</ele>
        <time>2011-09-20T14:41:25Z</time>
      </trkpt>
      <trkpt lat="46.30941" lon="-0.69274">
        <ele>56</ele>
        <time>2011-09-20T14:41:30Z</time>
      </trkpt>
      <trkpt lat="46.30941" lon="-0.69266">
        <ele>56</ele>
        <time>2011-09-20T14:41:35Z</time>
      </trkpt>
      <trkpt lat="46.3094" lon="-0.69258">
        <ele>55</ele>
        <time>2011-09-20T14:41:40Z</time>
      </trkpt>
      <trkpt lat="46.30938" lon="-0.69248">
        <ele>55</ele>
        <time>2011-09-20T14:41:45Z</time>
      </trkpt>
      <trkpt lat="46.30938" lon="-0.69239">
        <ele>56</ele>
        <time>2011-09-20T14:41:50Z</time>
      </trkpt>
      <trkpt lat="46.30937" lon="-0.69229">
        <ele>53</ele>
        <time>2011-09-20T14:41:55Z</time>
      </trkpt>
      <trkpt lat="46.30937" lon="-0.69222">
        <ele>54</ele>
        <time>2011-09-20T14:42:00Z</time>
      </trkpt>
      <trkpt lat="46.30935" lon="-0.69213">
        <ele>55</ele>
        <time>2011-09-20T14:42:05Z</time>
      </trkpt>
      <trkpt lat="46.30933" lon="-0.69204">
        <ele>56</ele>
        <time>2011-09-20T14:42:10Z</time>
      </trkpt>
      <trkpt lat="46.30932" lon="-0.69196">
        <ele>56</ele>
        <time>2011-09-20T14:42:15Z</time>
      </trkpt>
      <trkpt lat="46.30931" lon="-0.69191">
        <ele>56</ele>
        <time>2011-09-20T14:42:20Z</time>
      </trkpt>
      <trkpt lat="46.30928" lon="-0.69182">
        <ele>55</ele>
        <time>2011-09-20T14:42:25Z</time>
      </trkpt>
      <trkpt lat="46.30926" lon="-0.69173">
        <ele>53</ele>
        <time>2011-09-20T14:42:30Z</time>
      </trkpt>
      <trkpt lat="46.30923" lon="-0.69166">
        <ele>54</ele>
        <time>2011-09-20T14:42:35Z</time>
      </trkpt>
      <trkpt lat="46.30922" lon="-0.69158">
        <ele>55</ele>
        <time>2011-09-20T14:42:40Z</time>
      </trkpt>
      <trkpt lat="46.30921" lon="-0.69148">
        <ele>54</ele>
        <time>2011-09-20T14:42:45Z</time>
      </trkpt>
      <trkpt lat="46.30919" lon="-0.69141">
        <ele>54</ele>
        <time>2011-09-20T14:42:50Z</time>
      </trkpt>
      <trkpt lat="46.30916" lon="-0.69136">
        <ele>52</ele>
        <time>2011-09-20T14:42:55Z</time>
      </trkpt>
      <trkpt lat="46.30913" lon="-0.69128">
        <ele>53</ele>
        <time>2011-09-20T14:43:00Z</time>
      </trkpt>
      <trkpt lat="46.3091" lon="-0.69119">
        <ele>55</ele>
        <time>2011-09-20T14:43:05Z</time>
      </trkpt>
      <trkpt lat="46.30907" lon="-0.69111">
        <ele>54</ele>
        <time>2011-09-20T14:43:10Z</time>
      </trkpt>
      <trkpt lat="46.30905" lon="-0.69102">
        <ele>54</ele>
        <time>2011-09-20T14:43:15Z</time>
      </trkpt>
      <trkpt lat="46.30905" lon="-0.69093">
        <ele>54</ele>
        <time>2011-09-20T14:43:20Z</time>
      </trkpt>
      <trkpt lat="46.30904" lon="-0.69084">
        <ele>55</ele>
        <time>2011-09-20T14:43:25Z</time>
      </trkpt>
      <trkpt lat="46.30907" lon="-0.69075">
        <ele>56</ele>
        <time>2011-09-20T14:43:30Z</time>
      </trkpt>
      <trkpt lat="46.30902" lon="-0.69069">
        <ele>58</ele>
        <time>2011-09-20T14:43:35Z</time>
      </trkpt>
      <trkpt lat="46.30899" lon="-0.69065">
        <ele>60</ele>
        <time>2011-09-20T14:43:40Z</time>
      </trkpt>
      <trkpt lat="46.30897" lon="-0.69058">
        <ele>62</ele>
        <time>2011-09-20T14:43:45Z</time>
      </trkpt>
      <trkpt lat="46.30894" lon="-0.69051">
        <ele>62</ele>
        <time>2011-09-20T14:43:50Z</time>
      </trkpt>
      <trkpt lat="46.30893" lon="-0.69042">
        <ele>62</ele>
        <time>2011-09-20T14:43:55Z</time>
      </trkpt>
      <trkpt lat="46.3089" lon="-0.69033">
        <ele>61</ele>
        <time>2011-09-20T14:44:00Z</time>
      </trkpt>
      <trkpt lat="46.30887" lon="-0.69026">
        <ele>59</ele>
        <time>2011-09-20T14:44:05Z</time>
      </trkpt>
      <trkpt lat="46.30886" lon="-0.69015">
        <ele>58</ele>
        <time>2011-09-20T14:44:10Z</time>
      </trkpt>
      <trkpt lat="46.30885" lon="-0.69005">
        <ele>58</ele>
        <time>2011-09-20T14:44:15Z</time>
      </trkpt>
      <trkpt lat="46.30885" lon="-0.68996">
        <ele>59</ele>
        <time>2011-09-20T14:44:20Z</time>
      </trkpt>
      <trkpt lat="46.30884" lon="-0.68987">
        <ele>58</ele>
        <time>2011-09-20T14:44:25Z</time>
      </trkpt>
      <trkpt lat="46.30883" lon="-0.68979">
        <ele>57</ele>
        <time>2011-09-20T14:44:30Z</time>
      </trkpt>
      <trkpt lat="46.30883" lon="-0.68973">
        <ele>58</ele>
        <time>2011-09-20T14:44:35Z</time>
      </trkpt>
      <trkpt lat="46.30883" lon="-0.68965">
        <ele>58</ele>
        <time>2011-09-20T14:44:40Z</time>
      </trkpt>
      <trkpt lat="46.30884" lon="-0.68958">
        <ele>58</ele>
        <time>2011-09-20T14:44:45Z</time>
      </trkpt>
      <trkpt lat="46.30889" lon="-0.68951">
        <ele>58</ele>
        <time>2011-09-20T14:44:50Z</time>
      </trkpt>
      <trkpt lat="46.3089" lon="-0.68943">
        <ele>59</ele>
        <time>2011-09-20T14:44:55Z</time>
      </trkpt>
      <trkpt lat="46.3089" lon="-0.68935">
        <ele>61</ele>
        <time>2011-09-20T14:45:00Z</time>
      </trkpt>
      <trkpt lat="46.30891" lon="-0.68925">
        <ele>60</ele>
        <time>2011-09-20T14:45:05Z</time>
      </trkpt>
      <trkpt lat="46.30892" lon="-0.68915">
        <ele>58</ele>
        <time>2011-09-20T14:45:10Z</time>
      </trkpt>
      <trkpt lat="46.30893" lon="-0.68905">
        <ele>57</ele>
        <time>2011-09-20T14:45:15Z</time>
      </trkpt>
      <trkpt lat="46.30895" lon="-0.68897">
        <ele>56</ele>
        <time>2011-09-20T14:45:20Z</time>
      </trkpt>
      <trkpt lat="46.30896" lon="-0.68889">
        <ele>55</ele>
        <time>2011-09-20T14:45:25Z</time>
      </trkpt>
      <trkpt lat="46.30896" lon="-0.6888">
        <ele>56</ele>
        <time>2011-09-20T14:45:30Z</time>
      </trkpt>
      <trkpt lat="46.30895" lon="-0.68871">
        <ele>56</ele>
        <time>2011-09-20T14:45:35Z</time>
      </trkpt>
      <trkpt lat="46.309" lon="-0.68863">
        <ele>61</ele>
        <time>2011-09-20T14:45:40Z</time>
      </trkpt>
      <trkpt lat="46.30899" lon="-0.68854">
        <ele>60</ele>
        <time>2011-09-20T14:45:45Z</time>
      </trkpt>
      <trkpt lat="46.30898" lon="-0.68849">
        <ele>61</ele>
        <time>2011-09-20T14:45:50Z</time>
      </trkpt>
      <trkpt lat="46.30897" lon="-0.68838">
        <ele>59</ele>
        <time>2011-09-20T14:45:55Z</time>
      </trkpt>
      <trkpt lat="46.30894" lon="-0.68827">
        <ele>58</ele>
        <time>2011-09-20T14:46:00Z</time>
      </trkpt>
      <trkpt lat="46.30893" lon="-0.68817">
        <ele>59</ele>
        <time>2011-09-20T14:46:05Z</time>
      </trkpt>
      <trkpt lat="46.30893" lon="-0.68808">
        <ele>59</ele>
        <time>2011-09-20T14:46:10Z</time>
      </trkpt>
      <trkpt lat="46.3089" lon="-0.688">
        <ele>57</ele>
        <time>2011-09-20T14:46:15Z</time>
      </trkpt>
      <trkpt lat="46.30888" lon="-0.6879">
        <ele>57</ele>
        <time>2011-09-20T14:46:20Z</time>
      </trkpt>
      <trkpt lat="46.30885" lon="-0.68783">
        <ele>58</ele>
        <time>2011-09-20T14:46:25Z</time>
      </trkpt>
      <trkpt lat="46.30882" lon="-0.68776">
        <ele>57</ele>
        <time>2011-09-20T14:46:30Z</time>
      </trkpt>
      <trkpt lat="46.30877" lon="-0.6877">
        <ele>57</ele>
        <time>2011-09-20T14:46:35Z</time>
      </trkpt>
      <trkpt lat="46.30876" lon="-0.68763">
        <ele>58</ele>
        <time>2011-09-20T14:46:40Z</time>
      </trkpt>
      <trkpt lat="46.30875" lon="-0.68757">
        <ele>58</ele>
        <time>2011-09-20T14:46:45Z</time>
      </trkpt>
      <trkpt lat="46.30871" lon="-0.6875">
        <ele>58</ele>
        <time>2011-09-20T14:46:50Z</time>
      </trkpt>
      <trkpt lat="46.30869" lon="-0.68742">
        <ele>59</ele>
        <time>2011-09-20T14:46:55Z</time>
      </trkpt>
      <trkpt lat="46.30868" lon="-0.68735">
        <ele>59</ele>
        <time>2011-09-20T14:47:00Z</time>
      </trkpt>
      <trkpt lat="46.30867" lon="-0.68728">
        <ele>60</ele>
        <time>2011-09-20T14:47:05Z</time>
      </trkpt>
      <trkpt lat="46.30867" lon="-0.68719">
        <ele>62</ele>
        <time>2011-09-20T14:47:10Z</time>
      </trkpt>
      <trkpt lat="46.30865" lon="-0.68713">
        <ele>62</ele>
        <time>2011-09-20T14:47:15Z</time>
      </trkpt>
      <trkpt lat="46.30863" lon="-0.68706">
        <ele>62</ele>
        <time>2011-09-20T14:47:20Z</time>
      </trkpt>
      <trkpt lat="46.30863" lon="-0.68697">
        <ele>62</ele>
        <time>2011-09-20T14:47:25Z</time>
      </trkpt>
      <trkpt lat="46.30863" lon="-0.68689">
        <ele>63</ele>
        <time>2011-09-20T14:47:30Z</time>
      </trkpt>
      <trkpt lat="46.30861" lon="-0.68682">
        <ele>64</ele>
        <time>2011-09-20T14:47:35Z</time>
      </trkpt>
      <trkpt lat="46.3086" lon="-0.68675">
        <ele>64</ele>
        <time>2011-09-20T14:47:40Z</time>
      </trkpt>
      <trkpt lat="46.30857" lon="-0.68669">
        <ele>63</ele>
        <time>2011-09-20T14:47:45Z</time>
      </trkpt>
      <trkpt lat="46.30857" lon="-0.68658">
        <ele>63</ele>
        <time>2011-09-20T14:47:50Z</time>
      </trkpt>
      <trkpt lat="46.30855" lon="-0.68651">
        <ele>62</ele>
        <time>2011-09-20T14:47:55Z</time>
      </trkpt>
      <trkpt lat="46.30852" lon="-0.6864">
        <ele>59</ele>
        <time>2011-09-20T14:48:00Z</time>
      </trkpt>
      <trkpt lat="46.30848" lon="-0.68635">
        <ele>58</ele>
        <time>2011-09-20T14:48:05Z</time>
      </trkpt>
      <trkpt lat="46.30847" lon="-0.68626">
        <ele>59</ele>
        <time>2011-09-20T14:48:10Z</time>
      </trkpt>
      <trkpt lat="46.30846" lon="-0.68617">
        <ele>59</ele>
        <time>2011-09-20T14:48:15Z</time>
      </trkpt>
      <trkpt lat="46.30843" lon="-0.6861">
        <ele>61</ele>
        <time>2011-09-20T14:48:20Z</time>
      </trkpt>
      <trkpt lat="46.30842" lon="-0.68603">
        <ele>62</ele>
        <time>2011-09-20T14:48:25Z</time>
      </trkpt>
      <trkpt lat="46.30841" lon="-0.68595">
        <ele>62</ele>
        <time>2011-09-20T14:48:30Z</time>
      </trkpt>
      <trkpt lat="46.30837" lon="-0.68584">
        <ele>57</ele>
        <time>2011-09-20T14:48:35Z</time>
      </trkpt>
      <trkpt lat="46.30835" lon="-0.68574">
        <ele>56</ele>
        <time>2011-09-20T14:48:40Z</time>
      </trkpt>
      <trkpt lat="46.30835" lon="-0.68566">
        <ele>59</ele>
        <time>2011-09-20T14:48:45Z</time>
      </trkpt>
      <trkpt lat="46.30832" lon="-0.68558">
        <ele>57</ele>
        <time>2011-09-20T14:48:50Z</time>
      </trkpt>
      <trkpt lat="46.30828" lon="-0.6855">
        <ele>56</ele>
        <time>2011-09-20T14:48:55Z</time>
      </trkpt>
      <trkpt lat="46.30825" lon="-0.68547">
        <ele>57</ele>
        <time>2011-09-20T14:49:00Z</time>
      </trkpt>
      <trkpt lat="46.30822" lon="-0.68541">
        <ele>55</ele>
        <time>2011-09-20T14:49:05Z</time>
      </trkpt>
      <trkpt lat="46.30819" lon="-0.68535">
        <ele>57</ele>
        <time>2011-09-20T14:49:10Z</time>
      </trkpt>
      <trkpt lat="46.30816" lon="-0.6853">
        <ele>58</ele>
        <time>2011-09-20T14:49:15Z</time>
      </trkpt>
      <trkpt lat="46.30817" lon="-0.68525">
        <ele>64</ele>
        <time>2011-09-20T14:49:20Z</time>
      </trkpt>
      <trkpt lat="46.30814" lon="-0.68517">
        <ele>63</ele>
        <time>2011-09-20T14:49:25Z</time>
      </trkpt>
      <trkpt lat="46.3081" lon="-0.68508">
        <ele>61</ele>
        <time>2011-09-20T14:49:30Z</time>
      </trkpt>
      <trkpt lat="46.30807" lon="-0.685">
        <ele>59</ele>
        <time>2011-09-20T14:49:35Z</time>
      </trkpt>
      <trkpt lat="46.30805" lon="-0.68492">
        <ele>60</ele>
        <time>2011-09-20T14:49:40Z</time>
      </trkpt>
      <trkpt lat="46.30802" lon="-0.68484">
        <ele>61</ele>
        <time>2011-09-20T14:49:45Z</time>
      </trkpt>
      <trkpt lat="46.30798" lon="-0.68477">
        <ele>60</ele>
        <time>2011-09-20T14:49:50Z</time>
      </trkpt>
      <trkpt lat="46.30794" lon="-0.68469">
        <ele>59</ele>
        <time>2011-09-20T14:49:55Z</time>
      </trkpt>
      <trkpt lat="46.30791" lon="-0.68461">
        <ele>58</ele>
        <time>2011-09-20T14:50:00Z</time>
      </trkpt>
      <trkpt lat="46.30788" lon="-0.68453">
        <ele>56</ele>
        <time>2011-09-20T14:50:05Z</time>
      </trkpt>
      <trkpt lat="46.30785" lon="-0.68446">
        <ele>55</ele>
        <time>2011-09-20T14:50:10Z</time>
      </trkpt>
      <trkpt lat="46.30781" lon="-0.68439">
        <ele>55</ele>
        <time>2011-09-20T14:50:15Z</time>
      </trkpt>
      <trkpt lat="46.30778" lon="-0.68431">
        <ele>56</ele>
        <time>2011-09-20T14:50:20Z</time>
      </trkpt>
      <trkpt lat="46.30774" lon="-0.68423">
        <ele>56</ele>
        <time>2011-09-20T14:50:25Z</time>
      </trkpt>
      <trkpt lat="46.3077" lon="-0.68416">
        <ele>55</ele>
        <time>2011-09-20T14:50:30Z</time>
      </trkpt>
      <trkpt lat="46.30767" lon="-0.6841">
        <ele>54</ele>
        <time>2011-09-20T14:50:35Z</time>
      </trkpt>
      <trkpt lat="46.30764" lon="-0.68402">
        <ele>55</ele>
        <time>2011-09-20T14:50:40Z</time>
      </trkpt>
      <trkpt lat="46.30761" lon="-0.68395">
        <ele>54</ele>
        <time>2011-09-20T14:50:45Z</time>
      </trkpt>
      <trkpt lat="46.30758" lon="-0.68387">
        <ele>56</ele>
        <time>2011-09-20T14:50:50Z</time>
      </trkpt>
      <trkpt lat="46.30756" lon="-0.68379">
        <ele>56</ele>
        <time>2011-09-20T14:50:55Z</time>
      </trkpt>
      <trkpt lat="46.30753" lon="-0.68372">
        <ele>57</ele>
        <time>2011-09-20T14:51:00Z</time>
      </trkpt>
      <trkpt lat="46.3075" lon="-0.68365">
        <ele>56</ele>
        <time>2011-09-20T14:51:05Z</time>
      </trkpt>
      <trkpt lat="46.30749" lon="-0.68356">
        <ele>55</ele>
        <time>2011-09-20T14:51:10Z</time>
      </trkpt>
      <trkpt lat="46.30746" lon="-0.6835">
        <ele>56</ele>
        <time>2011-09-20T14:51:15Z</time>
      </trkpt>
      <trkpt lat="46.30745" lon="-0.68344">
        <ele>55</ele>
        <time>2011-09-20T14:51:20Z</time>
      </trkpt>
      <trkpt lat="46.30747" lon="-0.68336">
        <ele>55</ele>
        <time>2011-09-20T14:51:25Z</time>
      </trkpt>
      <trkpt lat="46.30747" lon="-0.68328">
        <ele>55</ele>
        <time>2011-09-20T14:51:30Z</time>
      </trkpt>
      <trkpt lat="46.3075" lon="-0.6832">
        <ele>56</ele>
        <time>2011-09-20T14:51:35Z</time>
      </trkpt>
      <trkpt lat="46.30752" lon="-0.68311">
        <ele>58</ele>
        <time>2011-09-20T14:51:40Z</time>
      </trkpt>
      <trkpt lat="46.30755" lon="-0.68305">
        <ele>60</ele>
        <time>2011-09-20T14:51:45Z</time>
      </trkpt>
      <trkpt lat="46.30758" lon="-0.68299">
        <ele>62</ele>
        <time>2011-09-20T14:51:50Z</time>
      </trkpt>
      <trkpt lat="46.30761" lon="-0.68292">
        <ele>64</ele>
        <time>2011-09-20T14:51:55Z</time>
      </trkpt>
      <trkpt lat="46.30763" lon="-0.68286">
        <ele>64</ele>
        <time>2011-09-20T14:52:00Z</time>
      </trkpt>
      <trkpt lat="46.30765" lon="-0.6828">
        <ele>64</ele>
        <time>2011-09-20T14:52:05Z</time>
      </trkpt>
      <trkpt lat="46.30768" lon="-0.68273">
        <ele>63</ele>
        <time>2011-09-20T14:52:10Z</time>
      </trkpt>
      <trkpt lat="46.30772" lon="-0.68267">
        <ele>64</ele>
        <time>2011-09-20T14:52:15Z</time>
      </trkpt>
      <trkpt lat="46.30777" lon="-0.6826">
        <ele>67</ele>
        <time>2011-09-20T14:52:20Z</time>
      </trkpt>
      <trkpt lat="46.3078" lon="-0.68253">
        <ele>68</ele>
        <time>2011-09-20T14:52:25Z</time>
      </trkpt>
      <trkpt lat="46.30783" lon="-0.68245">
        <ele>69</ele>
        <time>2011-09-20T14:52:30Z</time>
      </trkpt>
      <trkpt lat="46.30786" lon="-0.68239">
        <ele>70</ele>
        <time>2011-09-20T14:52:35Z</time>
      </trkpt>
      <trkpt lat="46.3079" lon="-0.68231">
        <ele>71</ele>
        <time>2011-09-20T14:52:40Z</time>
      </trkpt>
      <trkpt lat="46.30791" lon="-0.68224">
        <ele>69</ele>
        <time>2011-09-20T14:52:45Z</time>
      </trkpt>
      <trkpt lat="46.30795" lon="-0.68216">
        <ele>69</ele>
        <time>2011-09-20T14:52:50Z</time>
      </trkpt>
      <trkpt lat="46.30799" lon="-0.68209">
        <ele>69</ele>
        <time>2011-09-20T14:52:55Z</time>
      </trkpt>
      <trkpt lat="46.30803" lon="-0.68202">
        <ele>71</ele>
        <time>2011-09-20T14:53:00Z</time>
      </trkpt>
      <trkpt lat="46.30807" lon="-0.68196">
        <ele>70</ele>
        <time>2011-09-20T14:53:05Z</time>
      </trkpt>
      <trkpt lat="46.30809" lon="-0.68192">
        <ele>67</ele>
        <time>2011-09-20T14:53:10Z</time>
      </trkpt>
      <trkpt lat="46.30812" lon="-0.68186">
        <ele>65</ele>
        <time>2011-09-20T14:53:15Z</time>
      </trkpt>
      <trkpt lat="46.30816" lon="-0.68179">
        <ele>65</ele>
        <time>2011-09-20T14:53:20Z</time>
      </trkpt>
      <trkpt lat="46.30818" lon="-0.68172">
        <ele>64</ele>
        <time>2011-09-20T14:53:25Z</time>
      </trkpt>
      <trkpt lat="46.3082" lon="-0.68166">
        <ele>65</ele>
        <time>2011-09-20T14:53:30Z</time>
      </trkpt>
      <trkpt lat="46.30824" lon="-0.68161">
        <ele>63</ele>
        <time>2011-09-20T14:53:35Z</time>
      </trkpt>
      <trkpt lat="46.30827" lon="-0.68153">
        <ele>61</ele>
        <time>2011-09-20T14:53:40Z</time>
      </trkpt>
      <trkpt lat="46.30831" lon="-0.68146">
        <ele>60</ele>
        <time>2011-09-20T14:53:45Z</time>
      </trkpt>
      <trkpt lat="46.30835" lon="-0.68139">
        <ele>61</ele>
        <time>2011-09-20T14:53:50Z</time>
      </trkpt>
      <trkpt lat="46.30839" lon="-0.68133">
        <ele>60</ele>
        <time>2011-09-20T14:53:55Z</time>
      </trkpt>
      <trkpt lat="46.3084" lon="-0.68126">
        <ele>60</ele>
        <time>2011-09-20T14:54:00Z</time>
      </trkpt>
      <trkpt lat="46.30841" lon="-0.68119">
        <ele>60</ele>
        <time>2011-09-20T14:54:05Z</time>
      </trkpt>
      <trkpt lat="46.30845" lon="-0.68113">
        <ele>61</ele>
        <time>2011-09-20T14:54:10Z</time>
      </trkpt>
      <trkpt lat="46.30848" lon="-0.68105">
        <ele>59</ele>
        <time>2011-09-20T14:54:15Z</time>
      </trkpt>
      <trkpt lat="46.30851" lon="-0.68098">
        <ele>58</ele>
        <time>2011-09-20T14:54:20Z</time>
      </trkpt>
      <trkpt lat="46.30854" lon="-0.68089">
        <ele>55</ele>
        <time>2011-09-20T14:54:25Z</time>
      </trkpt>
      <trkpt lat="46.30854" lon="-0.6808">
        <ele>54</ele>
        <time>2011-09-20T14:54:30Z</time>
      </trkpt>
      <trkpt lat="46.30859" lon="-0.68073">
        <ele>54</ele>
        <time>2011-09-20T14:54:35Z</time>
      </trkpt>
      <trkpt lat="46.30863" lon="-0.68068">
        <ele>53</ele>
        <time>2011-09-20T14:54:40Z</time>
      </trkpt>
      <trkpt lat="46.30868" lon="-0.6806">
        <ele>53</ele>
        <time>2011-09-20T14:54:45Z</time>
      </trkpt>
      <trkpt lat="46.30872" lon="-0.68052">
        <ele>54</ele>
        <time>2011-09-20T14:54:50Z</time>
      </trkpt>
      <trkpt lat="46.30875" lon="-0.68044">
        <ele>53</ele>
        <time>2011-09-20T14:54:55Z</time>
      </trkpt>
      <trkpt lat="46.30881" lon="-0.68037">
        <ele>51</ele>
        <time>2011-09-20T14:55:00Z</time>
      </trkpt>
      <trkpt lat="46.30889" lon="-0.68033">
        <ele>51</ele>
        <time>2011-09-20T14:55:05Z</time>
      </trkpt>
      <trkpt lat="46.30896" lon="-0.6803">
        <ele>54</ele>
        <time>2011-09-20T14:55:10Z</time>
      </trkpt>
      <trkpt lat="46.30899" lon="-0.68022">
        <ele>55</ele>
        <time>2011-09-20T14:55:15Z</time>
      </trkpt>
      <trkpt lat="46.30901" lon="-0.68016">
        <ele>60</ele>
        <time>2011-09-20T14:55:20Z</time>
      </trkpt>
      <trkpt lat="46.30906" lon="-0.6801">
        <ele>67</ele>
        <time>2011-09-20T14:55:25Z</time>
      </trkpt>
      <trkpt lat="46.30909" lon="-0.68004">
        <ele>69</ele>
        <time>2011-09-20T14:55:30Z</time>
      </trkpt>
      <trkpt lat="46.30914" lon="-0.67998">
        <ele>70</ele>
        <time>2011-09-20T14:55:35Z</time>
      </trkpt>
      <trkpt lat="46.30919" lon="-0.67989">
        <ele>69</ele>
        <time>2011-09-20T14:55:40Z</time>
      </trkpt>
      <trkpt lat="46.30922" lon="-0.67983">
        <ele>66</ele>
        <time>2011-09-20T14:55:45Z</time>
      </trkpt>
      <trkpt lat="46.30926" lon="-0.67976">
        <ele>70</ele>
        <time>2011-09-20T14:55:50Z</time>
      </trkpt>
      <trkpt lat="46.30931" lon="-0.67968">
        <ele>69</ele>
        <time>2011-09-20T14:55:55Z</time>
      </trkpt>
      <trkpt lat="46.30929" lon="-0.67959">
        <ele>71</ele>
        <time>2011-09-20T14:56:00Z</time>
      </trkpt>
      <trkpt lat="46.30933" lon="-0.67952">
        <ele>72</ele>
        <time>2011-09-20T14:56:05Z</time>
      </trkpt>
      <trkpt lat="46.30938" lon="-0.67945">
        <ele>75</ele>
        <time>2011-09-20T14:56:10Z</time>
      </trkpt>
      <trkpt lat="46.30942" lon="-0.67939">
        <ele>75</ele>
        <time>2011-09-20T14:56:15Z</time>
      </trkpt>
      <trkpt lat="46.30947" lon="-0.67932">
        <ele>76</ele>
        <time>2011-09-20T14:56:20Z</time>
      </trkpt>
      <trkpt lat="46.30951" lon="-0.67928">
        <ele>72</ele>
        <time>2011-09-20T14:56:25Z</time>
      </trkpt>
      <trkpt lat="46.30955" lon="-0.67923">
        <ele>70</ele>
        <time>2011-09-20T14:56:30Z</time>
      </trkpt>
      <trkpt lat="46.30961" lon="-0.67919">
        <ele>70</ele>
        <time>2011-09-20T14:56:35Z</time>
      </trkpt>
      <trkpt lat="46.30964" lon="-0.67913">
        <ele>66</ele>
        <time>2011-09-20T14:56:40Z</time>
      </trkpt>
      <trkpt lat="46.3097" lon="-0.67909">
        <ele>64</ele>
        <time>2011-09-20T14:56:45Z</time>
      </trkpt>
      <trkpt lat="46.30975" lon="-0.67905">
        <ele>62</ele>
        <time>2011-09-20T14:56:50Z</time>
      </trkpt>
      <trkpt lat="46.30979" lon="-0.67903">
        <ele>62</ele>
        <time>2011-09-20T14:56:55Z</time>
      </trkpt>
      <trkpt lat="46.30984" lon="-0.67901">
        <ele>65</ele>
        <time>2011-09-20T14:57:00Z</time>
      </trkpt>
      <trkpt lat="46.30989" lon="-0.67898">
        <ele>66</ele>
        <time>2011-09-20T14:57:05Z</time>
      </trkpt>
      <trkpt lat="46.30993" lon="-0.67895">
        <ele>68</ele>
        <time>2011-09-20T14:57:10Z</time>
      </trkpt>
      <trkpt lat="46.30997" lon="-0.67893">
        <ele>67</ele>
        <time>2011-09-20T14:57:15Z</time>
      </trkpt>
      <trkpt lat="46.31001" lon="-0.67892">
        <ele>66</ele>
        <time>2011-09-20T14:57:20Z</time>
      </trkpt>
      <trkpt lat="46.31007" lon="-0.67888">
        <ele>65</ele>
        <time>2011-09-20T14:57:25Z</time>
      </trkpt>
      <trkpt lat="46.31011" lon="-0.67886">
        <ele>64</ele>
        <time>2011-09-20T14:57:30Z</time>
      </trkpt>
      <trkpt lat="46.31016" lon="-0.67883">
        <ele>65</ele>
        <time>2011-09-20T14:57:35Z</time>
      </trkpt>
      <trkpt lat="46.31022" lon="-0.6788">
        <ele>63</ele>
        <time>2011-09-20T14:57:40Z</time>
      </trkpt>
      <trkpt lat="46.31026" lon="-0.67878">
        <ele>61</ele>
        <time>2011-09-20T14:57:45Z</time>
      </trkpt>
      <trkpt lat="46.31032" lon="-0.67877">
        <ele>61</ele>
        <time>2011-09-20T14:57:50Z</time>
      </trkpt>
      <trkpt lat="46.31037" lon="-0.6787">
        <ele>57</ele>
        <time>2011-09-20T14:57:55Z</time>
      </trkpt>
      <trkpt lat="46.31041" lon="-0.67865">
        <ele>56</ele>
        <time>2011-09-20T14:58:00Z</time>
      </trkpt>
      <trkpt lat="46.31047" lon="-0.67865">
        <ele>59</ele>
        <time>2011-09-20T14:58:05Z</time>
      </trkpt>
      <trkpt lat="46.31052" lon="-0.67866">
        <ele>59</ele>
        <time>2011-09-20T14:58:10Z</time>
      </trkpt>
      <trkpt lat="46.31058" lon="-0.67865">
        <ele>60</ele>
        <time>2011-09-20T14:58:15Z</time>
      </trkpt>
      <trkpt lat="46.31065" lon="-0.6786">
        <ele>61</ele>
        <time>2011-09-20T14:58:20Z</time>
      </trkpt>
      <trkpt lat="46.31072" lon="-0.67859">
        <ele>62</ele>
        <time>2011-09-20T14:58:25Z</time>
      </trkpt>
      <trkpt lat="46.3108" lon="-0.67856">
        <ele>66</ele>
        <time>2011-09-20T14:58:30Z</time>
      </trkpt>
      <trkpt lat="46.31087" lon="-0.67852">
        <ele>67</ele>
        <time>2011-09-20T14:58:35Z</time>
      </trkpt>
      <trkpt lat="46.31091" lon="-0.6785">
        <ele>68</ele>
        <time>2011-09-20T14:58:40Z</time>
      </trkpt>
      <trkpt lat="46.31097" lon="-0.67847">
        <ele>67</ele>
        <time>2011-09-20T14:58:45Z</time>
      </trkpt>
      <trkpt lat="46.311" lon="-0.67844">
        <ele>64</ele>
        <time>2011-09-20T14:58:50Z</time>
      </trkpt>
      <trkpt lat="46.31106" lon="-0.67842">
        <ele>64</ele>
        <time>2011-09-20T14:58:55Z</time>
      </trkpt>
      <trkpt lat="46.31111" lon="-0.67841">
        <ele>65</ele>
        <time>2011-09-20T14:59:00Z</time>
      </trkpt>
      <trkpt lat="46.31115" lon="-0.67836">
        <ele>64</ele>
        <time>2011-09-20T14:59:05Z</time>
      </trkpt>
      <trkpt lat="46.31115" lon="-0.67835">
        <ele>63</ele>
        <time>2011-09-20T14:59:10Z</time>
      </trkpt>
      <trkpt lat="46.31117" lon="-0.67835">
        <ele>63</ele>
        <time>2011-09-20T14:59:15Z</time>
      </trkpt>
      <trkpt lat="46.31125" lon="-0.67834">
        <ele>65</ele>
        <time>2011-09-20T14:59:20Z</time>
      </trkpt>
      <trkpt lat="46.31131" lon="-0.67835">
        <ele>66</ele>
        <time>2011-09-20T14:59:25Z</time>
      </trkpt>
      <trkpt lat="46.31135" lon="-0.67831">
        <ele>60</ele>
        <time>2011-09-20T14:59:30Z</time>
      </trkpt>
      <trkpt lat="46.31139" lon="-0.67827">
        <ele>59</ele>
        <time>2011-09-20T14:59:35Z</time>
      </trkpt>
      <trkpt lat="46.31142" lon="-0.67829">
        <ele>60</ele>
        <time>2011-09-20T14:59:40Z</time>
      </trkpt>
      <trkpt lat="46.31146" lon="-0.67828">
        <ele>59</ele>
        <time>2011-09-20T14:59:45Z</time>
      </trkpt>
      <trkpt lat="46.31152" lon="-0.67827">
        <ele>58</ele>
        <time>2011-09-20T14:59:50Z</time>
      </trkpt>
      <trkpt lat="46.31158" lon="-0.67825">
        <ele>58</ele>
        <time>2011-09-20T14:59:55Z</time>
      </trkpt>
      <trkpt lat="46.31158" lon="-0.67824">
        <ele>57</ele>
        <time>2011-09-20T15:00:00Z</time>
      </trkpt>
      <trkpt lat="46.31164" lon="-0.67822">
        <ele>56</ele>
        <time>2011-09-20T15:00:05Z</time>
      </trkpt>
      <trkpt lat="46.31171" lon="-0.6782">
        <ele>57</ele>
        <time>2011-09-20T15:00:10Z</time>
      </trkpt>
      <trkpt lat="46.31177" lon="-0.67817">
        <ele>56</ele>
        <time>2011-09-20T15:00:15Z</time>
      </trkpt>
      <trkpt lat="46.31183" lon="-0.67815">
        <ele>56</ele>
        <time>2011-09-20T15:00:20Z</time>
      </trkpt>
      <trkpt lat="46.3119" lon="-0.67814">
        <ele>57</ele>
        <time>2011-09-20T15:00:25Z</time>
      </trkpt>
      <trkpt lat="46.31196" lon="-0.67813">
        <ele>57</ele>
        <time>2011-09-20T15:00:30Z</time>
      </trkpt>
      <trkpt lat="46.31201" lon="-0.67811">
        <ele>57</ele>
        <time>2011-09-20T15:00:35Z</time>
      </trkpt>
      <trkpt lat="46.31207" lon="-0.67811">
        <ele>56</ele>
        <time>2011-09-20T15:00:40Z</time>
      </trkpt>
      <trkpt lat="46.31211" lon="-0.67811">
        <ele>54</ele>
        <time>2011-09-20T15:00:45Z</time>
      </trkpt>
      <trkpt lat="46.31217" lon="-0.67808">
        <ele>53</ele>
        <time>2011-09-20T15:00:50Z</time>
      </trkpt>
      <trkpt lat="46.31222" lon="-0.67807">
        <ele>51</ele>
        <time>2011-09-20T15:00:55Z</time>
      </trkpt>
      <trkpt lat="46.31226" lon="-0.67806">
        <ele>51</ele>
        <time>2011-09-20T15:01:00Z</time>
      </trkpt>
      <trkpt lat="46.3123" lon="-0.67806">
        <ele>51</ele>
        <time>2011-09-20T15:01:05Z</time>
      </trkpt>
      <trkpt lat="46.31234" lon="-0.67806">
        <ele>52</ele>
        <time>2011-09-20T15:01:10Z</time>
      </trkpt>
      <trkpt lat="46.31238" lon="-0.67805">
        <ele>53</ele>
        <time>2011-09-20T15:01:15Z</time>
      </trkpt>
      <trkpt lat="46.31237" lon="-0.67804">
        <ele>53</ele>
        <time>2011-09-20T15:01:20Z</time>
      </trkpt>
      <trkpt lat="46.31239" lon="-0.67804">
        <ele>55</ele>
        <time>2011-09-20T15:01:25Z</time>
      </trkpt>
      <trkpt lat="46.3124" lon="-0.67807">
        <ele>54</ele>
        <time>2011-09-20T15:01:30Z</time>
      </trkpt>
      <trkpt lat="46.3124" lon="-0.67809">
        <ele>53</ele>
        <time>2011-09-20T15:01:35Z</time>
      </trkpt>
      <trkpt lat="46.31239" lon="-0.67809">
        <ele>53</ele>
        <time>2011-09-20T15:01:40Z</time>
      </trkpt>
      <trkpt lat="46.3124" lon="-0.67809">
        <ele>53</ele>
        <time>2011-09-20T15:01:45Z</time>
      </trkpt>
      <trkpt lat="46.31242" lon="-0.67811">
        <ele>53</ele>
        <time>2011-09-20T15:01:55Z</time>
      </trkpt>
      <trkpt lat="46.31242" lon="-0.6781">
        <ele>53</ele>
        <time>2011-09-20T15:02:00Z</time>
      </trkpt>
      <trkpt lat="46.31242" lon="-0.67809">
        <ele>53</ele>
        <time>2011-09-20T15:02:05Z</time>
      </trkpt>
      <trkpt lat="46.31243" lon="-0.67808">
        <ele>54</ele>
        <time>2011-09-20T15:02:20Z</time>
      </trkpt>
      <trkpt lat="46.31243" lon="-0.67808">
        <ele>53</ele>
        <time>2011-09-20T15:02:25Z</time>
      </trkpt>
      <trkpt lat="46.31244" lon="-0.67808">
        <ele>53</ele>
        <time>2011-09-20T15:02:30Z</time>
      </trkpt>
      <trkpt lat="46.31244" lon="-0.67808">
        <ele>53</ele>
        <time>2011-09-20T15:02:35Z</time>
      </trkpt>
      <trkpt lat="46.31244" lon="-0.67809">
        <ele>54</ele>
        <time>2011-09-20T15:02:50Z</time>
      </trkpt>
      <trkpt lat="46.31244" lon="-0.67808">
        <ele>54</ele>
        <time>2011-09-20T15:02:55Z</time>
      </trkpt>
      <trkpt lat="46.31244" lon="-0.67809">
        <ele>55</ele>
        <time>2011-09-20T15:03:00Z</time>
      </trkpt>
      <trkpt lat="46.31244" lon="-0.67811">
        <ele>55</ele>
        <time>2011-09-20T15:03:05Z</time>
      </trkpt>
      <trkpt lat="46.31244" lon="-0.67811">
        <ele>55</ele>
        <time>2011-09-20T15:04:00Z</time>
      </trkpt>
      <trkpt lat="46.31244" lon="-0.67811">
        <ele>56</ele>
        <time>2011-09-20T15:04:05Z</time>
      </trkpt>
      <trkpt lat="46.31244" lon="-0.67811">
        <ele>55</ele>
        <time>2011-09-20T15:04:10Z</time>
      </trkpt>
      <trkpt lat="46.31244" lon="-0.67812">
        <ele>56</ele>
        <time>2011-09-20T15:04:15Z</time>
      </trkpt>
      <trkpt lat="46.31243" lon="-0.67813">
        <ele>55</ele>
        <time>2011-09-20T15:04:20Z</time>
      </trkpt>
      <trkpt lat="46.31244" lon="-0.67814">
        <ele>55</ele>
        <time>2011-09-20T15:04:35Z</time>
      </trkpt>
      <trkpt lat="46.31245" lon="-0.67819">
        <ele>55</ele>
        <time>2011-09-20T15:04:40Z</time>
      </trkpt>
      <trkpt lat="46.31246" lon="-0.67825">
        <ele>53</ele>
        <time>2011-09-20T15:04:45Z</time>
      </trkpt>
      <trkpt lat="46.31248" lon="-0.67831">
        <ele>54</ele>
        <time>2011-09-20T15:04:50Z</time>
      </trkpt>
      <trkpt lat="46.31251" lon="-0.67837">
        <ele>54</ele>
        <time>2011-09-20T15:04:55Z</time>
      </trkpt>
      <trkpt lat="46.31252" lon="-0.67843">
        <ele>53</ele>
        <time>2011-09-20T15:05:00Z</time>
      </trkpt>
      <trkpt lat="46.31254" lon="-0.67849">
        <ele>52</ele>
        <time>2011-09-20T15:05:05Z</time>
      </trkpt>
      <trkpt lat="46.31256" lon="-0.67856">
        <ele>52</ele>
        <time>2011-09-20T15:05:10Z</time>
      </trkpt>
      <trkpt lat="46.31258" lon="-0.67863">
        <ele>51</ele>
        <time>2011-09-20T15:05:15Z</time>
      </trkpt>
      <trkpt lat="46.3126" lon="-0.67871">
        <ele>50</ele>
        <time>2011-09-20T15:05:20Z</time>
      </trkpt>
      <trkpt lat="46.31262" lon="-0.67878">
        <ele>50</ele>
        <time>2011-09-20T15:05:25Z</time>
      </trkpt>
      <trkpt lat="46.31264" lon="-0.67882">
        <ele>50</ele>
        <time>2011-09-20T15:05:30Z</time>
      </trkpt>
      <trkpt lat="46.31264" lon="-0.67882">
        <ele>50</ele>
        <time>2011-09-20T15:05:35Z</time>
      </trkpt>
      <trkpt lat="46.31264" lon="-0.67882">
        <ele>50</ele>
        <time>2011-09-20T15:05:40Z</time>
      </trkpt>
      <trkpt lat="46.31264" lon="-0.67882">
        <ele>50</ele>
        <time>2011-09-20T15:05:50Z</time>
      </trkpt>
      <trkpt lat="46.31264" lon="-0.67882">
        <ele>51</ele>
        <time>2011-09-20T15:05:55Z</time>
      </trkpt>
      <trkpt lat="46.31264" lon="-0.67882">
        <ele>50</ele>
        <time>2011-09-20T15:06:00Z</time>
      </trkpt>
      <trkpt lat="46.31265" lon="-0.67885">
        <ele>51</ele>
        <time>2011-09-20T15:06:05Z</time>
      </trkpt>
      <trkpt lat="46.31266" lon="-0.67891">
        <ele>51</ele>
        <time>2011-09-20T15:06:10Z</time>
      </trkpt>
      <trkpt lat="46.31269" lon="-0.67898">
        <ele>51</ele>
        <time>2011-09-20T15:06:15Z</time>
      </trkpt>
      <trkpt lat="46.31272" lon="-0.67905">
        <ele>51</ele>
        <time>2011-09-20T15:06:20Z</time>
      </trkpt>
      <trkpt lat="46.31273" lon="-0.67913">
        <ele>51</ele>
        <time>2011-09-20T15:06:25Z</time>
      </trkpt>
      <trkpt lat="46.31275" lon="-0.6792">
        <ele>50</ele>
        <time>2011-09-20T15:06:30Z</time>
      </trkpt>
      <trkpt lat="46.31278" lon="-0.67927">
        <ele>50</ele>
        <time>2011-09-20T15:06:35Z</time>
      </trkpt>
      <trkpt lat="46.3128" lon="-0.67933">
        <ele>50</ele>
        <time>2011-09-20T15:06:40Z</time>
      </trkpt>
      <trkpt lat="46.31282" lon="-0.6794">
        <ele>49</ele>
        <time>2011-09-20T15:06:45Z</time>
      </trkpt>
      <trkpt lat="46.31284" lon="-0.67947">
        <ele>49</ele>
        <time>2011-09-20T15:06:50Z</time>
      </trkpt>
      <trkpt lat="46.31286" lon="-0.67954">
        <ele>49</ele>
        <time>2011-09-20T15:06:55Z</time>
      </trkpt>
      <trkpt lat="46.31288" lon="-0.67962">
        <ele>49</ele>
        <time>2011-09-20T15:07:00Z</time>
      </trkpt>
      <trkpt lat="46.3129" lon="-0.6797">
        <ele>49</ele>
        <time>2011-09-20T15:07:05Z</time>
      </trkpt>
      <trkpt lat="46.31294" lon="-0.67978">
        <ele>50</ele>
        <time>2011-09-20T15:07:10Z</time>
      </trkpt>
      <trkpt lat="46.31295" lon="-0.67985">
        <ele>49</ele>
        <time>2011-09-20T15:07:15Z</time>
      </trkpt>
      <trkpt lat="46.31298" lon="-0.67993">
        <ele>49</ele>
        <time>2011-09-20T15:07:20Z</time>
      </trkpt>
      <trkpt lat="46.31302" lon="-0.68">
        <ele>49</ele>
        <time>2011-09-20T15:07:25Z</time>
      </trkpt>
      <trkpt lat="46.31306" lon="-0.68007">
        <ele>50</ele>
        <time>2011-09-20T15:07:30Z</time>
      </trkpt>
      <trkpt lat="46.31309" lon="-0.68015">
        <ele>50</ele>
        <time>2011-09-20T15:07:35Z</time>
      </trkpt>
      <trkpt lat="46.31312" lon="-0.68023">
        <ele>49</ele>
        <time>2011-09-20T15:07:40Z</time>
      </trkpt>
      <trkpt lat="46.31315" lon="-0.68031">
        <ele>50</ele>
        <time>2011-09-20T15:07:45Z</time>
      </trkpt>
      <trkpt lat="46.31317" lon="-0.68039">
        <ele>50</ele>
        <time>2011-09-20T15:07:50Z</time>
      </trkpt>
      <trkpt lat="46.31319" lon="-0.68045">
        <ele>51</ele>
        <time>2011-09-20T15:07:55Z</time>
      </trkpt>
      <trkpt lat="46.31321" lon="-0.68053">
        <ele>51</ele>
        <time>2011-09-20T15:08:00Z</time>
      </trkpt>
      <trkpt lat="46.31323" lon="-0.68061">
        <ele>51</ele>
        <time>2011-09-20T15:08:05Z</time>
      </trkpt>
      <trkpt lat="46.31326" lon="-0.6807">
        <ele>51</ele>
        <time>2011-09-20T15:08:10Z</time>
      </trkpt>
      <trkpt lat="46.31329" lon="-0.68077">
        <ele>50</ele>
        <time>2011-09-20T15:08:15Z</time>
      </trkpt>
      <trkpt lat="46.31331" lon="-0.68085">
        <ele>50</ele>
        <time>2011-09-20T15:08:20Z</time>
      </trkpt>
      <trkpt lat="46.31333" lon="-0.68093">
        <ele>50</ele>
        <time>2011-09-20T15:08:25Z</time>
      </trkpt>
      <trkpt lat="46.31337" lon="-0.681">
        <ele>50</ele>
        <time>2011-09-20T15:08:30Z</time>
      </trkpt>
      <trkpt lat="46.31339" lon="-0.68108">
        <ele>50</ele>
        <time>2011-09-20T15:08:35Z</time>
      </trkpt>
      <trkpt lat="46.31342" lon="-0.68114">
        <ele>50</ele>
        <time>2011-09-20T15:08:40Z</time>
      </trkpt>
      <trkpt lat="46.3134" lon="-0.68123">
        <ele>51</ele>
        <time>2011-09-20T15:08:45Z</time>
      </trkpt>
      <trkpt lat="46.3134" lon="-0.68133">
        <ele>50</ele>
        <time>2011-09-20T15:08:50Z</time>
      </trkpt>
      <trkpt lat="46.31354" lon="-0.68136">
        <ele>49</ele>
        <time>2011-09-20T15:08:55Z</time>
      </trkpt>
      <trkpt lat="46.31356" lon="-0.68143">
        <ele>49</ele>
        <time>2011-09-20T15:09:00Z</time>
      </trkpt>
      <trkpt lat="46.31355" lon="-0.6815">
        <ele>50</ele>
        <time>2011-09-20T15:09:05Z</time>
      </trkpt>
      <trkpt lat="46.31356" lon="-0.68158">
        <ele>49</ele>
        <time>2011-09-20T15:09:10Z</time>
      </trkpt>
      <trkpt lat="46.31359" lon="-0.68166">
        <ele>49</ele>
        <time>2011-09-20T15:09:15Z</time>
      </trkpt>
      <trkpt lat="46.31359" lon="-0.68177">
        <ele>49</ele>
        <time>2011-09-20T15:09:20Z</time>
      </trkpt>
      <trkpt lat="46.31376" lon="-0.6818">
        <ele>48</ele>
        <time>2011-09-20T15:09:25Z</time>
      </trkpt>
      <trkpt lat="46.31385" lon="-0.68186">
        <ele>47</ele>
        <time>2011-09-20T15:09:30Z</time>
      </trkpt>
      <trkpt lat="46.31386" lon="-0.68194">
        <ele>48</ele>
        <time>2011-09-20T15:09:35Z</time>
      </trkpt>
      <trkpt lat="46.31383" lon="-0.68203">
        <ele>49</ele>
        <time>2011-09-20T15:09:40Z</time>
      </trkpt>
      <trkpt lat="46.31384" lon="-0.68213">
        <ele>50</ele>
        <time>2011-09-20T15:09:45Z</time>
      </trkpt>
      <trkpt lat="46.31384" lon="-0.68221">
        <ele>50</ele>
        <time>2011-09-20T15:09:50Z</time>
      </trkpt>
      <trkpt lat="46.31385" lon="-0.6823">
        <ele>49</ele>
        <time>2011-09-20T15:09:55Z</time>
      </trkpt>
      <trkpt lat="46.31386" lon="-0.68238">
        <ele>51</ele>
        <time>2011-09-20T15:10:00Z</time>
      </trkpt>
      <trkpt lat="46.31389" lon="-0.68246">
        <ele>51</ele>
        <time>2011-09-20T15:10:05Z</time>
      </trkpt>
      <trkpt lat="46.31392" lon="-0.68254">
        <ele>50</ele>
        <time>2011-09-20T15:10:10Z</time>
      </trkpt>
      <trkpt lat="46.31394" lon="-0.68262">
        <ele>51</ele>
        <time>2011-09-20T15:10:15Z</time>
      </trkpt>
      <trkpt lat="46.314" lon="-0.6827">
        <ele>50</ele>
        <time>2011-09-20T15:10:20Z</time>
      </trkpt>
      <trkpt lat="46.314" lon="-0.68279">
        <ele>50</ele>
        <time>2011-09-20T15:10:25Z</time>
      </trkpt>
      <trkpt lat="46.31403" lon="-0.68287">
        <ele>49</ele>
        <time>2011-09-20T15:10:30Z</time>
      </trkpt>
      <trkpt lat="46.31409" lon="-0.68294">
        <ele>48</ele>
        <time>2011-09-20T15:10:35Z</time>
      </trkpt>
      <trkpt lat="46.31412" lon="-0.68301">
        <ele>49</ele>
        <time>2011-09-20T15:10:40Z</time>
      </trkpt>
      <trkpt lat="46.31411" lon="-0.6831">
        <ele>50</ele>
        <time>2011-09-20T15:10:45Z</time>
      </trkpt>
      <trkpt lat="46.31413" lon="-0.68319">
        <ele>50</ele>
        <time>2011-09-20T15:10:50Z</time>
      </trkpt>
      <trkpt lat="46.31415" lon="-0.68327">
        <ele>52</ele>
        <time>2011-09-20T15:10:55Z</time>
      </trkpt>
      <trkpt lat="46.31416" lon="-0.68333">
        <ele>52</ele>
        <time>2011-09-20T15:11:00Z</time>
      </trkpt>
      <trkpt lat="46.31417" lon="-0.68343">
        <ele>52</ele>
        <time>2011-09-20T15:11:05Z</time>
      </trkpt>
      <trkpt lat="46.31419" lon="-0.68351">
        <ele>53</ele>
        <time>2011-09-20T15:11:10Z</time>
      </trkpt>
      <trkpt lat="46.31423" lon="-0.68355">
        <ele>52</ele>
        <time>2011-09-20T15:11:15Z</time>
      </trkpt>
      <trkpt lat="46.31427" lon="-0.68365">
        <ele>52</ele>
        <time>2011-09-20T15:11:20Z</time>
      </trkpt>
      <trkpt lat="46.3143" lon="-0.68372">
        <ele>53</ele>
        <time>2011-09-20T15:11:25Z</time>
      </trkpt>
      <trkpt lat="46.31433" lon="-0.68377">
        <ele>56</ele>
        <time>2011-09-20T15:11:30Z</time>
      </trkpt>
      <trkpt lat="46.31435" lon="-0.68389">
        <ele>55</ele>
        <time>2011-09-20T15:11:35Z</time>
      </trkpt>
      <trkpt lat="46.31438" lon="-0.68395">
        <ele>55</ele>
        <time>2011-09-20T15:11:40Z</time>
      </trkpt>
      <trkpt lat="46.31441" lon="-0.68403">
        <ele>52</ele>
        <time>2011-09-20T15:11:45Z</time>
      </trkpt>
      <trkpt lat="46.31442" lon="-0.68409">
        <ele>53</ele>
        <time>2011-09-20T15:11:50Z</time>
      </trkpt>
      <trkpt lat="46.31445" lon="-0.68417">
        <ele>54</ele>
        <time>2011-09-20T15:11:55Z</time>
      </trkpt>
      <trkpt lat="46.31448" lon="-0.68425">
        <ele>55</ele>
        <time>2011-09-20T15:12:00Z</time>
      </trkpt>
      <trkpt lat="46.31451" lon="-0.68434">
        <ele>55</ele>
        <time>2011-09-20T15:12:05Z</time>
      </trkpt>
      <trkpt lat="46.31453" lon="-0.68443">
        <ele>54</ele>
        <time>2011-09-20T15:12:10Z</time>
      </trkpt>
      <trkpt lat="46.31459" lon="-0.68449">
        <ele>54</ele>
        <time>2011-09-20T15:12:15Z</time>
      </trkpt>
      <trkpt lat="46.31464" lon="-0.68457">
        <ele>53</ele>
        <time>2011-09-20T15:12:20Z</time>
      </trkpt>
      <trkpt lat="46.31465" lon="-0.68464">
        <ele>54</ele>
        <time>2011-09-20T15:12:25Z</time>
      </trkpt>
      <trkpt lat="46.31465" lon="-0.68472">
        <ele>54</ele>
        <time>2011-09-20T15:12:30Z</time>
      </trkpt>
      <trkpt lat="46.31465" lon="-0.68481">
        <ele>53</ele>
        <time>2011-09-20T15:12:35Z</time>
      </trkpt>
      <trkpt lat="46.31469" lon="-0.68491">
        <ele>52</ele>
        <time>2011-09-20T15:12:40Z</time>
      </trkpt>
      <trkpt lat="46.31472" lon="-0.68497">
        <ele>52</ele>
        <time>2011-09-20T15:12:45Z</time>
      </trkpt>
      <trkpt lat="46.31475" lon="-0.68505">
        <ele>51</ele>
        <time>2011-09-20T15:12:50Z</time>
      </trkpt>
      <trkpt lat="46.31475" lon="-0.68513">
        <ele>52</ele>
        <time>2011-09-20T15:12:55Z</time>
      </trkpt>
      <trkpt lat="46.31478" lon="-0.68522">
        <ele>52</ele>
        <time>2011-09-20T15:13:00Z</time>
      </trkpt>
      <trkpt lat="46.3148" lon="-0.68529">
        <ele>51</ele>
        <time>2011-09-20T15:13:05Z</time>
      </trkpt>
      <trkpt lat="46.31483" lon="-0.68537">
        <ele>51</ele>
        <time>2011-09-20T15:13:10Z</time>
      </trkpt>
      <trkpt lat="46.31486" lon="-0.68545">
        <ele>52</ele>
        <time>2011-09-20T15:13:15Z</time>
      </trkpt>
      <trkpt lat="46.31489" lon="-0.68551">
        <ele>51</ele>
        <time>2011-09-20T15:13:20Z</time>
      </trkpt>
      <trkpt lat="46.31494" lon="-0.68558">
        <ele>51</ele>
        <time>2011-09-20T15:13:25Z</time>
      </trkpt>
      <trkpt lat="46.31499" lon="-0.68566">
        <ele>50</ele>
        <time>2011-09-20T15:13:30Z</time>
      </trkpt>
      <trkpt lat="46.315" lon="-0.68572">
        <ele>50</ele>
        <time>2011-09-20T15:13:35Z</time>
      </trkpt>
      <trkpt lat="46.31503" lon="-0.68579">
        <ele>51</ele>
        <time>2011-09-20T15:13:40Z</time>
      </trkpt>
      <trkpt lat="46.31506" lon="-0.68589">
        <ele>50</ele>
        <time>2011-09-20T15:13:45Z</time>
      </trkpt>
      <trkpt lat="46.31508" lon="-0.68597">
        <ele>50</ele>
        <time>2011-09-20T15:13:50Z</time>
      </trkpt>
      <trkpt lat="46.3151" lon="-0.68605">
        <ele>50</ele>
        <time>2011-09-20T15:13:55Z</time>
      </trkpt>
      <trkpt lat="46.31512" lon="-0.68611">
        <ele>52</ele>
        <time>2011-09-20T15:14:00Z</time>
      </trkpt>
      <trkpt lat="46.31516" lon="-0.6862">
        <ele>51</ele>
        <time>2011-09-20T15:14:05Z</time>
      </trkpt>
      <trkpt lat="46.31522" lon="-0.6863">
        <ele>51</ele>
        <time>2011-09-20T15:14:10Z</time>
      </trkpt>
      <trkpt lat="46.31527" lon="-0.68636">
        <ele>50</ele>
        <time>2011-09-20T15:14:15Z</time>
      </trkpt>
      <trkpt lat="46.3153" lon="-0.68643">
        <ele>49</ele>
        <time>2011-09-20T15:14:20Z</time>
      </trkpt>
      <trkpt lat="46.31531" lon="-0.68652">
        <ele>49</ele>
        <time>2011-09-20T15:14:25Z</time>
      </trkpt>
      <trkpt lat="46.31532" lon="-0.68659">
        <ele>50</ele>
        <time>2011-09-20T15:14:30Z</time>
      </trkpt>
      <trkpt lat="46.31532" lon="-0.68665">
        <ele>52</ele>
        <time>2011-09-20T15:14:35Z</time>
      </trkpt>
      <trkpt lat="46.31537" lon="-0.68672">
        <ele>52</ele>
        <time>2011-09-20T15:14:40Z</time>
      </trkpt>
      <trkpt lat="46.31541" lon="-0.68677">
        <ele>53</ele>
        <time>2011-09-20T15:14:45Z</time>
      </trkpt>
      <trkpt lat="46.3154" lon="-0.68685">
        <ele>53</ele>
        <time>2011-09-20T15:14:50Z</time>
      </trkpt>
      <trkpt lat="46.31544" lon="-0.68694">
        <ele>51</ele>
        <time>2011-09-20T15:14:55Z</time>
      </trkpt>
      <trkpt lat="46.31552" lon="-0.68697">
        <ele>51</ele>
        <time>2011-09-20T15:15:00Z</time>
      </trkpt>
      <trkpt lat="46.31562" lon="-0.68695">
        <ele>53</ele>
        <time>2011-09-20T15:15:05Z</time>
      </trkpt>
      <trkpt lat="46.31571" lon="-0.68695">
        <ele>55</ele>
        <time>2011-09-20T15:15:10Z</time>
      </trkpt>
      <trkpt lat="46.31578" lon="-0.68692">
        <ele>56</ele>
        <time>2011-09-20T15:15:15Z</time>
      </trkpt>
      <trkpt lat="46.31586" lon="-0.68691">
        <ele>58</ele>
        <time>2011-09-20T15:15:20Z</time>
      </trkpt>
      <trkpt lat="46.31592" lon="-0.68689">
        <ele>62</ele>
        <time>2011-09-20T15:15:25Z</time>
      </trkpt>
      <trkpt lat="46.31593" lon="-0.68685">
        <ele>64</ele>
        <time>2011-09-20T15:15:30Z</time>
      </trkpt>
      <trkpt lat="46.3159" lon="-0.68682">
        <ele>60</ele>
        <time>2011-09-20T15:15:35Z</time>
      </trkpt>
      <trkpt lat="46.31592" lon="-0.68687">
        <ele>59</ele>
        <time>2011-09-20T15:15:40Z</time>
      </trkpt>
      <trkpt lat="46.31591" lon="-0.68695">
        <ele>59</ele>
        <time>2011-09-20T15:15:45Z</time>
      </trkpt>
      <trkpt lat="46.31591" lon="-0.68704">
        <ele>57</ele>
        <time>2011-09-20T15:15:50Z</time>
      </trkpt>
      <trkpt lat="46.31591" lon="-0.68712">
        <ele>57</ele>
        <time>2011-09-20T15:15:55Z</time>
      </trkpt>
      <trkpt lat="46.31591" lon="-0.6872">
        <ele>58</ele>
        <time>2011-09-20T15:16:00Z</time>
      </trkpt>
      <trkpt lat="46.31589" lon="-0.68728">
        <ele>58</ele>
        <time>2011-09-20T15:16:05Z</time>
      </trkpt>
      <trkpt lat="46.31588" lon="-0.68737">
        <ele>59</ele>
        <time>2011-09-20T15:16:10Z</time>
      </trkpt>
      <trkpt lat="46.31589" lon="-0.68746">
        <ele>59</ele>
        <time>2011-09-20T15:16:15Z</time>
      </trkpt>
      <trkpt lat="46.31589" lon="-0.68753">
        <ele>60</ele>
        <time>2011-09-20T15:16:20Z</time>
      </trkpt>
      <trkpt lat="46.31589" lon="-0.68762">
        <ele>60</ele>
        <time>2011-09-20T15:16:25Z</time>
      </trkpt>
      <trkpt lat="46.31589" lon="-0.68769">
        <ele>59</ele>
        <time>2011-09-20T15:16:30Z</time>
      </trkpt>
      <trkpt lat="46.3159" lon="-0.68776">
        <ele>59</ele>
        <time>2011-09-20T15:16:35Z</time>
      </trkpt>
      <trkpt lat="46.31592" lon="-0.68786">
        <ele>59</ele>
        <time>2011-09-20T15:16:40Z</time>
      </trkpt>
      <trkpt lat="46.31592" lon="-0.68794">
        <ele>58</ele>
        <time>2011-09-20T15:16:45Z</time>
      </trkpt>
      <trkpt lat="46.31593" lon="-0.68802">
        <ele>58</ele>
        <time>2011-09-20T15:16:50Z</time>
      </trkpt>
      <trkpt lat="46.31592" lon="-0.6881">
        <ele>59</ele>
        <time>2011-09-20T15:16:55Z</time>
      </trkpt>
      <trkpt lat="46.31592" lon="-0.68819">
        <ele>60</ele>
        <time>2011-09-20T15:17:00Z</time>
      </trkpt>
      <trkpt lat="46.31591" lon="-0.68829">
        <ele>61</ele>
        <time>2011-09-20T15:17:05Z</time>
      </trkpt>
      <trkpt lat="46.31592" lon="-0.68838">
        <ele>61</ele>
        <time>2011-09-20T15:17:10Z</time>
      </trkpt>
      <trkpt lat="46.31595" lon="-0.68845">
        <ele>62</ele>
        <time>2011-09-20T15:17:15Z</time>
      </trkpt>
      <trkpt lat="46.31596" lon="-0.68854">
        <ele>61</ele>
        <time>2011-09-20T15:17:20Z</time>
      </trkpt>
      <trkpt lat="46.31593" lon="-0.68864">
        <ele>63</ele>
        <time>2011-09-20T15:17:25Z</time>
      </trkpt>
      <trkpt lat="46.31595" lon="-0.68868">
        <ele>64</ele>
        <time>2011-09-20T15:17:30Z</time>
      </trkpt>
      <trkpt lat="46.31597" lon="-0.68874">
        <ele>65</ele>
        <time>2011-09-20T15:17:35Z</time>
      </trkpt>
      <trkpt lat="46.31597" lon="-0.68883">
        <ele>65</ele>
        <time>2011-09-20T15:17:40Z</time>
      </trkpt>
      <trkpt lat="46.31596" lon="-0.68891">
        <ele>64</ele>
        <time>2011-09-20T15:17:45Z</time>
      </trkpt>
      <trkpt lat="46.31595" lon="-0.68897">
        <ele>64</ele>
        <time>2011-09-20T15:17:50Z</time>
      </trkpt>
      <trkpt lat="46.31595" lon="-0.68909">
        <ele>64</ele>
        <time>2011-09-20T15:17:55Z</time>
      </trkpt>
      <trkpt lat="46.31595" lon="-0.68919">
        <ele>63</ele>
        <time>2011-09-20T15:18:00Z</time>
      </trkpt>
      <trkpt lat="46.31594" lon="-0.68928">
        <ele>63</ele>
        <time>2011-09-20T15:18:05Z</time>
      </trkpt>
      <trkpt lat="46.31593" lon="-0.68939">
        <ele>63</ele>
        <time>2011-09-20T15:18:10Z</time>
      </trkpt>
      <trkpt lat="46.31596" lon="-0.68948">
        <ele>63</ele>
        <time>2011-09-20T15:18:15Z</time>
      </trkpt>
      <trkpt lat="46.31596" lon="-0.68955">
        <ele>62</ele>
        <time>2011-09-20T15:18:20Z</time>
      </trkpt>
      <trkpt lat="46.31596" lon="-0.68964">
        <ele>59</ele>
        <time>2011-09-20T15:18:25Z</time>
      </trkpt>
      <trkpt lat="46.31594" lon="-0.68973">
        <ele>59</ele>
        <time>2011-09-20T15:18:30Z</time>
      </trkpt>
      <trkpt lat="46.31595" lon="-0.68981">
        <ele>60</ele>
        <time>2011-09-20T15:18:35Z</time>
      </trkpt>
      <trkpt lat="46.31597" lon="-0.68989">
        <ele>61</ele>
        <time>2011-09-20T15:18:40Z</time>
      </trkpt>
      <trkpt lat="46.31596" lon="-0.68998">
        <ele>64</ele>
        <time>2011-09-20T15:18:45Z</time>
      </trkpt>
      <trkpt lat="46.31596" lon="-0.69005">
        <ele>64</ele>
        <time>2011-09-20T15:18:50Z</time>
      </trkpt>
      <trkpt lat="46.31595" lon="-0.69015">
        <ele>64</ele>
        <time>2011-09-20T15:18:55Z</time>
      </trkpt>
      <trkpt lat="46.31594" lon="-0.69022">
        <ele>62</ele>
        <time>2011-09-20T15:19:00Z</time>
      </trkpt>
      <trkpt lat="46.31593" lon="-0.69031">
        <ele>62</ele>
        <time>2011-09-20T15:19:05Z</time>
      </trkpt>
      <trkpt lat="46.31594" lon="-0.69038">
        <ele>62</ele>
        <time>2011-09-20T15:19:10Z</time>
      </trkpt>
      <trkpt lat="46.31593" lon="-0.69044">
        <ele>62</ele>
        <time>2011-09-20T15:19:15Z</time>
      </trkpt>
      <trkpt lat="46.31594" lon="-0.69054">
        <ele>64</ele>
        <time>2011-09-20T15:19:20Z</time>
      </trkpt>
      <trkpt lat="46.31592" lon="-0.69062">
        <ele>64</ele>
        <time>2011-09-20T15:19:25Z</time>
      </trkpt>
      <trkpt lat="46.31592" lon="-0.6907">
        <ele>64</ele>
        <time>2011-09-20T15:19:30Z</time>
      </trkpt>
      <trkpt lat="46.31595" lon="-0.69077">
        <ele>64</ele>
        <time>2011-09-20T15:19:35Z</time>
      </trkpt>
      <trkpt lat="46.31595" lon="-0.69086">
        <ele>63</ele>
        <time>2011-09-20T15:19:40Z</time>
      </trkpt>
      <trkpt lat="46.31591" lon="-0.69094">
        <ele>63</ele>
        <time>2011-09-20T15:19:45Z</time>
      </trkpt>
      <trkpt lat="46.31592" lon="-0.691">
        <ele>64</ele>
        <time>2011-09-20T15:19:50Z</time>
      </trkpt>
      <trkpt lat="46.31591" lon="-0.69109">
        <ele>64</ele>
        <time>2011-09-20T15:19:55Z</time>
      </trkpt>
      <trkpt lat="46.3159" lon="-0.69118">
        <ele>65</ele>
        <time>2011-09-20T15:20:00Z</time>
      </trkpt>
      <trkpt lat="46.3159" lon="-0.69126">
        <ele>64</ele>
        <time>2011-09-20T15:20:05Z</time>
      </trkpt>
      <trkpt lat="46.31591" lon="-0.69137">
        <ele>62</ele>
        <time>2011-09-20T15:20:10Z</time>
      </trkpt>
      <trkpt lat="46.31591" lon="-0.69147">
        <ele>61</ele>
        <time>2011-09-20T15:20:15Z</time>
      </trkpt>
      <trkpt lat="46.3159" lon="-0.69154">
        <ele>61</ele>
        <time>2011-09-20T15:20:20Z</time>
      </trkpt>
      <trkpt lat="46.31594" lon="-0.69165">
        <ele>58</ele>
        <time>2011-09-20T15:20:25Z</time>
      </trkpt>
      <trkpt lat="46.31595" lon="-0.69174">
        <ele>58</ele>
        <time>2011-09-20T15:20:30Z</time>
      </trkpt>
      <trkpt lat="46.31595" lon="-0.69182">
        <ele>59</ele>
        <time>2011-09-20T15:20:35Z</time>
      </trkpt>
      <trkpt lat="46.31599" lon="-0.6919">
        <ele>53</ele>
        <time>2011-09-20T15:20:40Z</time>
      </trkpt>
      <trkpt lat="46.316" lon="-0.69198">
        <ele>53</ele>
        <time>2011-09-20T15:20:45Z</time>
      </trkpt>
      <trkpt lat="46.31598" lon="-0.69208">
        <ele>54</ele>
        <time>2011-09-20T15:20:50Z</time>
      </trkpt>
      <trkpt lat="46.31592" lon="-0.69217">
        <ele>57</ele>
        <time>2011-09-20T15:20:55Z</time>
      </trkpt>
      <trkpt lat="46.31591" lon="-0.69221">
        <ele>60</ele>
        <time>2011-09-20T15:21:00Z</time>
      </trkpt>
      <trkpt lat="46.31592" lon="-0.69229">
        <ele>61</ele>
        <time>2011-09-20T15:21:05Z</time>
      </trkpt>
      <trkpt lat="46.31592" lon="-0.6924">
        <ele>60</ele>
        <time>2011-09-20T15:21:10Z</time>
      </trkpt>
      <trkpt lat="46.31592" lon="-0.69247">
        <ele>62</ele>
        <time>2011-09-20T15:21:15Z</time>
      </trkpt>
      <trkpt lat="46.31589" lon="-0.69255">
        <ele>60</ele>
        <time>2011-09-20T15:21:20Z</time>
      </trkpt>
      <trkpt lat="46.31585" lon="-0.69263">
        <ele>63</ele>
        <time>2011-09-20T15:21:25Z</time>
      </trkpt>
      <trkpt lat="46.31586" lon="-0.69278">
        <ele>62</ele>
        <time>2011-09-20T15:21:30Z</time>
      </trkpt>
      <trkpt lat="46.31591" lon="-0.69285">
        <ele>60</ele>
        <time>2011-09-20T15:21:35Z</time>
      </trkpt>
      <trkpt lat="46.31593" lon="-0.69293">
        <ele>59</ele>
        <time>2011-09-20T15:21:40Z</time>
      </trkpt>
      <trkpt lat="46.31596" lon="-0.69308">
        <ele>57</ele>
        <time>2011-09-20T15:21:45Z</time>
      </trkpt>
      <trkpt lat="46.31597" lon="-0.69319">
        <ele>57</ele>
        <time>2011-09-20T15:21:50Z</time>
      </trkpt>
      <trkpt lat="46.31596" lon="-0.69326">
        <ele>55</ele>
        <time>2011-09-20T15:21:55Z</time>
      </trkpt>
      <trkpt lat="46.31595" lon="-0.69333">
        <ele>58</ele>
        <time>2011-09-20T15:22:00Z</time>
      </trkpt>
      <trkpt lat="46.31597" lon="-0.69344">
        <ele>59</ele>
        <time>2011-09-20T15:22:05Z</time>
      </trkpt>
      <trkpt lat="46.31602" lon="-0.69351">
        <ele>58</ele>
        <time>2011-09-20T15:22:10Z</time>
      </trkpt>
      <trkpt lat="46.31597" lon="-0.69363">
        <ele>58</ele>
        <time>2011-09-20T15:22:15Z</time>
      </trkpt>
      <trkpt lat="46.31598" lon="-0.69373">
        <ele>58</ele>
        <time>2011-09-20T15:22:20Z</time>
      </trkpt>
      <trkpt lat="46.316" lon="-0.69383">
        <ele>54</ele>
        <time>2011-09-20T15:22:25Z</time>
      </trkpt>
      <trkpt lat="46.31599" lon="-0.6939">
        <ele>52</ele>
        <time>2011-09-20T15:22:30Z</time>
      </trkpt>
      <trkpt lat="46.31606" lon="-0.69397">
        <ele>53</ele>
        <time>2011-09-20T15:22:35Z</time>
      </trkpt>
      <trkpt lat="46.31606" lon="-0.69406">
        <ele>54</ele>
        <time>2011-09-20T15:22:40Z</time>
      </trkpt>
      <trkpt lat="46.31606" lon="-0.69411">
        <ele>54</ele>
        <time>2011-09-20T15:22:45Z</time>
      </trkpt>
      <trkpt lat="46.31607" lon="-0.6942">
        <ele>55</ele>
        <time>2011-09-20T15:22:50Z</time>
      </trkpt>
      <trkpt lat="46.31608" lon="-0.69431">
        <ele>56</ele>
        <time>2011-09-20T15:22:55Z</time>
      </trkpt>
      <trkpt lat="46.31606" lon="-0.69439">
        <ele>59</ele>
        <time>2011-09-20T15:23:00Z</time>
      </trkpt>
      <trkpt lat="46.31608" lon="-0.69444">
        <ele>59</ele>
        <time>2011-09-20T15:23:05Z</time>
      </trkpt>
      <trkpt lat="46.31609" lon="-0.69452">
        <ele>62</ele>
        <time>2011-09-20T15:23:10Z</time>
      </trkpt>
      <trkpt lat="46.31608" lon="-0.69463">
        <ele>63</ele>
        <time>2011-09-20T15:23:15Z</time>
      </trkpt>
      <trkpt lat="46.31607" lon="-0.6947">
        <ele>62</ele>
        <time>2011-09-20T15:23:20Z</time>
      </trkpt>
      <trkpt lat="46.31611" lon="-0.69475">
        <ele>62</ele>
        <time>2011-09-20T15:23:25Z</time>
      </trkpt>
      <trkpt lat="46.31612" lon="-0.69478">
        <ele>60</ele>
        <time>2011-09-20T15:23:30Z</time>
      </trkpt>
      <trkpt lat="46.31615" lon="-0.69485">
        <ele>60</ele>
        <time>2011-09-20T15:23:35Z</time>
      </trkpt>
      <trkpt lat="46.31615" lon="-0.69491">
        <ele>61</ele>
        <time>2011-09-20T15:23:40Z</time>
      </trkpt>
      <trkpt lat="46.31616" lon="-0.69499">
        <ele>60</ele>
        <time>2011-09-20T15:23:45Z</time>
      </trkpt>
      <trkpt lat="46.31613" lon="-0.69506">
        <ele>60</ele>
        <time>2011-09-20T15:23:50Z</time>
      </trkpt>
      <trkpt lat="46.31615" lon="-0.69505">
        <ele>61</ele>
        <time>2011-09-20T15:23:55Z</time>
      </trkpt>
      <trkpt lat="46.31618" lon="-0.69512">
        <ele>61</ele>
        <time>2011-09-20T15:24:00Z</time>
      </trkpt>
      <trkpt lat="46.31616" lon="-0.69517">
        <ele>62</ele>
        <time>2011-09-20T15:24:05Z</time>
      </trkpt>
      <trkpt lat="46.31618" lon="-0.69516">
        <ele>60</ele>
        <time>2011-09-20T15:24:10Z</time>
      </trkpt>
      <trkpt lat="46.31613" lon="-0.69517">
        <ele>59</ele>
        <time>2011-09-20T15:24:15Z</time>
      </trkpt>
      <trkpt lat="46.31611" lon="-0.69523">
        <ele>58</ele>
        <time>2011-09-20T15:24:20Z</time>
      </trkpt>
      <trkpt lat="46.3161" lon="-0.69529">
        <ele>58</ele>
        <time>2011-09-20T15:24:25Z</time>
      </trkpt>
      <trkpt lat="46.31607" lon="-0.69533">
        <ele>58</ele>
        <time>2011-09-20T15:24:30Z</time>
      </trkpt>
      <trkpt lat="46.31607" lon="-0.69539">
        <ele>59</ele>
        <time>2011-09-20T15:24:35Z</time>
      </trkpt>
      <trkpt lat="46.31606" lon="-0.69547">
        <ele>59</ele>
        <time>2011-09-20T15:24:40Z</time>
      </trkpt>
      <trkpt lat="46.31603" lon="-0.69553">
        <ele>58</ele>
        <time>2011-09-20T15:24:45Z</time>
      </trkpt>
      <trkpt lat="46.31602" lon="-0.69557">
        <ele>59</ele>
        <time>2011-09-20T15:24:50Z</time>
      </trkpt>
      <trkpt lat="46.31596" lon="-0.6956">
        <ele>59</ele>
        <time>2011-09-20T15:24:55Z</time>
      </trkpt>
      <trkpt lat="46.31595" lon="-0.69563">
        <ele>59</ele>
        <time>2011-09-20T15:25:00Z</time>
      </trkpt>
      <trkpt lat="46.31595" lon="-0.69563">
        <ele>59</ele>
        <time>2011-09-20T15:25:05Z</time>
      </trkpt>
      <trkpt lat="46.31593" lon="-0.69563">
        <ele>59</ele>
        <time>2011-09-20T15:25:10Z</time>
      </trkpt>
      <trkpt lat="46.31586" lon="-0.69572">
        <ele>60</ele>
        <time>2011-09-20T15:25:20Z</time>
      </trkpt>
      <trkpt lat="46.31583" lon="-0.69583">
        <ele>59</ele>
        <time>2011-09-20T15:25:25Z</time>
      </trkpt>
      <trkpt lat="46.31578" lon="-0.69594">
        <ele>59</ele>
        <time>2011-09-20T15:25:30Z</time>
      </trkpt>
      <trkpt lat="46.31574" lon="-0.69599">
        <ele>59</ele>
        <time>2011-09-20T15:25:35Z</time>
      </trkpt>
      <trkpt lat="46.31574" lon="-0.69601">
        <ele>59</ele>
        <time>2011-09-20T15:25:40Z</time>
      </trkpt>
      <trkpt lat="46.31573" lon="-0.69602">
        <ele>58</ele>
        <time>2011-09-20T15:25:45Z</time>
      </trkpt>
      <trkpt lat="46.31573" lon="-0.69602">
        <ele>58</ele>
        <time>2011-09-20T15:25:50Z</time>
      </trkpt>
      <trkpt lat="46.31567" lon="-0.69617">
        <ele>55</ele>
        <time>2011-09-20T15:25:55Z</time>
      </trkpt>
      <trkpt lat="46.3156" lon="-0.69626">
        <ele>56</ele>
        <time>2011-09-20T15:26:00Z</time>
      </trkpt>
      <trkpt lat="46.31554" lon="-0.69635">
        <ele>56</ele>
        <time>2011-09-20T15:26:05Z</time>
      </trkpt>
      <trkpt lat="46.31546" lon="-0.69642">
        <ele>56</ele>
        <time>2011-09-20T15:26:10Z</time>
      </trkpt>
      <trkpt lat="46.3154" lon="-0.69648">
        <ele>55</ele>
        <time>2011-09-20T15:26:15Z</time>
      </trkpt>
      <trkpt lat="46.31538" lon="-0.69657">
        <ele>55</ele>
        <time>2011-09-20T15:26:20Z</time>
      </trkpt>
      <trkpt lat="46.31535" lon="-0.69662">
        <ele>57</ele>
        <time>2011-09-20T15:26:25Z</time>
      </trkpt>
      <trkpt lat="46.31532" lon="-0.69666">
        <ele>59</ele>
        <time>2011-09-20T15:26:30Z</time>
      </trkpt>
      <trkpt lat="46.3153" lon="-0.69673">
        <ele>58</ele>
        <time>2011-09-20T15:26:35Z</time>
      </trkpt>
      <trkpt lat="46.31526" lon="-0.69678">
        <ele>58</ele>
        <time>2011-09-20T15:26:40Z</time>
      </trkpt>
      <trkpt lat="46.31523" lon="-0.6968">
        <ele>58</ele>
        <time>2011-09-20T15:26:45Z</time>
      </trkpt>
      <trkpt lat="46.31523" lon="-0.69688">
        <ele>56</ele>
        <time>2011-09-20T15:26:50Z</time>
      </trkpt>
      <trkpt lat="46.31521" lon="-0.69693">
        <ele>55</ele>
        <time>2011-09-20T15:26:55Z</time>
      </trkpt>
      <trkpt lat="46.31518" lon="-0.69701">
        <ele>52</ele>
        <time>2011-09-20T15:27:00Z</time>
      </trkpt>
      <trkpt lat="46.31516" lon="-0.69707">
        <ele>54</ele>
        <time>2011-09-20T15:27:05Z</time>
      </trkpt>
      <trkpt lat="46.31512" lon="-0.69712">
        <ele>54</ele>
        <time>2011-09-20T15:27:10Z</time>
      </trkpt>
      <trkpt lat="46.31508" lon="-0.69716">
        <ele>53</ele>
        <time>2011-09-20T15:27:15Z</time>
      </trkpt>
      <trkpt lat="46.31503" lon="-0.69723">
        <ele>52</ele>
        <time>2011-09-20T15:27:20Z</time>
      </trkpt>
      <trkpt lat="46.315" lon="-0.69728">
        <ele>52</ele>
        <time>2011-09-20T15:27:25Z</time>
      </trkpt>
      <trkpt lat="46.31496" lon="-0.69734">
        <ele>52</ele>
        <time>2011-09-20T15:27:30Z</time>
      </trkpt>
      <trkpt lat="46.31493" lon="-0.69739">
        <ele>54</ele>
        <time>2011-09-20T15:27:35Z</time>
      </trkpt>
      <trkpt lat="46.3149" lon="-0.6975">
        <ele>54</ele>
        <time>2011-09-20T15:27:40Z</time>
      </trkpt>
      <trkpt lat="46.31488" lon="-0.69758">
        <ele>49</ele>
        <time>2011-09-20T15:27:45Z</time>
      </trkpt>
      <trkpt lat="46.31486" lon="-0.69764">
        <ele>47</ele>
        <time>2011-09-20T15:27:50Z</time>
      </trkpt>
      <trkpt lat="46.31478" lon="-0.69771">
        <ele>52</ele>
        <time>2011-09-20T15:27:55Z</time>
      </trkpt>
      <trkpt lat="46.31475" lon="-0.69776">
        <ele>54</ele>
        <time>2011-09-20T15:28:00Z</time>
      </trkpt>
      <trkpt lat="46.31473" lon="-0.69781">
        <ele>56</ele>
        <time>2011-09-20T15:28:05Z</time>
      </trkpt>
      <trkpt lat="46.3147" lon="-0.69789">
        <ele>57</ele>
        <time>2011-09-20T15:28:10Z</time>
      </trkpt>
      <trkpt lat="46.31465" lon="-0.69795">
        <ele>58</ele>
        <time>2011-09-20T15:28:15Z</time>
      </trkpt>
      <trkpt lat="46.31463" lon="-0.698">
        <ele>56</ele>
        <time>2011-09-20T15:28:20Z</time>
      </trkpt>
      <trkpt lat="46.31463" lon="-0.69809">
        <ele>56</ele>
        <time>2011-09-20T15:28:25Z</time>
      </trkpt>
      <trkpt lat="46.3146" lon="-0.69813">
        <ele>57</ele>
        <time>2011-09-20T15:28:30Z</time>
      </trkpt>
      <trkpt lat="46.31456" lon="-0.69818">
        <ele>58</ele>
        <time>2011-09-20T15:28:35Z</time>
      </trkpt>
      <trkpt lat="46.31451" lon="-0.69823">
        <ele>59</ele>
        <time>2011-09-20T15:28:40Z</time>
      </trkpt>
      <trkpt lat="46.31447" lon="-0.6983">
        <ele>58</ele>
        <time>2011-09-20T15:28:45Z</time>
      </trkpt>
      <trkpt lat="46.31444" lon="-0.69837">
        <ele>57</ele>
        <time>2011-09-20T15:28:50Z</time>
      </trkpt>
      <trkpt lat="46.31441" lon="-0.69842">
        <ele>55</ele>
        <time>2011-09-20T15:28:55Z</time>
      </trkpt>
      <trkpt lat="46.31441" lon="-0.69846">
        <ele>55</ele>
        <time>2011-09-20T15:29:00Z</time>
      </trkpt>
      <trkpt lat="46.3144" lon="-0.69851">
        <ele>54</ele>
        <time>2011-09-20T15:29:05Z</time>
      </trkpt>
      <trkpt lat="46.31436" lon="-0.6986">
        <ele>54</ele>
        <time>2011-09-20T15:29:10Z</time>
      </trkpt>
      <trkpt lat="46.31432" lon="-0.69865">
        <ele>54</ele>
        <time>2011-09-20T15:29:15Z</time>
      </trkpt>
      <trkpt lat="46.31429" lon="-0.69872">
        <ele>53</ele>
        <time>2011-09-20T15:29:20Z</time>
      </trkpt>
      <trkpt lat="46.31423" lon="-0.69876">
        <ele>54</ele>
        <time>2011-09-20T15:29:25Z</time>
      </trkpt>
      <trkpt lat="46.31419" lon="-0.69883">
        <ele>52</ele>
        <time>2011-09-20T15:29:30Z</time>
      </trkpt>
      <trkpt lat="46.31416" lon="-0.69887">
        <ele>53</ele>
        <time>2011-09-20T15:29:35Z</time>
      </trkpt>
      <trkpt lat="46.31412" lon="-0.69895">
        <ele>54</ele>
        <time>2011-09-20T15:29:40Z</time>
      </trkpt>
      <trkpt lat="46.31406" lon="-0.69897">
        <ele>55</ele>
        <time>2011-09-20T15:29:45Z</time>
      </trkpt>
      <trkpt lat="46.31402" lon="-0.69902">
        <ele>57</ele>
        <time>2011-09-20T15:29:50Z</time>
      </trkpt>
      <trkpt lat="46.31399" lon="-0.69906">
        <ele>59</ele>
        <time>2011-09-20T15:29:55Z</time>
      </trkpt>
      <trkpt lat="46.31397" lon="-0.69912">
        <ele>60</ele>
        <time>2011-09-20T15:30:00Z</time>
      </trkpt>
      <trkpt lat="46.31394" lon="-0.69918">
        <ele>60</ele>
        <time>2011-09-20T15:30:05Z</time>
      </trkpt>
      <trkpt lat="46.31396" lon="-0.69923">
        <ele>58</ele>
        <time>2011-09-20T15:30:10Z</time>
      </trkpt>
      <trkpt lat="46.3139" lon="-0.69931">
        <ele>55</ele>
        <time>2011-09-20T15:30:15Z</time>
      </trkpt>
      <trkpt lat="46.31387" lon="-0.69934">
        <ele>57</ele>
        <time>2011-09-20T15:30:20Z</time>
      </trkpt>
      <trkpt lat="46.31387" lon="-0.6994">
        <ele>57</ele>
        <time>2011-09-20T15:30:25Z</time>
      </trkpt>
      <trkpt lat="46.31383" lon="-0.69944">
        <ele>57</ele>
        <time>2011-09-20T15:30:30Z</time>
      </trkpt>
      <trkpt lat="46.3138" lon="-0.69946">
        <ele>56</ele>
        <time>2011-09-20T15:30:35Z</time>
      </trkpt>
      <trkpt lat="46.31377" lon="-0.69951">
        <ele>55</ele>
        <time>2011-09-20T15:30:40Z</time>
      </trkpt>
      <trkpt lat="46.31372" lon="-0.69953">
        <ele>56</ele>
        <time>2011-09-20T15:30:45Z</time>
      </trkpt>
      <trkpt lat="46.31365" lon="-0.69957">
        <ele>54</ele>
        <time>2011-09-20T15:30:50Z</time>
      </trkpt>
      <trkpt lat="46.31357" lon="-0.6996">
        <ele>54</ele>
        <time>2011-09-20T15:30:55Z</time>
      </trkpt>
      <trkpt lat="46.31357" lon="-0.6997">
        <ele>49</ele>
        <time>2011-09-20T15:31:00Z</time>
      </trkpt>
      <trkpt lat="46.31352" lon="-0.69975">
        <ele>47</ele>
        <time>2011-09-20T15:31:05Z</time>
      </trkpt>
      <trkpt lat="46.31348" lon="-0.69982">
        <ele>50</ele>
        <time>2011-09-20T15:31:10Z</time>
      </trkpt>
      <trkpt lat="46.31345" lon="-0.69986">
        <ele>53</ele>
        <time>2011-09-20T15:31:15Z</time>
      </trkpt>
      <trkpt lat="46.31342" lon="-0.69993">
        <ele>52</ele>
        <time>2011-09-20T15:31:20Z</time>
      </trkpt>
      <trkpt lat="46.31335" lon="-0.70001">
        <ele>54</ele>
        <time>2011-09-20T15:31:25Z</time>
      </trkpt>
      <trkpt lat="46.31332" lon="-0.70008">
        <ele>56</ele>
        <time>2011-09-20T15:31:30Z</time>
      </trkpt>
      <trkpt lat="46.3133" lon="-0.70015">
        <ele>56</ele>
        <time>2011-09-20T15:31:35Z</time>
      </trkpt>
      <trkpt lat="46.3133" lon="-0.70025">
        <ele>54</ele>
        <time>2011-09-20T15:31:40Z</time>
      </trkpt>
      <trkpt lat="46.31327" lon="-0.7003">
        <ele>55</ele>
        <time>2011-09-20T15:31:45Z</time>
      </trkpt>
      <trkpt lat="46.31324" lon="-0.70035">
        <ele>56</ele>
        <time>2011-09-20T15:31:50Z</time>
      </trkpt>
      <trkpt lat="46.3132" lon="-0.70041">
        <ele>55</ele>
        <time>2011-09-20T15:31:55Z</time>
      </trkpt>
      <trkpt lat="46.31318" lon="-0.70047">
        <ele>55</ele>
        <time>2011-09-20T15:32:00Z</time>
      </trkpt>
      <trkpt lat="46.31315" lon="-0.70057">
        <ele>54</ele>
        <time>2011-09-20T15:32:05Z</time>
      </trkpt>
      <trkpt lat="46.3131" lon="-0.70061">
        <ele>54</ele>
        <time>2011-09-20T15:32:10Z</time>
      </trkpt>
      <trkpt lat="46.31308" lon="-0.70068">
        <ele>53</ele>
        <time>2011-09-20T15:32:15Z</time>
      </trkpt>
      <trkpt lat="46.31303" lon="-0.70074">
        <ele>57</ele>
        <time>2011-09-20T15:32:20Z</time>
      </trkpt>
      <trkpt lat="46.31299" lon="-0.7008">
        <ele>57</ele>
        <time>2011-09-20T15:32:25Z</time>
      </trkpt>
      <trkpt lat="46.31295" lon="-0.70088">
        <ele>55</ele>
        <time>2011-09-20T15:32:30Z</time>
      </trkpt>
      <trkpt lat="46.31291" lon="-0.70094">
        <ele>56</ele>
        <time>2011-09-20T15:32:35Z</time>
      </trkpt>
      <trkpt lat="46.31289" lon="-0.70099">
        <ele>56</ele>
        <time>2011-09-20T15:32:40Z</time>
      </trkpt>
      <trkpt lat="46.31287" lon="-0.70105">
        <ele>56</ele>
        <time>2011-09-20T15:32:45Z</time>
      </trkpt>
      <trkpt lat="46.31283" lon="-0.70111">
        <ele>60</ele>
        <time>2011-09-20T15:32:50Z</time>
      </trkpt>
      <trkpt lat="46.31281" lon="-0.70118">
        <ele>60</ele>
        <time>2011-09-20T15:32:55Z</time>
      </trkpt>
      <trkpt lat="46.31275" lon="-0.70126">
        <ele>58</ele>
        <time>2011-09-20T15:33:00Z</time>
      </trkpt>
      <trkpt lat="46.31271" lon="-0.70132">
        <ele>59</ele>
        <time>2011-09-20T15:33:05Z</time>
      </trkpt>
      <trkpt lat="46.31267" lon="-0.70142">
        <ele>58</ele>
        <time>2011-09-20T15:33:10Z</time>
      </trkpt>
      <trkpt lat="46.31265" lon="-0.70145">
        <ele>57</ele>
        <time>2011-09-20T15:33:15Z</time>
      </trkpt>
      <trkpt lat="46.31261" lon="-0.70152">
        <ele>57</ele>
        <time>2011-09-20T15:33:20Z</time>
      </trkpt>
      <trkpt lat="46.31256" lon="-0.70161">
        <ele>55</ele>
        <time>2011-09-20T15:33:25Z</time>
      </trkpt>
      <trkpt lat="46.31254" lon="-0.70169">
        <ele>56</ele>
        <time>2011-09-20T15:33:30Z</time>
      </trkpt>
      <trkpt lat="46.31251" lon="-0.70176">
        <ele>55</ele>
        <time>2011-09-20T15:33:35Z</time>
      </trkpt>
      <trkpt lat="46.31246" lon="-0.70181">
        <ele>57</ele>
        <time>2011-09-20T15:33:40Z</time>
      </trkpt>
      <trkpt lat="46.31243" lon="-0.70188">
        <ele>57</ele>
        <time>2011-09-20T15:33:45Z</time>
      </trkpt>
      <trkpt lat="46.31239" lon="-0.7019">
        <ele>59</ele>
        <time>2011-09-20T15:33:50Z</time>
      </trkpt>
      <trkpt lat="46.31238" lon="-0.70193">
        <ele>60</ele>
        <time>2011-09-20T15:33:55Z</time>
      </trkpt>
      <trkpt lat="46.31235" lon="-0.70204">
        <ele>59</ele>
        <time>2011-09-20T15:34:00Z</time>
      </trkpt>
      <trkpt lat="46.31232" lon="-0.7021">
        <ele>59</ele>
        <time>2011-09-20T15:34:05Z</time>
      </trkpt>
      <trkpt lat="46.3123" lon="-0.70218">
        <ele>59</ele>
        <time>2011-09-20T15:34:10Z</time>
      </trkpt>
      <trkpt lat="46.31225" lon="-0.70226">
        <ele>57</ele>
        <time>2011-09-20T15:34:15Z</time>
      </trkpt>
      <trkpt lat="46.31224" lon="-0.70233">
        <ele>58</ele>
        <time>2011-09-20T15:34:20Z</time>
      </trkpt>
      <trkpt lat="46.31222" lon="-0.70236">
        <ele>59</ele>
        <time>2011-09-20T15:34:25Z</time>
      </trkpt>
      <trkpt lat="46.31221" lon="-0.70243">
        <ele>59</ele>
        <time>2011-09-20T15:34:30Z</time>
      </trkpt>
      <trkpt lat="46.31217" lon="-0.70254">
        <ele>58</ele>
        <time>2011-09-20T15:34:35Z</time>
      </trkpt>
      <trkpt lat="46.31216" lon="-0.70263">
        <ele>59</ele>
        <time>2011-09-20T15:34:40Z</time>
      </trkpt>
      <trkpt lat="46.31208" lon="-0.70272">
        <ele>59</ele>
        <time>2011-09-20T15:34:45Z</time>
      </trkpt>
      <trkpt lat="46.31202" lon="-0.7028">
        <ele>57</ele>
        <time>2011-09-20T15:34:50Z</time>
      </trkpt>
      <trkpt lat="46.31199" lon="-0.70287">
        <ele>56</ele>
        <time>2011-09-20T15:34:55Z</time>
      </trkpt>
      <trkpt lat="46.31195" lon="-0.70292">
        <ele>57</ele>
        <time>2011-09-20T15:35:00Z</time>
      </trkpt>
      <trkpt lat="46.3119" lon="-0.70299">
        <ele>56</ele>
        <time>2011-09-20T15:35:05Z</time>
      </trkpt>
      <trkpt lat="46.31185" lon="-0.7031">
        <ele>57</ele>
        <time>2011-09-20T15:35:10Z</time>
      </trkpt>
      <trkpt lat="46.31179" lon="-0.70317">
        <ele>57</ele>
        <time>2011-09-20T15:35:15Z</time>
      </trkpt>
      <trkpt lat="46.31174" lon="-0.7032">
        <ele>59</ele>
        <time>2011-09-20T15:35:20Z</time>
      </trkpt>
      <trkpt lat="46.31168" lon="-0.70325">
        <ele>59</ele>
        <time>2011-09-20T15:35:25Z</time>
      </trkpt>
      <trkpt lat="46.31166" lon="-0.70332">
        <ele>61</ele>
        <time>2011-09-20T15:35:30Z</time>
      </trkpt>
      <trkpt lat="46.31164" lon="-0.70334">
        <ele>62</ele>
        <time>2011-09-20T15:35:35Z</time>
      </trkpt>
      <trkpt lat="46.3116" lon="-0.70337">
        <ele>66</ele>
        <time>2011-09-20T15:35:40Z</time>
      </trkpt>
      <trkpt lat="46.31158" lon="-0.70343">
        <ele>66</ele>
        <time>2011-09-20T15:35:45Z</time>
      </trkpt>
      <trkpt lat="46.31161" lon="-0.70364">
        <ele>61</ele>
        <time>2011-09-20T15:35:50Z</time>
      </trkpt>
      <trkpt lat="46.31158" lon="-0.70377">
        <ele>60</ele>
        <time>2011-09-20T15:35:55Z</time>
      </trkpt>
      <trkpt lat="46.31156" lon="-0.7039">
        <ele>59</ele>
        <time>2011-09-20T15:36:00Z</time>
      </trkpt>
      <trkpt lat="46.31154" lon="-0.70398">
        <ele>59</ele>
        <time>2011-09-20T15:36:05Z</time>
      </trkpt>
      <trkpt lat="46.31153" lon="-0.70406">
        <ele>59</ele>
        <time>2011-09-20T15:36:10Z</time>
      </trkpt>
      <trkpt lat="46.3115" lon="-0.70416">
        <ele>60</ele>
        <time>2011-09-20T15:36:15Z</time>
      </trkpt>
      <trkpt lat="46.31148" lon="-0.70425">
        <ele>60</ele>
        <time>2011-09-20T15:36:20Z</time>
      </trkpt>
      <trkpt lat="46.31144" lon="-0.70432">
        <ele>58</ele>
        <time>2011-09-20T15:36:25Z</time>
      </trkpt>
      <trkpt lat="46.3114" lon="-0.70439">
        <ele>58</ele>
        <time>2011-09-20T15:36:30Z</time>
      </trkpt>
      <trkpt lat="46.31135" lon="-0.70448">
        <ele>59</ele>
        <time>2011-09-20T15:36:35Z</time>
      </trkpt>
      <trkpt lat="46.31132" lon="-0.70454">
        <ele>54</ele>
        <time>2011-09-20T15:36:40Z</time>
      </trkpt>
      <trkpt lat="46.31132" lon="-0.70454">
        <ele>55</ele>
        <time>2011-09-20T15:36:45Z</time>
      </trkpt>
      <trkpt lat="46.31132" lon="-0.70455">
        <ele>55</ele>
        <time>2011-09-20T15:36:50Z</time>
      </trkpt>
      <trkpt lat="46.31129" lon="-0.70457">
        <ele>56</ele>
        <time>2011-09-20T15:36:55Z</time>
      </trkpt>
      <trkpt lat="46.31129" lon="-0.70461">
        <ele>58</ele>
        <time>2011-09-20T15:37:00Z</time>
      </trkpt>
      <trkpt lat="46.3113" lon="-0.70468">
        <ele>58</ele>
        <time>2011-09-20T15:37:05Z</time>
      </trkpt>
      <trkpt lat="46.31134" lon="-0.70475">
        <ele>58</ele>
        <time>2011-09-20T15:37:10Z</time>
      </trkpt>
      <trkpt lat="46.31135" lon="-0.70478">
        <ele>56</ele>
        <time>2011-09-20T15:37:15Z</time>
      </trkpt>
      <trkpt lat="46.31137" lon="-0.70486">
        <ele>56</ele>
        <time>2011-09-20T15:37:20Z</time>
      </trkpt>
      <trkpt lat="46.31142" lon="-0.70494">
        <ele>56</ele>
        <time>2011-09-20T15:37:25Z</time>
      </trkpt>
      <trkpt lat="46.31148" lon="-0.70499">
        <ele>57</ele>
        <time>2011-09-20T15:37:30Z</time>
      </trkpt>
      <trkpt lat="46.31152" lon="-0.70502">
        <ele>59</ele>
        <time>2011-09-20T15:37:35Z</time>
      </trkpt>
      <trkpt lat="46.31158" lon="-0.70509">
        <ele>59</ele>
        <time>2011-09-20T15:37:40Z</time>
      </trkpt>
      <trkpt lat="46.31162" lon="-0.70515">
        <ele>58</ele>
        <time>2011-09-20T15:37:45Z</time>
      </trkpt>
      <trkpt lat="46.31165" lon="-0.7052">
        <ele>59</ele>
        <time>2011-09-20T15:37:50Z</time>
      </trkpt>
      <trkpt lat="46.3117" lon="-0.70528">
        <ele>58</ele>
        <time>2011-09-20T15:37:55Z</time>
      </trkpt>
      <trkpt lat="46.31172" lon="-0.70534">
        <ele>57</ele>
        <time>2011-09-20T15:38:00Z</time>
      </trkpt>
      <trkpt lat="46.31175" lon="-0.70539">
        <ele>58</ele>
        <time>2011-09-20T15:38:05Z</time>
      </trkpt>
      <trkpt lat="46.31186" lon="-0.70546">
        <ele>61</ele>
        <time>2011-09-20T15:38:10Z</time>
      </trkpt>
      <trkpt lat="46.31191" lon="-0.70551">
        <ele>61</ele>
        <time>2011-09-20T15:38:15Z</time>
      </trkpt>
      <trkpt lat="46.31194" lon="-0.70557">
        <ele>59</ele>
        <time>2011-09-20T15:38:20Z</time>
      </trkpt>
      <trkpt lat="46.31198" lon="-0.70561">
        <ele>57</ele>
        <time>2011-09-20T15:38:25Z</time>
      </trkpt>
      <trkpt lat="46.31203" lon="-0.70566">
        <ele>56</ele>
        <time>2011-09-20T15:38:30Z</time>
      </trkpt>
      <trkpt lat="46.31208" lon="-0.70572">
        <ele>54</ele>
        <time>2011-09-20T15:38:35Z</time>
      </trkpt>
      <trkpt lat="46.31213" lon="-0.70578">
        <ele>50</ele>
        <time>2011-09-20T15:38:40Z</time>
      </trkpt>
      <trkpt lat="46.31215" lon="-0.70587">
        <ele>49</ele>
        <time>2011-09-20T15:38:45Z</time>
      </trkpt>
      <trkpt lat="46.31221" lon="-0.70592">
        <ele>46</ele>
        <time>2011-09-20T15:38:50Z</time>
      </trkpt>
      <trkpt lat="46.31226" lon="-0.70598">
        <ele>46</ele>
        <time>2011-09-20T15:38:55Z</time>
      </trkpt>
      <trkpt lat="46.3123" lon="-0.70604">
        <ele>46</ele>
        <time>2011-09-20T15:39:00Z</time>
      </trkpt>
      <trkpt lat="46.31231" lon="-0.70606">
        <ele>48</ele>
        <time>2011-09-20T15:39:05Z</time>
      </trkpt>
      <trkpt lat="46.31234" lon="-0.70613">
        <ele>48</ele>
        <time>2011-09-20T15:39:10Z</time>
      </trkpt>
      <trkpt lat="46.31241" lon="-0.70618">
        <ele>45</ele>
        <time>2011-09-20T15:39:15Z</time>
      </trkpt>
      <trkpt lat="46.31242" lon="-0.70624">
        <ele>46</ele>
        <time>2011-09-20T15:39:20Z</time>
      </trkpt>
      <trkpt lat="46.31239" lon="-0.7063">
        <ele>48</ele>
        <time>2011-09-20T15:39:25Z</time>
      </trkpt>
      <trkpt lat="46.31234" lon="-0.70637">
        <ele>48</ele>
        <time>2011-09-20T15:39:30Z</time>
      </trkpt>
      <trkpt lat="46.31231" lon="-0.70643">
        <ele>48</ele>
        <time>2011-09-20T15:39:35Z</time>
      </trkpt>
      <trkpt lat="46.31228" lon="-0.70649">
        <ele>50</ele>
        <time>2011-09-20T15:39:40Z</time>
      </trkpt>
      <trkpt lat="46.31221" lon="-0.70654">
        <ele>49</ele>
        <time>2011-09-20T15:39:45Z</time>
      </trkpt>
      <trkpt lat="46.31217" lon="-0.70662">
        <ele>49</ele>
        <time>2011-09-20T15:39:50Z</time>
      </trkpt>
      <trkpt lat="46.31214" lon="-0.70668">
        <ele>49</ele>
        <time>2011-09-20T15:39:55Z</time>
      </trkpt>
      <trkpt lat="46.31211" lon="-0.70677">
        <ele>50</ele>
        <time>2011-09-20T15:40:00Z</time>
      </trkpt>
      <trkpt lat="46.31209" lon="-0.70686">
        <ele>50</ele>
        <time>2011-09-20T15:40:05Z</time>
      </trkpt>
      <trkpt lat="46.31203" lon="-0.70696">
        <ele>51</ele>
        <time>2011-09-20T15:40:10Z</time>
      </trkpt>
      <trkpt lat="46.31201" lon="-0.70703">
        <ele>51</ele>
        <time>2011-09-20T15:40:15Z</time>
      </trkpt>
      <trkpt lat="46.31198" lon="-0.70709">
        <ele>51</ele>
        <time>2011-09-20T15:40:20Z</time>
      </trkpt>
      <trkpt lat="46.31193" lon="-0.70714">
        <ele>52</ele>
        <time>2011-09-20T15:40:25Z</time>
      </trkpt>
      <trkpt lat="46.3119" lon="-0.70721">
        <ele>50</ele>
        <time>2011-09-20T15:40:30Z</time>
      </trkpt>
      <trkpt lat="46.31186" lon="-0.70729">
        <ele>51</ele>
        <time>2011-09-20T15:40:35Z</time>
      </trkpt>
      <trkpt lat="46.31181" lon="-0.70738">
        <ele>55</ele>
        <time>2011-09-20T15:40:40Z</time>
      </trkpt>
      <trkpt lat="46.31178" lon="-0.70743">
        <ele>53</ele>
        <time>2011-09-20T15:40:45Z</time>
      </trkpt>
      <trkpt lat="46.31175" lon="-0.7075">
        <ele>52</ele>
        <time>2011-09-20T15:40:50Z</time>
      </trkpt>
      <trkpt lat="46.3117" lon="-0.70758">
        <ele>52</ele>
        <time>2011-09-20T15:40:55Z</time>
      </trkpt>
      <trkpt lat="46.31167" lon="-0.70764">
        <ele>52</ele>
        <time>2011-09-20T15:41:00Z</time>
      </trkpt>
      <trkpt lat="46.31165" lon="-0.7077">
        <ele>52</ele>
        <time>2011-09-20T15:41:05Z</time>
      </trkpt>
      <trkpt lat="46.31163" lon="-0.70778">
        <ele>51</ele>
        <time>2011-09-20T15:41:10Z</time>
      </trkpt>
      <trkpt lat="46.31159" lon="-0.70786">
        <ele>50</ele>
        <time>2011-09-20T15:41:15Z</time>
      </trkpt>
      <trkpt lat="46.31157" lon="-0.70793">
        <ele>51</ele>
        <time>2011-09-20T15:41:20Z</time>
      </trkpt>
      <trkpt lat="46.31154" lon="-0.708">
        <ele>51</ele>
        <time>2011-09-20T15:41:25Z</time>
      </trkpt>
      <trkpt lat="46.3115" lon="-0.70808">
        <ele>51</ele>
        <time>2011-09-20T15:41:30Z</time>
      </trkpt>
      <trkpt lat="46.31148" lon="-0.70816">
        <ele>51</ele>
        <time>2011-09-20T15:41:35Z</time>
      </trkpt>
      <trkpt lat="46.31146" lon="-0.70824">
        <ele>52</ele>
        <time>2011-09-20T15:41:40Z</time>
      </trkpt>
      <trkpt lat="46.31142" lon="-0.70833">
        <ele>50</ele>
        <time>2011-09-20T15:41:45Z</time>
      </trkpt>
      <trkpt lat="46.31136" lon="-0.70838">
        <ele>49</ele>
        <time>2011-09-20T15:41:50Z</time>
      </trkpt>
      <trkpt lat="46.31131" lon="-0.70846">
        <ele>49</ele>
        <time>2011-09-20T15:41:55Z</time>
      </trkpt>
      <trkpt lat="46.31128" lon="-0.70851">
        <ele>50</ele>
        <time>2011-09-20T15:42:00Z</time>
      </trkpt>
      <trkpt lat="46.31125" lon="-0.70859">
        <ele>51</ele>
        <time>2011-09-20T15:42:05Z</time>
      </trkpt>
      <trkpt lat="46.3112" lon="-0.70866">
        <ele>52</ele>
        <time>2011-09-20T15:42:10Z</time>
      </trkpt>
      <trkpt lat="46.3112" lon="-0.70875">
        <ele>50</ele>
        <time>2011-09-20T15:42:15Z</time>
      </trkpt>
      <trkpt lat="46.31117" lon="-0.70882">
        <ele>49</ele>
        <time>2011-09-20T15:42:20Z</time>
      </trkpt>
      <trkpt lat="46.31113" lon="-0.70888">
        <ele>47</ele>
        <time>2011-09-20T15:42:25Z</time>
      </trkpt>
      <trkpt lat="46.31109" lon="-0.70895">
        <ele>46</ele>
        <time>2011-09-20T15:42:30Z</time>
      </trkpt>
      <trkpt lat="46.31106" lon="-0.709">
        <ele>47</ele>
        <time>2011-09-20T15:42:35Z</time>
      </trkpt>
      <trkpt lat="46.31105" lon="-0.70909">
        <ele>49</ele>
        <time>2011-09-20T15:42:40Z</time>
      </trkpt>
      <trkpt lat="46.31104" lon="-0.70915">
        <ele>50</ele>
        <time>2011-09-20T15:42:45Z</time>
      </trkpt>
      <trkpt lat="46.31103" lon="-0.70925">
        <ele>49</ele>
        <time>2011-09-20T15:42:50Z</time>
      </trkpt>
      <trkpt lat="46.31099" lon="-0.70932">
        <ele>50</ele>
        <time>2011-09-20T15:42:55Z</time>
      </trkpt>
      <trkpt lat="46.31095" lon="-0.70939">
        <ele>52</ele>
        <time>2011-09-20T15:43:00Z</time>
      </trkpt>
      <trkpt lat="46.31094" lon="-0.70947">
        <ele>52</ele>
        <time>2011-09-20T15:43:05Z</time>
      </trkpt>
      <trkpt lat="46.31089" lon="-0.70952">
        <ele>54</ele>
        <time>2011-09-20T15:43:10Z</time>
      </trkpt>
      <trkpt lat="46.31086" lon="-0.7096">
        <ele>53</ele>
        <time>2011-09-20T15:43:15Z</time>
      </trkpt>
      <trkpt lat="46.31081" lon="-0.70966">
        <ele>55</ele>
        <time>2011-09-20T15:43:20Z</time>
      </trkpt>
      <trkpt lat="46.31076" lon="-0.70974">
        <ele>54</ele>
        <time>2011-09-20T15:43:25Z</time>
      </trkpt>
      <trkpt lat="46.31069" lon="-0.7098">
        <ele>54</ele>
        <time>2011-09-20T15:43:30Z</time>
      </trkpt>
      <trkpt lat="46.31063" lon="-0.70985">
        <ele>52</ele>
        <time>2011-09-20T15:43:35Z</time>
      </trkpt>
      <trkpt lat="46.31056" lon="-0.70989">
        <ele>53</ele>
        <time>2011-09-20T15:43:40Z</time>
      </trkpt>
      <trkpt lat="46.31051" lon="-0.70994">
        <ele>54</ele>
        <time>2011-09-20T15:43:45Z</time>
      </trkpt>
      <trkpt lat="46.3105" lon="-0.71002">
        <ele>56</ele>
        <time>2011-09-20T15:43:50Z</time>
      </trkpt>
      <trkpt lat="46.3105" lon="-0.71011">
        <ele>56</ele>
        <time>2011-09-20T15:43:55Z</time>
      </trkpt>
      <trkpt lat="46.31051" lon="-0.71022">
        <ele>55</ele>
        <time>2011-09-20T15:44:00Z</time>
      </trkpt>
      <trkpt lat="46.3105" lon="-0.71029">
        <ele>56</ele>
        <time>2011-09-20T15:44:05Z</time>
      </trkpt>
      <trkpt lat="46.31049" lon="-0.71037">
        <ele>55</ele>
        <time>2011-09-20T15:44:10Z</time>
      </trkpt>
      <trkpt lat="46.31047" lon="-0.71045">
        <ele>53</ele>
        <time>2011-09-20T15:44:15Z</time>
      </trkpt>
      <trkpt lat="46.31044" lon="-0.71053">
        <ele>52</ele>
        <time>2011-09-20T15:44:20Z</time>
      </trkpt>
      <trkpt lat="46.31043" lon="-0.71061">
        <ele>53</ele>
        <time>2011-09-20T15:44:25Z</time>
      </trkpt>
      <trkpt lat="46.31042" lon="-0.7107">
        <ele>55</ele>
        <time>2011-09-20T15:44:30Z</time>
      </trkpt>
      <trkpt lat="46.3104" lon="-0.71079">
        <ele>55</ele>
        <time>2011-09-20T15:44:35Z</time>
      </trkpt>
      <trkpt lat="46.31037" lon="-0.71086">
        <ele>55</ele>
        <time>2011-09-20T15:44:40Z</time>
      </trkpt>
      <trkpt lat="46.31032" lon="-0.71091">
        <ele>56</ele>
        <time>2011-09-20T15:44:45Z</time>
      </trkpt>
      <trkpt lat="46.31026" lon="-0.71097">
        <ele>56</ele>
        <time>2011-09-20T15:44:50Z</time>
      </trkpt>
      <trkpt lat="46.31022" lon="-0.71105">
        <ele>57</ele>
        <time>2011-09-20T15:44:55Z</time>
      </trkpt>
      <trkpt lat="46.31018" lon="-0.71112">
        <ele>57</ele>
        <time>2011-09-20T15:45:00Z</time>
      </trkpt>
      <trkpt lat="46.31014" lon="-0.71117">
        <ele>58</ele>
        <time>2011-09-20T15:45:05Z</time>
      </trkpt>
      <trkpt lat="46.31012" lon="-0.71122">
        <ele>58</ele>
        <time>2011-09-20T15:45:10Z</time>
      </trkpt>
      <trkpt lat="46.31007" lon="-0.71131">
        <ele>58</ele>
        <time>2011-09-20T15:45:15Z</time>
      </trkpt>
      <trkpt lat="46.31003" lon="-0.71141">
        <ele>59</ele>
        <time>2011-09-20T15:45:20Z</time>
      </trkpt>
      <trkpt lat="46.31004" lon="-0.71149">
        <ele>55</ele>
        <time>2011-09-20T15:45:25Z</time>
      </trkpt>
      <trkpt lat="46.31007" lon="-0.71158">
        <ele>53</ele>
        <time>2011-09-20T15:45:30Z</time>
      </trkpt>
      <trkpt lat="46.31008" lon="-0.71168">
        <ele>53</ele>
        <time>2011-09-20T15:45:35Z</time>
      </trkpt>
      <trkpt lat="46.3101" lon="-0.7118">
        <ele>52</ele>
        <time>2011-09-20T15:45:40Z</time>
      </trkpt>
      <trkpt lat="46.31009" lon="-0.71187">
        <ele>52</ele>
        <time>2011-09-20T15:45:45Z</time>
      </trkpt>
      <trkpt lat="46.3101" lon="-0.71194">
        <ele>54</ele>
        <time>2011-09-20T15:45:50Z</time>
      </trkpt>
      <trkpt lat="46.31012" lon="-0.71197">
        <ele>55</ele>
        <time>2011-09-20T15:45:55Z</time>
      </trkpt>
      <trkpt lat="46.31017" lon="-0.71201">
        <ele>55</ele>
        <time>2011-09-20T15:46:00Z</time>
      </trkpt>
      <trkpt lat="46.31018" lon="-0.71201">
        <ele>56</ele>
        <time>2011-09-20T15:46:05Z</time>
      </trkpt>
      <trkpt lat="46.31021" lon="-0.71206">
        <ele>56</ele>
        <time>2011-09-20T15:46:10Z</time>
      </trkpt>
      <trkpt lat="46.31024" lon="-0.71204">
        <ele>57</ele>
        <time>2011-09-20T15:46:15Z</time>
      </trkpt>
      <trkpt lat="46.31023" lon="-0.71203">
        <ele>57</ele>
        <time>2011-09-20T15:46:20Z</time>
      </trkpt>
      <trkpt lat="46.31025" lon="-0.71205">
        <ele>58</ele>
        <time>2011-09-20T15:46:25Z</time>
      </trkpt>
      <trkpt lat="46.31028" lon="-0.71207">
        <ele>60</ele>
        <time>2011-09-20T15:46:30Z</time>
      </trkpt>
      <trkpt lat="46.31039" lon="-0.71214">
        <ele>61</ele>
        <time>2011-09-20T15:46:35Z</time>
      </trkpt>
      <trkpt lat="46.31041" lon="-0.71224">
        <ele>60</ele>
        <time>2011-09-20T15:46:40Z</time>
      </trkpt>
      <trkpt lat="46.31043" lon="-0.71234">
        <ele>59</ele>
        <time>2011-09-20T15:46:45Z</time>
      </trkpt>
      <trkpt lat="46.31044" lon="-0.71242">
        <ele>59</ele>
        <time>2011-09-20T15:46:50Z</time>
      </trkpt>
      <trkpt lat="46.31043" lon="-0.71252">
        <ele>59</ele>
        <time>2011-09-20T15:46:55Z</time>
      </trkpt>
      <trkpt lat="46.31043" lon="-0.71265">
        <ele>57</ele>
        <time>2011-09-20T15:47:00Z</time>
      </trkpt>
      <trkpt lat="46.31045" lon="-0.71267">
        <ele>56</ele>
        <time>2011-09-20T15:47:05Z</time>
      </trkpt>
      <trkpt lat="46.31047" lon="-0.71275">
        <ele>56</ele>
        <time>2011-09-20T15:47:10Z</time>
      </trkpt>
      <trkpt lat="46.31048" lon="-0.71287">
        <ele>56</ele>
        <time>2011-09-20T15:47:15Z</time>
      </trkpt>
      <trkpt lat="46.31053" lon="-0.71291">
        <ele>55</ele>
        <time>2011-09-20T15:47:20Z</time>
      </trkpt>
      <trkpt lat="46.31057" lon="-0.71296">
        <ele>54</ele>
        <time>2011-09-20T15:47:25Z</time>
      </trkpt>
      <trkpt lat="46.31061" lon="-0.71307">
        <ele>56</ele>
        <time>2011-09-20T15:47:30Z</time>
      </trkpt>
      <trkpt lat="46.31066" lon="-0.71315">
        <ele>56</ele>
        <time>2011-09-20T15:47:35Z</time>
      </trkpt>
      <trkpt lat="46.31067" lon="-0.71324">
        <ele>56</ele>
        <time>2011-09-20T15:47:40Z</time>
      </trkpt>
      <trkpt lat="46.31069" lon="-0.7133">
        <ele>57</ele>
        <time>2011-09-20T15:47:45Z</time>
      </trkpt>
      <trkpt lat="46.31074" lon="-0.71338">
        <ele>57</ele>
        <time>2011-09-20T15:47:50Z</time>
      </trkpt>
      <trkpt lat="46.31079" lon="-0.71346">
        <ele>57</ele>
        <time>2011-09-20T15:47:55Z</time>
      </trkpt>
      <trkpt lat="46.31086" lon="-0.71351">
        <ele>55</ele>
        <time>2011-09-20T15:48:00Z</time>
      </trkpt>
      <trkpt lat="46.31092" lon="-0.71358">
        <ele>53</ele>
        <time>2011-09-20T15:48:05Z</time>
      </trkpt>
      <trkpt lat="46.31101" lon="-0.71356">
        <ele>52</ele>
        <time>2011-09-20T15:48:10Z</time>
      </trkpt>
      <trkpt lat="46.31104" lon="-0.71347">
        <ele>50</ele>
        <time>2011-09-20T15:48:15Z</time>
      </trkpt>
      <trkpt lat="46.31105" lon="-0.71341">
        <ele>51</ele>
        <time>2011-09-20T15:48:20Z</time>
      </trkpt>
      <trkpt lat="46.31111" lon="-0.71335">
        <ele>49</ele>
        <time>2011-09-20T15:48:25Z</time>
      </trkpt>
      <trkpt lat="46.31119" lon="-0.71333">
        <ele>46</ele>
        <time>2011-09-20T15:48:30Z</time>
      </trkpt>
      <trkpt lat="46.31124" lon="-0.71334">
        <ele>47</ele>
        <time>2011-09-20T15:48:35Z</time>
      </trkpt>
      <trkpt lat="46.31131" lon="-0.71338">
        <ele>38</ele>
        <time>2011-09-20T15:48:40Z</time>
      </trkpt>
      <trkpt lat="46.31136" lon="-0.71342">
        <ele>36</ele>
        <time>2011-09-20T15:48:45Z</time>
      </trkpt>
      <trkpt lat="46.3114" lon="-0.71349">
        <ele>37</ele>
        <time>2011-09-20T15:48:50Z</time>
      </trkpt>
      <trkpt lat="46.31149" lon="-0.71355">
        <ele>32</ele>
        <time>2011-09-20T15:48:55Z</time>
      </trkpt>
      <trkpt lat="46.31157" lon="-0.7136">
        <ele>27</ele>
        <time>2011-09-20T15:49:00Z</time>
      </trkpt>
      <trkpt lat="46.31161" lon="-0.71365">
        <ele>30</ele>
        <time>2011-09-20T15:49:05Z</time>
      </trkpt>
      <trkpt lat="46.31165" lon="-0.7137">
        <ele>31</ele>
        <time>2011-09-20T15:49:10Z</time>
      </trkpt>
      <trkpt lat="46.31169" lon="-0.71376">
        <ele>33</ele>
        <time>2011-09-20T15:49:15Z</time>
      </trkpt>
      <trkpt lat="46.3117" lon="-0.71379">
        <ele>39</ele>
        <time>2011-09-20T15:49:20Z</time>
      </trkpt>
      <trkpt lat="46.31172" lon="-0.71386">
        <ele>41</ele>
        <time>2011-09-20T15:49:25Z</time>
      </trkpt>
      <trkpt lat="46.31173" lon="-0.71393">
        <ele>47</ele>
        <time>2011-09-20T15:49:30Z</time>
      </trkpt>
      <trkpt lat="46.31176" lon="-0.71402">
        <ele>49</ele>
        <time>2011-09-20T15:49:35Z</time>
      </trkpt>
      <trkpt lat="46.31179" lon="-0.71407">
        <ele>50</ele>
        <time>2011-09-20T15:49:40Z</time>
      </trkpt>
      <trkpt lat="46.31183" lon="-0.71414">
        <ele>50</ele>
        <time>2011-09-20T15:49:45Z</time>
      </trkpt>
      <trkpt lat="46.31185" lon="-0.7142">
        <ele>52</ele>
        <time>2011-09-20T15:49:50Z</time>
      </trkpt>
      <trkpt lat="46.31191" lon="-0.71423">
        <ele>54</ele>
        <time>2011-09-20T15:49:55Z</time>
      </trkpt>
      <trkpt lat="46.31195" lon="-0.7143">
        <ele>55</ele>
        <time>2011-09-20T15:50:00Z</time>
      </trkpt>
      <trkpt lat="46.312" lon="-0.71433">
        <ele>56</ele>
        <time>2011-09-20T15:50:05Z</time>
      </trkpt>
      <trkpt lat="46.31203" lon="-0.71436">
        <ele>57</ele>
        <time>2011-09-20T15:50:10Z</time>
      </trkpt>
      <trkpt lat="46.31208" lon="-0.7144">
        <ele>57</ele>
        <time>2011-09-20T15:50:15Z</time>
      </trkpt>
      <trkpt lat="46.31215" lon="-0.71443">
        <ele>56</ele>
        <time>2011-09-20T15:50:20Z</time>
      </trkpt>
      <trkpt lat="46.31218" lon="-0.71451">
        <ele>58</ele>
        <time>2011-09-20T15:50:25Z</time>
      </trkpt>
      <trkpt lat="46.3122" lon="-0.71457">
        <ele>58</ele>
        <time>2011-09-20T15:50:30Z</time>
      </trkpt>
      <trkpt lat="46.31225" lon="-0.71463">
        <ele>60</ele>
        <time>2011-09-20T15:50:35Z</time>
      </trkpt>
      <trkpt lat="46.31229" lon="-0.71466">
        <ele>60</ele>
        <time>2011-09-20T15:50:40Z</time>
      </trkpt>
      <trkpt lat="46.31231" lon="-0.71469">
        <ele>61</ele>
        <time>2011-09-20T15:50:45Z</time>
      </trkpt>
      <trkpt lat="46.31235" lon="-0.71476">
        <ele>60</ele>
        <time>2011-09-20T15:50:50Z</time>
      </trkpt>
      <trkpt lat="46.31245" lon="-0.71484">
        <ele>60</ele>
        <time>2011-09-20T15:50:55Z</time>
      </trkpt>
      <trkpt lat="46.31251" lon="-0.71491">
        <ele>57</ele>
        <time>2011-09-20T15:51:00Z</time>
      </trkpt>
      <trkpt lat="46.31256" lon="-0.71501">
        <ele>55</ele>
        <time>2011-09-20T15:51:05Z</time>
      </trkpt>
      <trkpt lat="46.3126" lon="-0.71509">
        <ele>54</ele>
        <time>2011-09-20T15:51:10Z</time>
      </trkpt>
      <trkpt lat="46.31259" lon="-0.71518">
        <ele>57</ele>
        <time>2011-09-20T15:51:15Z</time>
      </trkpt>
      <trkpt lat="46.31259" lon="-0.71521">
        <ele>58</ele>
        <time>2011-09-20T15:51:20Z</time>
      </trkpt>
      <trkpt lat="46.31259" lon="-0.71525">
        <ele>58</ele>
        <time>2011-09-20T15:51:25Z</time>
      </trkpt>
      <trkpt lat="46.31257" lon="-0.7153">
        <ele>58</ele>
        <time>2011-09-20T15:51:30Z</time>
      </trkpt>
      <trkpt lat="46.31252" lon="-0.71536">
        <ele>60</ele>
        <time>2011-09-20T15:51:35Z</time>
      </trkpt>
      <trkpt lat="46.3125" lon="-0.71546">
        <ele>59</ele>
        <time>2011-09-20T15:51:40Z</time>
      </trkpt>
      <trkpt lat="46.31251" lon="-0.71554">
        <ele>56</ele>
        <time>2011-09-20T15:51:45Z</time>
      </trkpt>
      <trkpt lat="46.31249" lon="-0.7156">
        <ele>55</ele>
        <time>2011-09-20T15:51:50Z</time>
      </trkpt>
      <trkpt lat="46.3125" lon="-0.71567">
        <ele>57</ele>
        <time>2011-09-20T15:51:55Z</time>
      </trkpt>
      <trkpt lat="46.31242" lon="-0.71572">
        <ele>57</ele>
        <time>2011-09-20T15:52:00Z</time>
      </trkpt>
      <trkpt lat="46.31237" lon="-0.71579">
        <ele>58</ele>
        <time>2011-09-20T15:52:05Z</time>
      </trkpt>
      <trkpt lat="46.3123" lon="-0.71588">
        <ele>54</ele>
        <time>2011-09-20T15:52:10Z</time>
      </trkpt>
      <trkpt lat="46.31225" lon="-0.71594">
        <ele>53</ele>
        <time>2011-09-20T15:52:15Z</time>
      </trkpt>
      <trkpt lat="46.31217" lon="-0.71601">
        <ele>53</ele>
        <time>2011-09-20T15:52:20Z</time>
      </trkpt>
      <trkpt lat="46.31208" lon="-0.71607">
        <ele>54</ele>
        <time>2011-09-20T15:52:25Z</time>
      </trkpt>
      <trkpt lat="46.31207" lon="-0.71617">
        <ele>52</ele>
        <time>2011-09-20T15:52:30Z</time>
      </trkpt>
      <trkpt lat="46.31207" lon="-0.71628">
        <ele>50</ele>
        <time>2011-09-20T15:52:35Z</time>
      </trkpt>
      <trkpt lat="46.31209" lon="-0.71635">
        <ele>48</ele>
        <time>2011-09-20T15:52:40Z</time>
      </trkpt>
      <trkpt lat="46.31211" lon="-0.71642">
        <ele>49</ele>
        <time>2011-09-20T15:52:45Z</time>
      </trkpt>
      <trkpt lat="46.31213" lon="-0.71649">
        <ele>49</ele>
        <time>2011-09-20T15:52:50Z</time>
      </trkpt>
      <trkpt lat="46.31217" lon="-0.71656">
        <ele>49</ele>
        <time>2011-09-20T15:52:55Z</time>
      </trkpt>
      <trkpt lat="46.31222" lon="-0.71663">
        <ele>49</ele>
        <time>2011-09-20T15:53:00Z</time>
      </trkpt>
      <trkpt lat="46.31226" lon="-0.71668">
        <ele>49</ele>
        <time>2011-09-20T15:53:05Z</time>
      </trkpt>
      <trkpt lat="46.31229" lon="-0.71673">
        <ele>50</ele>
        <time>2011-09-20T15:53:10Z</time>
      </trkpt>
      <trkpt lat="46.31232" lon="-0.71679">
        <ele>49</ele>
        <time>2011-09-20T15:53:15Z</time>
      </trkpt>
      <trkpt lat="46.31234" lon="-0.7168">
        <ele>50</ele>
        <time>2011-09-20T15:53:20Z</time>
      </trkpt>
      <trkpt lat="46.31237" lon="-0.71683">
        <ele>50</ele>
        <time>2011-09-20T15:53:25Z</time>
      </trkpt>
      <trkpt lat="46.31238" lon="-0.71682">
        <ele>50</ele>
        <time>2011-09-20T15:53:30Z</time>
      </trkpt>
      <trkpt lat="46.31245" lon="-0.71688">
        <ele>48</ele>
        <time>2011-09-20T15:53:35Z</time>
      </trkpt>
      <trkpt lat="46.31257" lon="-0.71694">
        <ele>49</ele>
        <time>2011-09-20T15:53:40Z</time>
      </trkpt>
      <trkpt lat="46.31261" lon="-0.71698">
        <ele>48</ele>
        <time>2011-09-20T15:53:45Z</time>
      </trkpt>
      <trkpt lat="46.31265" lon="-0.71705">
        <ele>50</ele>
        <time>2011-09-20T15:53:50Z</time>
      </trkpt>
      <trkpt lat="46.31269" lon="-0.7171">
        <ele>49</ele>
        <time>2011-09-20T15:53:55Z</time>
      </trkpt>
      <trkpt lat="46.31268" lon="-0.71719">
        <ele>51</ele>
        <time>2011-09-20T15:54:00Z</time>
      </trkpt>
      <trkpt lat="46.31272" lon="-0.71724">
        <ele>52</ele>
        <time>2011-09-20T15:54:05Z</time>
      </trkpt>
      <trkpt lat="46.31275" lon="-0.71731">
        <ele>53</ele>
        <time>2011-09-20T15:54:10Z</time>
      </trkpt>
      <trkpt lat="46.31278" lon="-0.71738">
        <ele>52</ele>
        <time>2011-09-20T15:54:15Z</time>
      </trkpt>
      <trkpt lat="46.31279" lon="-0.71746">
        <ele>53</ele>
        <time>2011-09-20T15:54:20Z</time>
      </trkpt>
      <trkpt lat="46.31281" lon="-0.71754">
        <ele>52</ele>
        <time>2011-09-20T15:54:25Z</time>
      </trkpt>
      <trkpt lat="46.31281" lon="-0.71762">
        <ele>53</ele>
        <time>2011-09-20T15:54:30Z</time>
      </trkpt>
      <trkpt lat="46.31283" lon="-0.71772">
        <ele>50</ele>
        <time>2011-09-20T15:54:35Z</time>
      </trkpt>
      <trkpt lat="46.31284" lon="-0.71782">
        <ele>52</ele>
        <time>2011-09-20T15:54:40Z</time>
      </trkpt>
      <trkpt lat="46.31286" lon="-0.7179">
        <ele>51</ele>
        <time>2011-09-20T15:54:45Z</time>
      </trkpt>
      <trkpt lat="46.31289" lon="-0.71799">
        <ele>47</ele>
        <time>2011-09-20T15:54:50Z</time>
      </trkpt>
      <trkpt lat="46.31291" lon="-0.71808">
        <ele>46</ele>
        <time>2011-09-20T15:54:55Z</time>
      </trkpt>
      <trkpt lat="46.31293" lon="-0.71813">
        <ele>45</ele>
        <time>2011-09-20T15:55:00Z</time>
      </trkpt>
      <trkpt lat="46.31296" lon="-0.71816">
        <ele>45</ele>
        <time>2011-09-20T15:55:05Z</time>
      </trkpt>
      <trkpt lat="46.31296" lon="-0.71816">
        <ele>46</ele>
        <time>2011-09-20T15:55:20Z</time>
      </trkpt>
      <trkpt lat="46.31297" lon="-0.71815">
        <ele>45</ele>
        <time>2011-09-20T15:55:25Z</time>
      </trkpt>
      <trkpt lat="46.31298" lon="-0.71816">
        <ele>45</ele>
        <time>2011-09-20T15:55:30Z</time>
      </trkpt>
      <trkpt lat="46.31297" lon="-0.71816">
        <ele>46</ele>
        <time>2011-09-20T15:55:35Z</time>
      </trkpt>
      <trkpt lat="46.31297" lon="-0.71818">
        <ele>46</ele>
        <time>2011-09-20T15:55:40Z</time>
      </trkpt>
      <trkpt lat="46.31296" lon="-0.71824">
        <ele>45</ele>
        <time>2011-09-20T15:55:45Z</time>
      </trkpt>
      <trkpt lat="46.31294" lon="-0.7183">
        <ele>44</ele>
        <time>2011-09-20T15:55:50Z</time>
      </trkpt>
      <trkpt lat="46.31288" lon="-0.71832">
        <ele>44</ele>
        <time>2011-09-20T15:55:55Z</time>
      </trkpt>
      <trkpt lat="46.31282" lon="-0.71833">
        <ele>45</ele>
        <time>2011-09-20T15:56:00Z</time>
      </trkpt>
      <trkpt lat="46.31279" lon="-0.71834">
        <ele>46</ele>
        <time>2011-09-20T15:56:05Z</time>
      </trkpt>
      <trkpt lat="46.31272" lon="-0.71837">
        <ele>45</ele>
        <time>2011-09-20T15:56:10Z</time>
      </trkpt>
      <trkpt lat="46.31267" lon="-0.7184">
        <ele>44</ele>
        <time>2011-09-20T15:56:15Z</time>
      </trkpt>
      <trkpt lat="46.3126" lon="-0.71844">
        <ele>44</ele>
        <time>2011-09-20T15:56:20Z</time>
      </trkpt>
      <trkpt lat="46.31254" lon="-0.71846">
        <ele>42</ele>
        <time>2011-09-20T15:56:25Z</time>
      </trkpt>
      <trkpt lat="46.31247" lon="-0.71849">
        <ele>41</ele>
        <time>2011-09-20T15:56:30Z</time>
      </trkpt>
      <trkpt lat="46.3124" lon="-0.71854">
        <ele>39</ele>
        <time>2011-09-20T15:56:35Z</time>
      </trkpt>
      <trkpt lat="46.31232" lon="-0.71854">
        <ele>40</ele>
        <time>2011-09-20T15:56:40Z</time>
      </trkpt>
      <trkpt lat="46.31228" lon="-0.71859">
        <ele>42</ele>
        <time>2011-09-20T15:56:45Z</time>
      </trkpt>
      <trkpt lat="46.31224" lon="-0.71864">
        <ele>42</ele>
        <time>2011-09-20T15:56:50Z</time>
      </trkpt>
      <trkpt lat="46.3122" lon="-0.71868">
        <ele>41</ele>
        <time>2011-09-20T15:56:55Z</time>
      </trkpt>
      <trkpt lat="46.31215" lon="-0.7187">
        <ele>40</ele>
        <time>2011-09-20T15:57:00Z</time>
      </trkpt>
      <trkpt lat="46.3121" lon="-0.71873">
        <ele>41</ele>
        <time>2011-09-20T15:57:05Z</time>
      </trkpt>
      <trkpt lat="46.31205" lon="-0.71875">
        <ele>40</ele>
        <time>2011-09-20T15:57:10Z</time>
      </trkpt>
      <trkpt lat="46.31199" lon="-0.71875">
        <ele>40</ele>
        <time>2011-09-20T15:57:15Z</time>
      </trkpt>
      <trkpt lat="46.31193" lon="-0.71872">
        <ele>41</ele>
        <time>2011-09-20T15:57:20Z</time>
      </trkpt>
      <trkpt lat="46.31192" lon="-0.71869">
        <ele>40</ele>
        <time>2011-09-20T15:57:25Z</time>
      </trkpt>
      <trkpt lat="46.31193" lon="-0.71863">
        <ele>35</ele>
        <time>2011-09-20T15:57:30Z</time>
      </trkpt>
      <trkpt lat="46.31187" lon="-0.71856">
        <ele>38</ele>
        <time>2011-09-20T15:57:35Z</time>
      </trkpt>
      <trkpt lat="46.31179" lon="-0.71857">
        <ele>39</ele>
        <time>2011-09-20T15:57:40Z</time>
      </trkpt>
      <trkpt lat="46.31177" lon="-0.71858">
        <ele>34</ele>
        <time>2011-09-20T15:57:45Z</time>
      </trkpt>
      <trkpt lat="46.31168" lon="-0.71863">
        <ele>38</ele>
        <time>2011-09-20T15:57:50Z</time>
      </trkpt>
      <trkpt lat="46.31161" lon="-0.71868">
        <ele>40</ele>
        <time>2011-09-20T15:57:55Z</time>
      </trkpt>
      <trkpt lat="46.31153" lon="-0.71872">
        <ele>39</ele>
        <time>2011-09-20T15:58:00Z</time>
      </trkpt>
      <trkpt lat="46.31146" lon="-0.71879">
        <ele>39</ele>
        <time>2011-09-20T15:58:05Z</time>
      </trkpt>
      <trkpt lat="46.3114" lon="-0.71883">
        <ele>41</ele>
        <time>2011-09-20T15:58:10Z</time>
      </trkpt>
      <trkpt lat="46.31133" lon="-0.71887">
        <ele>41</ele>
        <time>2011-09-20T15:58:15Z</time>
      </trkpt>
      <trkpt lat="46.31128" lon="-0.71891">
        <ele>42</ele>
        <time>2011-09-20T15:58:20Z</time>
      </trkpt>
      <trkpt lat="46.31126" lon="-0.71894">
        <ele>41</ele>
        <time>2011-09-20T15:58:25Z</time>
      </trkpt>
      <trkpt lat="46.31125" lon="-0.71897">
        <ele>42</ele>
        <time>2011-09-20T15:58:30Z</time>
      </trkpt>
      <trkpt lat="46.31119" lon="-0.71901">
        <ele>41</ele>
        <time>2011-09-20T15:58:35Z</time>
      </trkpt>
      <trkpt lat="46.31116" lon="-0.71905">
        <ele>41</ele>
        <time>2011-09-20T15:58:40Z</time>
      </trkpt>
      <trkpt lat="46.31112" lon="-0.71907">
        <ele>38</ele>
        <time>2011-09-20T15:58:45Z</time>
      </trkpt>
      <trkpt lat="46.31104" lon="-0.71909">
        <ele>43</ele>
        <time>2011-09-20T15:58:50Z</time>
      </trkpt>
      <trkpt lat="46.31096" lon="-0.71909">
        <ele>41</ele>
        <time>2011-09-20T15:58:55Z</time>
      </trkpt>
      <trkpt lat="46.31089" lon="-0.71905">
        <ele>37</ele>
        <time>2011-09-20T15:59:00Z</time>
      </trkpt>
      <trkpt lat="46.31087" lon="-0.71901">
        <ele>38</ele>
        <time>2011-09-20T15:59:05Z</time>
      </trkpt>
      <trkpt lat="46.31087" lon="-0.71894">
        <ele>38</ele>
        <time>2011-09-20T15:59:10Z</time>
      </trkpt>
      <trkpt lat="46.31087" lon="-0.71887">
        <ele>41</ele>
        <time>2011-09-20T15:59:15Z</time>
      </trkpt>
      <trkpt lat="46.31084" lon="-0.71879">
        <ele>44</ele>
        <time>2011-09-20T15:59:20Z</time>
      </trkpt>
      <trkpt lat="46.31084" lon="-0.71871">
        <ele>45</ele>
        <time>2011-09-20T15:59:25Z</time>
      </trkpt>
      <trkpt lat="46.31083" lon="-0.71863">
        <ele>46</ele>
        <time>2011-09-20T15:59:30Z</time>
      </trkpt>
      <trkpt lat="46.31075" lon="-0.71859">
        <ele>43</ele>
        <time>2011-09-20T15:59:35Z</time>
      </trkpt>
      <trkpt lat="46.31068" lon="-0.71856">
        <ele>40</ele>
        <time>2011-09-20T15:59:40Z</time>
      </trkpt>
      <trkpt lat="46.31061" lon="-0.71857">
        <ele>40</ele>
        <time>2011-09-20T15:59:45Z</time>
      </trkpt>
      <trkpt lat="46.31054" lon="-0.7186">
        <ele>40</ele>
        <time>2011-09-20T15:59:50Z</time>
      </trkpt>
      <trkpt lat="46.31047" lon="-0.71862">
        <ele>40</ele>
        <time>2011-09-20T15:59:55Z</time>
      </trkpt>
      <trkpt lat="46.31041" lon="-0.71862">
        <ele>42</ele>
        <time>2011-09-20T16:00:00Z</time>
      </trkpt>
      <trkpt lat="46.31036" lon="-0.71864">
        <ele>44</ele>
        <time>2011-09-20T16:00:05Z</time>
      </trkpt>
      <trkpt lat="46.31031" lon="-0.71869">
        <ele>46</ele>
        <time>2011-09-20T16:00:10Z</time>
      </trkpt>
      <trkpt lat="46.31027" lon="-0.71874">
        <ele>44</ele>
        <time>2011-09-20T16:00:15Z</time>
      </trkpt>
      <trkpt lat="46.31022" lon="-0.71877">
        <ele>46</ele>
        <time>2011-09-20T16:00:20Z</time>
      </trkpt>
      <trkpt lat="46.31018" lon="-0.71882">
        <ele>47</ele>
        <time>2011-09-20T16:00:25Z</time>
      </trkpt>
      <trkpt lat="46.31013" lon="-0.71886">
        <ele>49</ele>
        <time>2011-09-20T16:00:30Z</time>
      </trkpt>
      <trkpt lat="46.31007" lon="-0.7189">
        <ele>49</ele>
        <time>2011-09-20T16:00:35Z</time>
      </trkpt>
      <trkpt lat="46.31002" lon="-0.71893">
        <ele>48</ele>
        <time>2011-09-20T16:00:40Z</time>
      </trkpt>
      <trkpt lat="46.30996" lon="-0.71897">
        <ele>49</ele>
        <time>2011-09-20T16:00:45Z</time>
      </trkpt>
      <trkpt lat="46.3099" lon="-0.71898">
        <ele>48</ele>
        <time>2011-09-20T16:00:50Z</time>
      </trkpt>
      <trkpt lat="46.30985" lon="-0.71902">
        <ele>49</ele>
        <time>2011-09-20T16:00:55Z</time>
      </trkpt>
      <trkpt lat="46.30982" lon="-0.71907">
        <ele>47</ele>
        <time>2011-09-20T16:01:00Z</time>
      </trkpt>
      <trkpt lat="46.30976" lon="-0.7191">
        <ele>46</ele>
        <time>2011-09-20T16:01:05Z</time>
      </trkpt>
      <trkpt lat="46.30974" lon="-0.71913">
        <ele>41</ele>
        <time>2011-09-20T16:01:10Z</time>
      </trkpt>
      <trkpt lat="46.30966" lon="-0.71916">
        <ele>41</ele>
        <time>2011-09-20T16:01:15Z</time>
      </trkpt>
      <trkpt lat="46.30959" lon="-0.7192">
        <ele>41</ele>
        <time>2011-09-20T16:01:20Z</time>
      </trkpt>
      <trkpt lat="46.30952" lon="-0.71923">
        <ele>43</ele>
        <time>2011-09-20T16:01:25Z</time>
      </trkpt>
      <trkpt lat="46.30947" lon="-0.71926">
        <ele>43</ele>
        <time>2011-09-20T16:01:30Z</time>
      </trkpt>
      <trkpt lat="46.30943" lon="-0.71931">
        <ele>42</ele>
        <time>2011-09-20T16:01:35Z</time>
      </trkpt>
      <trkpt lat="46.30936" lon="-0.71934">
        <ele>41</ele>
        <time>2011-09-20T16:01:40Z</time>
      </trkpt>
      <trkpt lat="46.30931" lon="-0.71937">
        <ele>42</ele>
        <time>2011-09-20T16:01:45Z</time>
      </trkpt>
      <trkpt lat="46.30926" lon="-0.7194">
        <ele>41</ele>
        <time>2011-09-20T16:01:50Z</time>
      </trkpt>
      <trkpt lat="46.30921" lon="-0.71943">
        <ele>42</ele>
        <time>2011-09-20T16:01:55Z</time>
      </trkpt>
      <trkpt lat="46.30914" lon="-0.71945">
        <ele>40</ele>
        <time>2011-09-20T16:02:00Z</time>
      </trkpt>
      <trkpt lat="46.30908" lon="-0.7195">
        <ele>42</ele>
        <time>2011-09-20T16:02:05Z</time>
      </trkpt>
      <trkpt lat="46.30901" lon="-0.71953">
        <ele>43</ele>
        <time>2011-09-20T16:02:10Z</time>
      </trkpt>
      <trkpt lat="46.30896" lon="-0.71958">
        <ele>45</ele>
        <time>2011-09-20T16:02:15Z</time>
      </trkpt>
      <trkpt lat="46.30891" lon="-0.71962">
        <ele>45</ele>
        <time>2011-09-20T16:02:20Z</time>
      </trkpt>
      <trkpt lat="46.30885" lon="-0.71965">
        <ele>46</ele>
        <time>2011-09-20T16:02:25Z</time>
      </trkpt>
      <trkpt lat="46.3088" lon="-0.71969">
        <ele>47</ele>
        <time>2011-09-20T16:02:30Z</time>
      </trkpt>
      <trkpt lat="46.30875" lon="-0.71974">
        <ele>48</ele>
        <time>2011-09-20T16:02:35Z</time>
      </trkpt>
      <trkpt lat="46.30867" lon="-0.71979">
        <ele>52</ele>
        <time>2011-09-20T16:02:40Z</time>
      </trkpt>
      <trkpt lat="46.30861" lon="-0.71984">
        <ele>55</ele>
        <time>2011-09-20T16:02:45Z</time>
      </trkpt>
      <trkpt lat="46.30856" lon="-0.71989">
        <ele>56</ele>
        <time>2011-09-20T16:02:50Z</time>
      </trkpt>
      <trkpt lat="46.30853" lon="-0.71993">
        <ele>55</ele>
        <time>2011-09-20T16:02:55Z</time>
      </trkpt>
      <trkpt lat="46.3085" lon="-0.71996">
        <ele>54</ele>
        <time>2011-09-20T16:03:00Z</time>
      </trkpt>
      <trkpt lat="46.30844" lon="-0.71999">
        <ele>51</ele>
        <time>2011-09-20T16:03:05Z</time>
      </trkpt>
      <trkpt lat="46.3084" lon="-0.71997">
        <ele>49</ele>
        <time>2011-09-20T16:03:10Z</time>
      </trkpt>
      <trkpt lat="46.3084" lon="-0.71997">
        <ele>44</ele>
        <time>2011-09-20T16:03:15Z</time>
      </trkpt>
      <trkpt lat="46.30835" lon="-0.71993">
        <ele>42</ele>
        <time>2011-09-20T16:03:20Z</time>
      </trkpt>
      <trkpt lat="46.3083" lon="-0.71988">
        <ele>39</ele>
        <time>2011-09-20T16:03:25Z</time>
      </trkpt>
      <trkpt lat="46.3083" lon="-0.71983">
        <ele>38</ele>
        <time>2011-09-20T16:03:30Z</time>
      </trkpt>
      <trkpt lat="46.3083" lon="-0.71977">
        <ele>38</ele>
        <time>2011-09-20T16:03:35Z</time>
      </trkpt>
      <trkpt lat="46.30828" lon="-0.71971">
        <ele>41</ele>
        <time>2011-09-20T16:03:40Z</time>
      </trkpt>
      <trkpt lat="46.30824" lon="-0.71965">
        <ele>50</ele>
        <time>2011-09-20T16:03:45Z</time>
      </trkpt>
      <trkpt lat="46.30823" lon="-0.71956">
        <ele>51</ele>
        <time>2011-09-20T16:03:50Z</time>
      </trkpt>
      <trkpt lat="46.30822" lon="-0.71946">
        <ele>50</ele>
        <time>2011-09-20T16:03:55Z</time>
      </trkpt>
      <trkpt lat="46.30821" lon="-0.71937">
        <ele>48</ele>
        <time>2011-09-20T16:04:00Z</time>
      </trkpt>
      <trkpt lat="46.30819" lon="-0.71929">
        <ele>48</ele>
        <time>2011-09-20T16:04:05Z</time>
      </trkpt>
      <trkpt lat="46.30818" lon="-0.71922">
        <ele>48</ele>
        <time>2011-09-20T16:04:10Z</time>
      </trkpt>
      <trkpt lat="46.30816" lon="-0.71913">
        <ele>49</ele>
        <time>2011-09-20T16:04:15Z</time>
      </trkpt>
      <trkpt lat="46.30813" lon="-0.71905">
        <ele>48</ele>
        <time>2011-09-20T16:04:20Z</time>
      </trkpt>
      <trkpt lat="46.30812" lon="-0.71896">
        <ele>47</ele>
        <time>2011-09-20T16:04:25Z</time>
      </trkpt>
      <trkpt lat="46.30807" lon="-0.71889">
        <ele>45</ele>
        <time>2011-09-20T16:04:30Z</time>
      </trkpt>
      <trkpt lat="46.30802" lon="-0.71882">
        <ele>44</ele>
        <time>2011-09-20T16:04:35Z</time>
      </trkpt>
      <trkpt lat="46.30804" lon="-0.71876">
        <ele>44</ele>
        <time>2011-09-20T16:04:40Z</time>
      </trkpt>
      <trkpt lat="46.30802" lon="-0.71864">
        <ele>45</ele>
        <time>2011-09-20T16:04:45Z</time>
      </trkpt>
      <trkpt lat="46.30801" lon="-0.71857">
        <ele>46</ele>
        <time>2011-09-20T16:04:50Z</time>
      </trkpt>
      <trkpt lat="46.308" lon="-0.71849">
        <ele>46</ele>
        <time>2011-09-20T16:04:55Z</time>
      </trkpt>
      <trkpt lat="46.308" lon="-0.71841">
        <ele>45</ele>
        <time>2011-09-20T16:05:00Z</time>
      </trkpt>
      <trkpt lat="46.30799" lon="-0.71834">
        <ele>45</ele>
        <time>2011-09-20T16:05:05Z</time>
      </trkpt>
      <trkpt lat="46.30799" lon="-0.71828">
        <ele>45</ele>
        <time>2011-09-20T16:05:10Z</time>
      </trkpt>
      <trkpt lat="46.30796" lon="-0.71822">
        <ele>47</ele>
        <time>2011-09-20T16:05:15Z</time>
      </trkpt>
      <trkpt lat="46.30794" lon="-0.71816">
        <ele>47</ele>
        <time>2011-09-20T16:05:20Z</time>
      </trkpt>
      <trkpt lat="46.30793" lon="-0.7181">
        <ele>46</ele>
        <time>2011-09-20T16:05:25Z</time>
      </trkpt>
    </trkseg>
  </trk>
</gpx>